Wetterdaten: Donnerstag, 11.08.2016
Datum Zeit Temp. A. Temp. A. max Feuchte A. Luftdruck Regen Wind Richtung Richtung Sonnenschein ET UV Solar Taupunkt Windben
11.08.2016 00:00 8,4 C 8,4 C 94 % 1022,2 hPa 0,2 mm 4,6 km/h (1 Bft) O-SO 111 0 min 0,000 mm 0,0 UV-I 0 W/m 7,5 C 6,4 km/h (2 Bft)
11.08.2016 00:01 8,4 C 8,4 C 94 % 1022,2 hPa 0,0 mm 6,6 km/h (2 Bft) SO 135 0 min 0,000 mm 0,0 UV-I 0 W/m 7,5 C 8,0 km/h (2 Bft)
11.08.2016 00:02 8,3 C 8,4 C 94 % 1022,0 hPa 0,0 mm 6,6 km/h (2 Bft) O-SO 119 0 min 0,000 mm 0,0 UV-I 0 W/m 7,4 C 9,7 km/h (2 Bft)
11.08.2016 00:03 8,3 C 8,3 C 94 % 1022,0 hPa 0,0 mm 4,0 km/h (1 Bft) SO 132 0 min 0,000 mm 0,0 UV-I 0 W/m 7,4 C 6,4 km/h (2 Bft)
11.08.2016 00:04 8,3 C 8,3 C 94 % 1021,9 hPa 0,0 mm 3,5 km/h (1 Bft) O 83 0 min 0,000 mm 0,0 UV-I 0 W/m 7,4 C 6,4 km/h (2 Bft)
11.08.2016 00:05 8,3 C 8,3 C 94 % 1022,0 hPa 0,0 mm 1,1 km/h (1 Bft) S-SW 202 0 min 0,000 mm 0,0 UV-I 0 W/m 7,4 C 4,8 km/h (1 Bft)
11.08.2016 00:06 8,3 C 8,3 C 94 % 1022,0 hPa 0,0 mm 4,0 km/h (1 Bft) SW 227 0 min 0,000 mm 0,0 UV-I 0 W/m 7,4 C 4,8 km/h (1 Bft)
11.08.2016 00:07 8,3 C 8,3 C 94 % 1022,0 hPa 0,0 mm 4,2 km/h (1 Bft) W 267 0 min 0,000 mm 0,0 UV-I 0 W/m 7,4 C 6,4 km/h (2 Bft)
11.08.2016 00:08 8,3 C 8,3 C 94 % 1022,1 hPa 0,0 mm 6,4 km/h (2 Bft) W-SW 243 0 min 0,000 mm 0,0 UV-I 0 W/m 7,4 C 9,7 km/h (2 Bft)
11.08.2016 00:09 8,3 C 8,3 C 94 % 1022,2 hPa 0,0 mm 5,5 km/h (1 Bft) SW 236 0 min 0,000 mm 0,0 UV-I 0 W/m 7,4 C 6,4 km/h (2 Bft)
11.08.2016 00:10 8,3 C 8,3 C 94 % 1022,1 hPa 0,0 mm 3,9 km/h (1 Bft) S-SO 164 0 min 0,000 mm 0,0 UV-I 0 W/m 7,4 C 6,4 km/h (2 Bft)
11.08.2016 00:11 8,3 C 8,3 C 94 % 1022,1 hPa 0,0 mm 4,6 km/h (1 Bft) SO 128 0 min 0,000 mm 0,0 UV-I 0 W/m 7,4 C 6,4 km/h (2 Bft)
11.08.2016 00:12 8,2 C 8,3 C 94 % 1022,0 hPa 0,0 mm 5,1 km/h (1 Bft) O-SO 120 0 min 0,000 mm 0,0 UV-I 0 W/m 7,3 C 6,4 km/h (2 Bft)
11.08.2016 00:13 8,2 C 8,2 C 94 % 1022,0 hPa 0,0 mm 2,6 km/h (1 Bft) SO 139 0 min 0,000 mm 0,0 UV-I 0 W/m 7,3 C 6,4 km/h (2 Bft)
11.08.2016 00:14 8,2 C 8,2 C 94 % 1022,0 hPa 0,0 mm 1,1 km/h (1 Bft) SO 140 0 min 0,000 mm 0,0 UV-I 0 W/m 7,3 C 1,6 km/h (1 Bft)
11.08.2016 00:15 8,2 C 8,2 C 94 % 1022,0 hPa 0,0 mm 0,8 km/h (0 Bft) S-SW 196 0 min 0,000 mm 0,0 UV-I 0 W/m 7,3 C 3,2 km/h (1 Bft)
11.08.2016 00:16 8,2 C 8,2 C 94 % 1022,0 hPa 0,0 mm 2,8 km/h (1 Bft) W 274 0 min 0,000 mm 0,0 UV-I 0 W/m 7,3 C 3,2 km/h (1 Bft)
11.08.2016 00:17 8,2 C 8,2 C 94 % 1022,0 hPa 0,0 mm 2,1 km/h (1 Bft) W 274 0 min 0,000 mm 0,0 UV-I 0 W/m 7,3 C 3,2 km/h (1 Bft)
11.08.2016 00:18 8,1 C 8,2 C 95 % 1022,0 hPa 0,0 mm 0,5 km/h (0 Bft) W 274 0 min 0,000 mm 0,0 UV-I 0 W/m 7,3 C 1,6 km/h (1 Bft)
11.08.2016 00:19 8,1 C 8,1 C 95 % 1022,0 hPa 0,0 mm 0,0 km/h (0 Bft) W 274 0 min 0,000 mm 0,0 UV-I 0 W/m 7,3 C 0,0 km/h (0 Bft)
11.08.2016 00:20 8,1 C 8,1 C 95 % 1022,0 hPa 0,0 mm 0,0 km/h (0 Bft) W 274 0 min 0,000 mm 0,0 UV-I 0 W/m 7,3 C 0,0 km/h (0 Bft)
11.08.2016 00:21 8,1 C 8,1 C 95 % 1022,0 hPa 0,0 mm 0,0 km/h (0 Bft) W 274 0 min 0,000 mm 0,0 UV-I 0 W/m 7,3 C 0,0 km/h (0 Bft)
11.08.2016 00:22 8,1 C 8,1 C 95 % 1022,0 hPa 0,0 mm 0,0 km/h (0 Bft) W 274 0 min 0,000 mm 0,0 UV-I 0 W/m 7,3 C 0,0 km/h (0 Bft)
11.08.2016 00:23 8,1 C 8,1 C 95 % 1022,1 hPa 0,0 mm 0,0 km/h (0 Bft) W 274 0 min 0,000 mm 0,0 UV-I 0 W/m 7,3 C 0,0 km/h (0 Bft)
11.08.2016 00:24 8,1 C 8,1 C 95 % 1022,0 hPa 0,0 mm 0,0 km/h (0 Bft) W 274 0 min 0,000 mm 0,0 UV-I 0 W/m 7,3 C 0,0 km/h (0 Bft)
11.08.2016 00:25 8,1 C 8,1 C 95 % 1022,0 hPa 0,0 mm 0,0 km/h (0 Bft) W 274 0 min 0,000 mm 0,0 UV-I 0 W/m 7,3 C 0,0 km/h (0 Bft)
11.08.2016 00:26 8,0 C 8,1 C 95 % 1022,0 hPa 0,0 mm 0,0 km/h (0 Bft) W 274 0 min 0,000 mm 0,0 UV-I 0 W/m 7,2 C 0,0 km/h (0 Bft)
11.08.2016 00:27 8,0 C 8,0 C 95 % 1022,1 hPa 0,0 mm 0,0 km/h (0 Bft) W 274 0 min 0,000 mm 0,0 UV-I 0 W/m 7,2 C 0,0 km/h (0 Bft)
11.08.2016 00:28 8,0 C 8,0 C 95 % 1022,1 hPa 0,0 mm 0,0 km/h (0 Bft) W 274 0 min 0,000 mm 0,0 UV-I 0 W/m 7,2 C 0,0 km/h (0 Bft)
11.08.2016 00:29 7,9 C 8,0 C 95 % 1022,1 hPa 0,0 mm 1,8 km/h (1 Bft) W 262 0 min 0,000 mm 0,0 UV-I 0 W/m 7,1 C 4,8 km/h (1 Bft)
11.08.2016 00:30 7,9 C 7,9 C 95 % 1022,0 hPa 0,0 mm 0,2 km/h (0 Bft) W 262 0 min 0,000 mm 0,0 UV-I 0 W/m 7,1 C 1,6 km/h (1 Bft)
11.08.2016 00:31 7,9 C 7,9 C 95 % 1022,0 hPa 0,0 mm 1,4 km/h (1 Bft) W 262 0 min 0,000 mm 0,0 UV-I 0 W/m 7,1 C 3,2 km/h (1 Bft)
11.08.2016 00:32 7,8 C 7,9 C 95 % 1022,0 hPa 0,0 mm 1,1 km/h (1 Bft) W 262 0 min 0,000 mm 0,0 UV-I 0 W/m 7,0 C 3,2 km/h (1 Bft)
11.08.2016 00:33 7,8 C 7,8 C 95 % 1022,1 hPa 0,0 mm 0,5 km/h (0 Bft) W 262 0 min 0,000 mm 0,0 UV-I 0 W/m 7,0 C 1,6 km/h (1 Bft)
11.08.2016 00:34 7,8 C 7,8 C 95 % 1022,1 hPa 0,0 mm 0,5 km/h (0 Bft) W 259 0 min 0,000 mm 0,0 UV-I 0 W/m 7,0 C 1,6 km/h (1 Bft)
11.08.2016 00:35 7,8 C 7,8 C 95 % 1022,1 hPa 0,0 mm 2,5 km/h (1 Bft) W-SW 245 0 min 0,000 mm 0,0 UV-I 0 W/m 7,0 C 4,8 km/h (1 Bft)
11.08.2016 00:36 7,8 C 7,8 C 95 % 1022,0 hPa 0,0 mm 2,2 km/h (1 Bft) W-SW 245 0 min 0,000 mm 0,0 UV-I 0 W/m 7,0 C 3,2 km/h (1 Bft)
11.08.2016 00:37 7,8 C 7,8 C 94 % 1022,0 hPa 0,0 mm 1,9 km/h (1 Bft) W-SW 245 0 min 0,000 mm 0,0 UV-I 0 W/m 6,9 C 3,2 km/h (1 Bft)
11.08.2016 00:38 7,8 C 7,8 C 94 % 1022,0 hPa 0,0 mm 3,4 km/h (1 Bft) SW 227 0 min 0,000 mm 0,0 UV-I 0 W/m 6,9 C 4,8 km/h (1 Bft)
11.08.2016 00:39 7,7 C 7,8 C 94 % 1022,0 hPa 0,0 mm 0,8 km/h (0 Bft) SW 227 0 min 0,000 mm 0,0 UV-I 0 W/m 6,8 C 3,2 km/h (1 Bft)
11.08.2016 00:40 7,7 C 7,8 C 94 % 1022,0 hPa 0,0 mm 1,1 km/h (1 Bft) SW 227 0 min 0,000 mm 0,0 UV-I 0 W/m 6,8 C 3,2 km/h (1 Bft)
11.08.2016 00:41 7,7 C 7,7 C 94 % 1022,0 hPa 0,0 mm 0,0 km/h (0 Bft) SW 227 0 min 0,000 mm 0,0 UV-I 0 W/m 6,8 C 0,0 km/h (0 Bft)
11.08.2016 00:42 7,7 C 7,7 C 94 % 1022,1 hPa 0,0 mm 0,3 km/h (0 Bft) SW 227 0 min 0,000 mm 0,0 UV-I 0 W/m 6,8 C 1,6 km/h (1 Bft)
11.08.2016 00:43 7,7 C 7,7 C 94 % 1022,0 hPa 0,0 mm 0,1 km/h (0 Bft) SW 227 0 min 0,000 mm 0,0 UV-I 0 W/m 6,8 C 1,6 km/h (1 Bft)
11.08.2016 00:44 7,7 C 7,7 C 94 % 1022,1 hPa 0,0 mm 0,0 km/h (0 Bft) SW 227 0 min 0,000 mm 0,0 UV-I 0 W/m 6,8 C 0,0 km/h (0 Bft)
11.08.2016 00:45 7,7 C 7,7 C 94 % 1022,0 hPa 0,0 mm 0,1 km/h (0 Bft) SW 227 0 min 0,000 mm 0,0 UV-I 0 W/m 6,8 C 1,6 km/h (1 Bft)
11.08.2016 00:46 7,7 C 7,7 C 94 % 1022,1 hPa 0,0 mm 0,3 km/h (0 Bft) SW 227 0 min 0,000 mm 0,0 UV-I 0 W/m 6,8 C 1,6 km/h (1 Bft)
11.08.2016 00:47 7,7 C 7,7 C 95 % 1022,1 hPa 0,0 mm 0,0 km/h (0 Bft) SW 227 0 min 0,000 mm 0,0 UV-I 0 W/m 7,0 C 0,0 km/h (0 Bft)
11.08.2016 00:48 7,7 C 7,7 C 95 % 1022,1 hPa 0,0 mm 0,0 km/h (0 Bft) SW 227 0 min 0,000 mm 0,0 UV-I 0 W/m 7,0 C 0,0 km/h (0 Bft)
11.08.2016 00:49 7,7 C 7,7 C 95 % 1022,1 hPa 0,0 mm 0,1 km/h (0 Bft) SW 227 0 min 0,000 mm 0,0 UV-I 0 W/m 7,0 C 1,6 km/h (1 Bft)
11.08.2016 00:50 7,7 C 7,7 C 95 % 1022,1 hPa 0,0 mm 0,3 km/h (0 Bft) SW 227 0 min 0,000 mm 0,0 UV-I 0 W/m 7,0 C 1,6 km/h (1 Bft)
11.08.2016 00:51 7,6 C 7,7 C 95 % 1022,1 hPa 0,0 mm 0,2 km/h (0 Bft) SW 227 0 min 0,000 mm 0,0 UV-I 0 W/m 6,9 C 1,6 km/h (1 Bft)
11.08.2016 00:52 7,6 C 7,6 C 95 % 1022,1 hPa 0,0 mm 0,2 km/h (0 Bft) SW 227 0 min 0,000 mm 0,0 UV-I 0 W/m 6,9 C 1,6 km/h (1 Bft)
11.08.2016 00:53 7,6 C 7,6 C 95 % 1022,1 hPa 0,0 mm 0,6 km/h (0 Bft) SW 227 0 min 0,000 mm 0,0 UV-I 0 W/m 6,9 C 1,6 km/h (1 Bft)
11.08.2016 00:54 7,6 C 7,6 C 95 % 1022,1 hPa 0,0 mm 1,3 km/h (1 Bft) SW 227 0 min 0,000 mm 0,0 UV-I 0 W/m 6,9 C 3,2 km/h (1 Bft)
11.08.2016 00:55 7,6 C 7,6 C 95 % 1022,1 hPa 0,0 mm 0,8 km/h (0 Bft) SW 227 0 min 0,000 mm 0,0 UV-I 0 W/m 6,9 C 3,2 km/h (1 Bft)
11.08.2016 00:56 7,7 C 7,7 C 95 % 1022,2 hPa 0,0 mm 1,7 km/h (1 Bft) W 260 0 min 0,000 mm 0,0 UV-I 0 W/m 7,0 C 3,2 km/h (1 Bft)
11.08.2016 00:57 7,7 C 7,7 C 95 % 1022,2 hPa 0,0 mm 2,7 km/h (1 Bft) W 267 0 min 0,000 mm 0,0 UV-I 0 W/m 7,0 C 3,2 km/h (1 Bft)
11.08.2016 00:58 7,7 C 7,7 C 95 % 1022,2 hPa 0,0 mm 2,3 km/h (1 Bft) W 267 0 min 0,000 mm 0,0 UV-I 0 W/m 7,0 C 3,2 km/h (1 Bft)
11.08.2016 00:59 7,7 C 7,7 C 95 % 1022,2 hPa 0,2 mm 2,9 km/h (1 Bft) W 259 0 min 0,000 mm 0,0 UV-I 0 W/m 7,0 C 4,8 km/h (1 Bft)
11.08.2016 01:00 7,7 C 7,7 C 95 % 1022,3 hPa 0,0 mm 3,4 km/h (1 Bft) W-SW 258 0 min 0,000 mm 0,0 UV-I 0 W/m 7,0 C 4,8 km/h (1 Bft)
11.08.2016 01:01 7,8 C 7,8 C 95 % 1022,4 hPa 0,0 mm 5,1 km/h (1 Bft) W 263 0 min 0,000 mm 0,0 UV-I 0 W/m 7,0 C 6,4 km/h (2 Bft)
11.08.2016 01:02 7,8 C 7,8 C 95 % 1022,4 hPa 0,0 mm 4,2 km/h (1 Bft) W 276 0 min 0,000 mm 0,0 UV-I 0 W/m 7,0 C 6,4 km/h (2 Bft)
11.08.2016 01:03 7,8 C 7,8 C 95 % 1022,6 hPa 0,0 mm 6,8 km/h (2 Bft) W-NW 284 0 min 0,000 mm 0,0 UV-I 0 W/m 7,0 C 12,9 km/h (3 Bft)
11.08.2016 01:04 7,8 C 7,9 C 95 % 1022,7 hPa 0,0 mm 7,3 km/h (2 Bft) W 259 0 min 0,000 mm 0,0 UV-I 0 W/m 7,0 C 11,3 km/h (2 Bft)
11.08.2016 01:05 7,9 C 7,9 C 95 % 1022,8 hPa 0,0 mm 7,9 km/h (2 Bft) S 171 0 min 0,000 mm 0,0 UV-I 0 W/m 7,1 C 11,3 km/h (2 Bft)
11.08.2016 01:06 7,9 C 7,9 C 95 % 1022,9 hPa 0,0 mm 6,6 km/h (2 Bft) W 272 0 min 0,000 mm 0,0 UV-I 0 W/m 7,1 C 11,3 km/h (2 Bft)
11.08.2016 01:07 7,9 C 7,9 C 94 % 1022,9 hPa 0,2 mm 7,3 km/h (2 Bft) W-SW 255 0 min 0,000 mm 0,0 UV-I 0 W/m 7,0 C 12,9 km/h (3 Bft)
11.08.2016 01:08 7,9 C 7,9 C 93 % 1022,9 hPa 0,0 mm 5,2 km/h (1 Bft) W 275 0 min 0,000 mm 0,0 UV-I 0 W/m 6,8 C 8,0 km/h (2 Bft)
11.08.2016 01:09 7,8 C 7,9 C 92 % 1023,0 hPa 0,0 mm 6,2 km/h (2 Bft) S 176 0 min 0,000 mm 0,0 UV-I 0 W/m 6,6 C 14,5 km/h (3 Bft)
11.08.2016 01:10 7,8 C 7,8 C 92 % 1023,0 hPa 0,2 mm 5,8 km/h (2 Bft) S 171 0 min 0,000 mm 0,0 UV-I 0 W/m 6,6 C 11,3 km/h (2 Bft)
11.08.2016 01:11 7,8 C 7,8 C 90 % 1022,9 hPa 0,0 mm 3,2 km/h (1 Bft) SO 127 0 min 0,000 mm 0,0 UV-I 0 W/m 6,3 C 4,8 km/h (1 Bft)
11.08.2016 01:12 7,7 C 7,8 C 90 % 1022,9 hPa 0,2 mm 5,0 km/h (1 Bft) SW 227 0 min 0,000 mm 0,0 UV-I 0 W/m 6,2 C 8,0 km/h (2 Bft)
11.08.2016 01:13 7,6 C 7,7 C 91 % 1022,9 hPa 0,0 mm 5,2 km/h (1 Bft) S-SW 196 0 min 0,000 mm 0,0 UV-I 0 W/m 6,2 C 9,7 km/h (2 Bft)
11.08.2016 01:14 7,5 C 7,6 C 91 % 1022,9 hPa 0,0 mm 3,9 km/h (1 Bft) SW 223 0 min 0,000 mm 0,0 UV-I 0 W/m 6,1 C 14,5 km/h (3 Bft)
11.08.2016 01:15 7,4 C 7,6 C 91 % 1022,8 hPa 0,2 mm 10,5 km/h (2 Bft) W 265 0 min 0,000 mm 0,0 UV-I 0 W/m 6,0 C 20,9 km/h (4 Bft)
11.08.2016 01:16 7,3 C 7,4 C 91 % 1022,8 hPa 0,2 mm 7,1 km/h (2 Bft) SW 218 0 min 0,000 mm 0,0 UV-I 0 W/m 5,9 C 14,5 km/h (3 Bft)
11.08.2016 01:17 7,2 C 7,3 C 91 % 1022,8 hPa 0,0 mm 9,1 km/h (2 Bft) W-SW 243 0 min 0,000 mm 0,0 UV-I 0 W/m 5,8 C 17,7 km/h (3 Bft)
11.08.2016 01:18 7,1 C 7,2 C 91 % 1022,8 hPa 0,2 mm 8,0 km/h (2 Bft) W-SW 242 0 min 0,000 mm 0,0 UV-I 0 W/m 5,7 C 17,7 km/h (3 Bft)
11.08.2016 01:19 7,1 C 7,1 C 91 % 1022,8 hPa 0,0 mm 7,5 km/h (2 Bft) W-SW 251 0 min 0,000 mm 0,0 UV-I 0 W/m 5,7 C 12,9 km/h (3 Bft)
11.08.2016 01:20 7,0 C 7,1 C 91 % 1022,8 hPa 0,2 mm 6,4 km/h (2 Bft) S 182 0 min 0,000 mm 0,0 UV-I 0 W/m 5,6 C 9,7 km/h (2 Bft)
11.08.2016 01:21 6,9 C 7,1 C 91 % 1022,8 hPa 0,0 mm 9,1 km/h (2 Bft) SW 229 0 min 0,000 mm 0,0 UV-I 0 W/m 5,5 C 16,1 km/h (3 Bft)
11.08.2016 01:22 6,9 C 6,9 C 92 % 1022,7 hPa 0,2 mm 7,1 km/h (2 Bft) S-SW 197 0 min 0,000 mm 0,0 UV-I 0 W/m 5,7 C 12,9 km/h (3 Bft)
11.08.2016 01:23 6,9 C 6,9 C 92 % 1022,7 hPa 0,0 mm 7,4 km/h (2 Bft) SW 214 0 min 0,000 mm 0,0 UV-I 0 W/m 5,7 C 12,9 km/h (3 Bft)
11.08.2016 01:24 6,9 C 6,9 C 92 % 1022,7 hPa 0,4 mm 7,0 km/h (2 Bft) SW 231 0 min 0,000 mm 0,0 UV-I 0 W/m 5,7 C 16,1 km/h (3 Bft)
11.08.2016 01:25 6,9 C 6,9 C 92 % 1022,7 hPa 0,2 mm 6,1 km/h (2 Bft) W-SW 251 0 min 0,000 mm 0,0 UV-I 0 W/m 5,7 C 14,5 km/h (3 Bft)
11.08.2016 01:26 6,8 C 6,9 C 92 % 1022,8 hPa 0,0 mm 3,3 km/h (1 Bft) SW 217 0 min 0,000 mm 0,0 UV-I 0 W/m 5,6 C 9,7 km/h (2 Bft)
11.08.2016 01:27 6,9 C 6,9 C 92 % 1022,7 hPa 0,0 mm 3,4 km/h (1 Bft) W-SW 240 0 min 0,000 mm 0,0 UV-I 0 W/m 5,7 C 6,4 km/h (2 Bft)
11.08.2016 01:28 6,9 C 6,9 C 92 % 1022,8 hPa 0,2 mm 4,2 km/h (1 Bft) W-SW 239 0 min 0,000 mm 0,0 UV-I 0 W/m 5,7 C 8,0 km/h (2 Bft)
11.08.2016 01:29 6,9 C 6,9 C 92 % 1022,8 hPa 0,0 mm 8,1 km/h (2 Bft) S 180 0 min 0,000 mm 0,0 UV-I 0 W/m 5,7 C 16,1 km/h (3 Bft)
11.08.2016 01:30 6,9 C 6,9 C 92 % 1022,7 hPa 0,0 mm 6,5 km/h (2 Bft) SW 232 0 min 0,000 mm 0,0 UV-I 0 W/m 5,7 C 14,5 km/h (3 Bft)
11.08.2016 01:31 6,9 C 6,9 C 92 % 1022,8 hPa 0,0 mm 5,6 km/h (1 Bft) W-SW 258 0 min 0,000 mm 0,0 UV-I 0 W/m 5,7 C 8,0 km/h (2 Bft)
11.08.2016 01:32 6,9 C 6,9 C 92 % 1022,9 hPa 0,0 mm 7,9 km/h (2 Bft) S-SW 212 0 min 0,000 mm 0,0 UV-I 0 W/m 5,7 C 14,5 km/h (3 Bft)
11.08.2016 01:33 6,9 C 6,9 C 92 % 1022,9 hPa 0,2 mm 4,6 km/h (1 Bft) SW 236 0 min 0,000 mm 0,0 UV-I 0 W/m 5,7 C 11,3 km/h (2 Bft)
11.08.2016 01:34 6,9 C 6,9 C 92 % 1022,9 hPa 0,0 mm 2,7 km/h (1 Bft) W-SW 248 0 min 0,000 mm 0,0 UV-I 0 W/m 5,7 C 4,8 km/h (1 Bft)
11.08.2016 01:35 6,9 C 6,9 C 93 % 1022,9 hPa 0,0 mm 4,7 km/h (1 Bft) W-SW 254 0 min 0,000 mm 0,0 UV-I 0 W/m 5,8 C 9,7 km/h (2 Bft)
11.08.2016 01:36 6,9 C 6,9 C 92 % 1022,9 hPa 0,2 mm 8,6 km/h (2 Bft) W-SW 257 0 min 0,000 mm 0,0 UV-I 0 W/m 5,7 C 14,5 km/h (3 Bft)
11.08.2016 01:37 7,0 C 7,0 C 93 % 1023,0 hPa 0,0 mm 3,8 km/h (1 Bft) W 269 0 min 0,000 mm 0,0 UV-I 0 W/m 5,9 C 6,4 km/h (2 Bft)
11.08.2016 01:38 7,0 C 7,0 C 93 % 1023,0 hPa 0,2 mm 5,2 km/h (1 Bft) W 260 0 min 0,000 mm 0,0 UV-I 0 W/m 5,9 C 9,7 km/h (2 Bft)
11.08.2016 01:39 7,0 C 7,0 C 93 % 1022,9 hPa 0,0 mm 3,8 km/h (1 Bft) W-SW 238 0 min 0,000 mm 0,0 UV-I 0 W/m 5,9 C 4,8 km/h (1 Bft)
11.08.2016 01:40 6,9 C 7,0 C 93 % 1023,0 hPa 0,0 mm 5,4 km/h (1 Bft) W-SW 249 0 min 0,000 mm 0,0 UV-I 0 W/m 5,8 C 11,3 km/h (2 Bft)
11.08.2016 01:41 6,9 C 6,9 C 94 % 1023,1 hPa 0,2 mm 4,8 km/h (1 Bft) N-NW 337 0 min 0,000 mm 0,0 UV-I 0 W/m 6,0 C 8,0 km/h (2 Bft)
11.08.2016 01:42 6,9 C 6,9 C 94 % 1023,0 hPa 0,0 mm 6,7 km/h (2 Bft) W-SW 251 0 min 0,000 mm 0,0 UV-I 0 W/m 6,0 C 14,5 km/h (3 Bft)
11.08.2016 01:43 6,9 C 7,0 C 94 % 1023,0 hPa 0,2 mm 7,3 km/h (2 Bft) W-SW 244 0 min 0,000 mm 0,0 UV-I 0 W/m 6,0 C 14,5 km/h (3 Bft)
11.08.2016 01:44 6,9 C 7,0 C 94 % 1023,0 hPa 0,0 mm 6,5 km/h (2 Bft) W-SW 243 0 min 0,000 mm 0,0 UV-I 0 W/m 6,0 C 12,9 km/h (3 Bft)
11.08.2016 01:45 7,0 C 7,0 C 94 % 1023,0 hPa 0,2 mm 6,7 km/h (2 Bft) S-SW 197 0 min 0,000 mm 0,0 UV-I 0 W/m 6,1 C 14,5 km/h (3 Bft)
11.08.2016 01:46 6,9 C 7,0 C 94 % 1023,0 hPa 0,0 mm 6,9 km/h (2 Bft) SW 217 0 min 0,000 mm 0,0 UV-I 0 W/m 6,0 C 12,9 km/h (3 Bft)
11.08.2016 01:47 7,0 C 7,0 C 94 % 1023,0 hPa 0,0 mm 5,4 km/h (1 Bft) S 173 0 min 0,000 mm 0,0 UV-I 0 W/m 6,1 C 9,7 km/h (2 Bft)
11.08.2016 01:48 7,0 C 7,0 C 93 % 1023,0 hPa 0,0 mm 4,2 km/h (1 Bft) S 191 0 min 0,000 mm 0,0 UV-I 0 W/m 5,9 C 6,4 km/h (2 Bft)
11.08.2016 01:49 7,1 C 7,1 C 93 % 1023,0 hPa 0,2 mm 4,6 km/h (1 Bft) SW 233 0 min 0,000 mm 0,0 UV-I 0 W/m 6,0 C 8,0 km/h (2 Bft)
11.08.2016 01:50 7,1 C 7,1 C 93 % 1023,0 hPa 0,0 mm 5,5 km/h (1 Bft) W 271 0 min 0,000 mm 0,0 UV-I 0 W/m 6,0 C 8,0 km/h (2 Bft)
11.08.2016 01:51 7,1 C 7,1 C 93 % 1023,0 hPa 0,0 mm 5,8 km/h (2 Bft) W 267 0 min 0,000 mm 0,0 UV-I 0 W/m 6,0 C 12,9 km/h (3 Bft)
11.08.2016 01:52 7,1 C 7,1 C 93 % 1023,1 hPa 0,0 mm 4,8 km/h (1 Bft) SW 228 0 min 0,000 mm 0,0 UV-I 0 W/m 6,0 C 8,0 km/h (2 Bft)
11.08.2016 01:53 7,1 C 7,1 C 93 % 1023,0 hPa 0,0 mm 3,7 km/h (1 Bft) SO 128 0 min 0,000 mm 0,0 UV-I 0 W/m 6,0 C 4,8 km/h (1 Bft)
11.08.2016 01:54 7,2 C 7,2 C 93 % 1023,0 hPa 0,0 mm 4,7 km/h (1 Bft) SW 225 0 min 0,000 mm 0,0 UV-I 0 W/m 6,1 C 9,7 km/h (2 Bft)
11.08.2016 01:55 7,2 C 7,2 C 93 % 1023,0 hPa 0,0 mm 3,1 km/h (1 Bft) W-SW 242 0 min 0,000 mm 0,0 UV-I 0 W/m 6,1 C 4,8 km/h (1 Bft)
11.08.2016 01:56 7,2 C 7,2 C 93 % 1023,0 hPa 0,2 mm 3,9 km/h (1 Bft) W-SW 255 0 min 0,000 mm 0,0 UV-I 0 W/m 6,1 C 9,7 km/h (2 Bft)
11.08.2016 01:57 7,1 C 7,2 C 93 % 1023,1 hPa 0,0 mm 5,6 km/h (1 Bft) S 190 0 min 0,000 mm 0,0 UV-I 0 W/m 6,0 C 11,3 km/h (2 Bft)
11.08.2016 01:58 7,1 C 7,2 C 93 % 1023,1 hPa 0,0 mm 5,1 km/h (1 Bft) S-SW 206 0 min 0,000 mm 0,0 UV-I 0 W/m 6,0 C 8,0 km/h (2 Bft)
11.08.2016 01:59 7,2 C 7,2 C 93 % 1023,0 hPa 0,2 mm 4,0 km/h (1 Bft) S 185 0 min 0,000 mm 0,0 UV-I 0 W/m 6,1 C 6,4 km/h (2 Bft)
11.08.2016 02:00 7,2 C 7,2 C 93 % 1023,0 hPa 0,0 mm 2,0 km/h (1 Bft) S 180 0 min 0,000 mm 0,0 UV-I 0 W/m 6,1 C 3,2 km/h (1 Bft)
11.08.2016 02:01 7,2 C 7,2 C 93 % 1023,1 hPa 0,0 mm 3,9 km/h (1 Bft) SO 140 0 min 0,000 mm 0,0 UV-I 0 W/m 6,1 C 6,4 km/h (2 Bft)
11.08.2016 02:02 7,2 C 7,2 C 93 % 1023,1 hPa 0,0 mm 1,5 km/h (1 Bft) SO 145 0 min 0,000 mm 0,0 UV-I 0 W/m 6,1 C 3,2 km/h (1 Bft)
11.08.2016 02:03 7,1 C 7,2 C 93 % 1023,1 hPa 0,2 mm 1,3 km/h (1 Bft) SO 145 0 min 0,000 mm 0,0 UV-I 0 W/m 6,0 C 1,6 km/h (1 Bft)
11.08.2016 02:04 7,1 C 7,2 C 94 % 1023,1 hPa 0,0 mm 1,8 km/h (1 Bft) SO 145 0 min 0,000 mm 0,0 UV-I 0 W/m 6,2 C 3,2 km/h (1 Bft)
11.08.2016 02:05 7,1 C 7,1 C 94 % 1023,1 hPa 0,0 mm 1,6 km/h (1 Bft) SO 145 0 min 0,000 mm 0,0 UV-I 0 W/m 6,2 C 1,6 km/h (1 Bft)
11.08.2016 02:06 7,1 C 7,1 C 94 % 1023,0 hPa 0,2 mm 0,8 km/h (0 Bft) S-SO 153 0 min 0,000 mm 0,0 UV-I 0 W/m 6,2 C 1,6 km/h (1 Bft)
11.08.2016 02:07 7,0 C 7,1 C 94 % 1023,0 hPa 0,0 mm 1,7 km/h (1 Bft) S 186 0 min 0,000 mm 0,0 UV-I 0 W/m 6,1 C 3,2 km/h (1 Bft)
11.08.2016 02:08 7,0 C 7,0 C 94 % 1023,0 hPa 0,0 mm 1,0 km/h (0 Bft) S 189 0 min 0,000 mm 0,0 UV-I 0 W/m 6,1 C 3,2 km/h (1 Bft)
11.08.2016 02:09 6,9 C 7,0 C 94 % 1023,0 hPa 0,2 mm 2,6 km/h (1 Bft) SW 218 0 min 0,000 mm 0,0 UV-I 0 W/m 6,0 C 4,8 km/h (1 Bft)
11.08.2016 02:10 6,9 C 7,0 C 94 % 1023,0 hPa 0,2 mm 2,4 km/h (1 Bft) S 189 0 min 0,000 mm 0,0 UV-I 0 W/m 6,0 C 4,8 km/h (1 Bft)
11.08.2016 02:11 6,9 C 6,9 C 94 % 1023,0 hPa 0,0 mm 3,3 km/h (1 Bft) S 182 0 min 0,000 mm 0,0 UV-I 0 W/m 6,0 C 4,8 km/h (1 Bft)
11.08.2016 02:12 6,9 C 6,9 C 94 % 1023,1 hPa 0,4 mm 2,3 km/h (1 Bft) S-SW 194 0 min 0,000 mm 0,0 UV-I 0 W/m 6,0 C 4,8 km/h (1 Bft)
11.08.2016 02:13 6,9 C 6,9 C 94 % 1023,0 hPa 0,0 mm 1,8 km/h (1 Bft) S 181 0 min 0,000 mm 0,0 UV-I 0 W/m 6,0 C 3,2 km/h (1 Bft)
11.08.2016 02:14 6,9 C 6,9 C 94 % 1023,0 hPa 0,2 mm 0,3 km/h (0 Bft) S 181 0 min 0,000 mm 0,0 UV-I 0 W/m 6,0 C 1,6 km/h (1 Bft)
11.08.2016 02:15 6,9 C 6,9 C 94 % 1022,9 hPa 0,2 mm 0,0 km/h (0 Bft) S 181 0 min 0,000 mm 0,0 UV-I 0 W/m 6,0 C 0,0 km/h (0 Bft)
11.08.2016 02:16 6,8 C 6,9 C 95 % 1023,0 hPa 0,0 mm 2,5 km/h (1 Bft) SO 126 0 min 0,000 mm 0,0 UV-I 0 W/m 6,1 C 4,8 km/h (1 Bft)
11.08.2016 02:17 6,8 C 6,8 C 95 % 1022,9 hPa 0,2 mm 1,9 km/h (1 Bft) SO 141 0 min 0,000 mm 0,0 UV-I 0 W/m 6,1 C 3,2 km/h (1 Bft)
11.08.2016 02:18 6,8 C 6,8 C 95 % 1022,9 hPa 0,0 mm 1,6 km/h (1 Bft) SO 140 0 min 0,000 mm 0,0 UV-I 0 W/m 6,1 C 3,2 km/h (1 Bft)
11.08.2016 02:19 6,8 C 6,8 C 95 % 1022,9 hPa 0,0 mm 2,0 km/h (1 Bft) SO 140 0 min 0,000 mm 0,0 UV-I 0 W/m 6,1 C 3,2 km/h (1 Bft)
11.08.2016 02:20 6,8 C 6,8 C 95 % 1022,9 hPa 0,2 mm 3,8 km/h (1 Bft) O-NO 74 0 min 0,000 mm 0,0 UV-I 0 W/m 6,1 C 6,4 km/h (2 Bft)
11.08.2016 02:21 6,8 C 6,8 C 95 % 1022,9 hPa 0,0 mm 2,0 km/h (1 Bft) N 11 0 min 0,000 mm 0,0 UV-I 0 W/m 6,1 C 3,2 km/h (1 Bft)
11.08.2016 02:22 6,8 C 6,8 C 95 % 1023,0 hPa 0,2 mm 1,7 km/h (1 Bft) N-NW 348 0 min 0,000 mm 0,0 UV-I 0 W/m 6,1 C 3,2 km/h (1 Bft)
11.08.2016 02:23 6,8 C 6,8 C 95 % 1023,0 hPa 0,0 mm 2,5 km/h (1 Bft) W-NW 287 0 min 0,000 mm 0,0 UV-I 0 W/m 6,1 C 4,8 km/h (1 Bft)
11.08.2016 02:24 6,8 C 6,8 C 95 % 1023,0 hPa 0,0 mm 2,7 km/h (1 Bft) W-SW 253 0 min 0,000 mm 0,0 UV-I 0 W/m 6,1 C 6,4 km/h (2 Bft)
11.08.2016 02:25 6,8 C 6,8 C 95 % 1023,0 hPa 0,2 mm 3,2 km/h (1 Bft) W 274 0 min 0,000 mm 0,0 UV-I 0 W/m 6,1 C 4,8 km/h (1 Bft)
11.08.2016 02:26 6,8 C 6,8 C 95 % 1023,0 hPa 0,0 mm 1,9 km/h (1 Bft) W 274 0 min 0,000 mm 0,0 UV-I 0 W/m 6,1 C 3,2 km/h (1 Bft)
11.08.2016 02:27 6,7 C 6,8 C 95 % 1023,0 hPa 0,0 mm 1,5 km/h (1 Bft) W 274 0 min 0,000 mm 0,0 UV-I 0 W/m 6,0 C 3,2 km/h (1 Bft)
11.08.2016 02:28 6,8 C 6,8 C 95 % 1023,0 hPa 0,0 mm 1,5 km/h (1 Bft) W-SW 248 0 min 0,000 mm 0,0 UV-I 0 W/m 6,1 C 3,2 km/h (1 Bft)
11.08.2016 02:29 6,7 C 6,8 C 95 % 1023,0 hPa 0,2 mm 0,5 km/h (0 Bft) W-SW 248 0 min 0,000 mm 0,0 UV-I 0 W/m 6,0 C 1,6 km/h (1 Bft)
11.08.2016 02:30 6,7 C 6,7 C 95 % 1023,0 hPa 0,0 mm 0,0 km/h (0 Bft) W-SW 248 0 min 0,000 mm 0,0 UV-I 0 W/m 6,0 C 0,0 km/h (0 Bft)
11.08.2016 02:31 6,7 C 6,7 C 95 % 1023,0 hPa 0,0 mm 0,2 km/h (0 Bft) W-SW 248 0 min 0,000 mm 0,0 UV-I 0 W/m 6,0 C 1,6 km/h (1 Bft)
11.08.2016 02:32 6,7 C 6,7 C 95 % 1023,1 hPa 0,0 mm 0,5 km/h (0 Bft) W 271 0 min 0,000 mm 0,0 UV-I 0 W/m 6,0 C 3,2 km/h (1 Bft)
11.08.2016 02:33 6,7 C 6,7 C 95 % 1023,0 hPa 0,0 mm 0,7 km/h (0 Bft) W 267 0 min 0,000 mm 0,0 UV-I 0 W/m 6,0 C 1,6 km/h (1 Bft)
11.08.2016 02:34 6,7 C 6,7 C 95 % 1023,1 hPa 0,0 mm 1,1 km/h (1 Bft) W 267 0 min 0,000 mm 0,0 UV-I 0 W/m 6,0 C 3,2 km/h (1 Bft)
11.08.2016 02:35 6,7 C 6,7 C 95 % 1023,0 hPa 0,2 mm 3,2 km/h (1 Bft) W 269 0 min 0,000 mm 0,0 UV-I 0 W/m 6,0 C 4,8 km/h (1 Bft)
11.08.2016 02:36 6,7 C 6,7 C 95 % 1023,0 hPa 0,0 mm 2,1 km/h (1 Bft) W 273 0 min 0,000 mm 0,0 UV-I 0 W/m 6,0 C 3,2 km/h (1 Bft)
11.08.2016 02:37 6,7 C 6,7 C 95 % 1023,0 hPa 0,0 mm 3,3 km/h (1 Bft) W-SW 258 0 min 0,000 mm 0,0 UV-I 0 W/m 6,0 C 6,4 km/h (2 Bft)
11.08.2016 02:38 6,7 C 6,7 C 95 % 1023,0 hPa 0,2 mm 3,1 km/h (1 Bft) W 262 0 min 0,000 mm 0,0 UV-I 0 W/m 6,0 C 4,8 km/h (1 Bft)
11.08.2016 02:39 6,7 C 6,7 C 95 % 1022,9 hPa 0,2 mm 4,0 km/h (1 Bft) W 275 0 min 0,000 mm 0,0 UV-I 0 W/m 6,0 C 4,8 km/h (1 Bft)
11.08.2016 02:40 6,7 C 6,7 C 95 % 1022,9 hPa 0,0 mm 3,9 km/h (1 Bft) W 279 0 min 0,000 mm 0,0 UV-I 0 W/m 6,0 C 6,4 km/h (2 Bft)
11.08.2016 02:41 6,7 C 6,7 C 95 % 1022,9 hPa 0,0 mm 4,2 km/h (1 Bft) W-SW 257 0 min 0,000 mm 0,0 UV-I 0 W/m 6,0 C 4,8 km/h (1 Bft)
11.08.2016 02:42 6,7 C 6,7 C 95 % 1023,0 hPa 0,0 mm 4,6 km/h (1 Bft) W 273 0 min 0,000 mm 0,0 UV-I 0 W/m 6,0 C 6,4 km/h (2 Bft)
11.08.2016 02:43 6,7 C 6,7 C 95 % 1023,1 hPa 0,0 mm 3,2 km/h (1 Bft) W 261 0 min 0,000 mm 0,0 UV-I 0 W/m 6,0 C 4,8 km/h (1 Bft)
11.08.2016 02:44 6,7 C 6,7 C 95 % 1023,1 hPa 0,0 mm 2,5 km/h (1 Bft) W-SW 252 0 min 0,000 mm 0,0 UV-I 0 W/m 6,0 C 4,8 km/h (1 Bft)
11.08.2016 02:45 6,7 C 6,7 C 95 % 1023,0 hPa 0,0 mm 2,6 km/h (1 Bft) W-SW 252 0 min 0,000 mm 0,0 UV-I 0 W/m 6,0 C 3,2 km/h (1 Bft)
11.08.2016 02:46 6,7 C 6,7 C 95 % 1023,0 hPa 0,2 mm 2,7 km/h (1 Bft) W-SW 254 0 min 0,000 mm 0,0 UV-I 0 W/m 6,0 C 4,8 km/h (1 Bft)
11.08.2016 02:47 6,7 C 6,7 C 95 % 1023,0 hPa 0,0 mm 2,2 km/h (1 Bft) W 265 0 min 0,000 mm 0,0 UV-I 0 W/m 6,0 C 4,8 km/h (1 Bft)
11.08.2016 02:48 6,7 C 6,7 C 95 % 1023,0 hPa 0,0 mm 1,3 km/h (1 Bft) W-SW 255 0 min 0,000 mm 0,0 UV-I 0 W/m 6,0 C 4,8 km/h (1 Bft)
11.08.2016 02:49 6,7 C 6,7 C 95 % 1023,0 hPa 0,0 mm 3,5 km/h (1 Bft) W-SW 243 0 min 0,000 mm 0,0 UV-I 0 W/m 6,0 C 4,8 km/h (1 Bft)
11.08.2016 02:50 6,7 C 6,8 C 95 % 1023,0 hPa 0,0 mm 3,1 km/h (1 Bft) W-SW 245 0 min 0,000 mm 0,0 UV-I 0 W/m 6,0 C 4,8 km/h (1 Bft)
11.08.2016 02:51 6,7 C 6,7 C 95 % 1023,0 hPa 0,0 mm 1,7 km/h (1 Bft) W-SW 247 0 min 0,000 mm 0,0 UV-I 0 W/m 6,0 C 4,8 km/h (1 Bft)
11.08.2016 02:52 6,7 C 6,7 C 95 % 1023,0 hPa 0,0 mm 0,8 km/h (0 Bft) W-SW 247 0 min 0,000 mm 0,0 UV-I 0 W/m 6,0 C 3,2 km/h (1 Bft)
11.08.2016 02:53 6,7 C 6,7 C 95 % 1023,0 hPa 0,0 mm 0,2 km/h (0 Bft) W-SW 247 0 min 0,000 mm 0,0 UV-I 0 W/m 6,0 C 1,6 km/h (1 Bft)
11.08.2016 02:54 6,7 C 6,7 C 95 % 1023,0 hPa 0,0 mm 0,1 km/h (0 Bft) W-SW 247 0 min 0,000 mm 0,0 UV-I 0 W/m 6,0 C 1,6 km/h (1 Bft)
11.08.2016 02:55 6,7 C 6,7 C 95 % 1023,0 hPa 0,0 mm 0,3 km/h (0 Bft) W-SW 247 0 min 0,000 mm 0,0 UV-I 0 W/m 6,0 C 1,6 km/h (1 Bft)
11.08.2016 02:56 6,7 C 6,7 C 95 % 1023,0 hPa 0,0 mm 0,1 km/h (0 Bft) W-SW 247 0 min 0,000 mm 0,0 UV-I 0 W/m 6,0 C 1,6 km/h (1 Bft)
11.08.2016 02:57 6,7 C 6,7 C 95 % 1023,1 hPa 0,0 mm 0,5 km/h (0 Bft) W-SW 247 0 min 0,000 mm 0,0 UV-I 0 W/m 6,0 C 1,6 km/h (1 Bft)
11.08.2016 02:58 6,7 C 6,7 C 95 % 1023,1 hPa 0,0 mm 1,5 km/h (1 Bft) W-SW 248 0 min 0,000 mm 0,0 UV-I 0 W/m 6,0 C 3,2 km/h (1 Bft)
11.08.2016 02:59 6,7 C 6,7 C 95 % 1023,1 hPa 0,0 mm 1,0 km/h (0 Bft) W-SW 245 0 min 0,000 mm 0,0 UV-I 0 W/m 6,0 C 3,2 km/h (1 Bft)
11.08.2016 03:00 6,7 C 6,7 C 95 % 1023,0 hPa 0,0 mm 0,9 km/h (0 Bft) W-SW 245 0 min 0,000 mm 0,0 UV-I 0 W/m 6,0 C 3,2 km/h (1 Bft)
11.08.2016 03:01 6,7 C 6,7 C 95 % 1023,0 hPa 0,0 mm 1,7 km/h (1 Bft) W-SW 249 0 min 0,000 mm 0,0 UV-I 0 W/m 6,0 C 3,2 km/h (1 Bft)
11.08.2016 03:02 6,7 C 6,7 C 95 % 1023,0 hPa 0,0 mm 2,1 km/h (1 Bft) W-SW 249 0 min 0,000 mm 0,0 UV-I 0 W/m 6,0 C 3,2 km/h (1 Bft)
11.08.2016 03:03 6,7 C 6,7 C 95 % 1023,0 hPa 0,0 mm 2,5 km/h (1 Bft) W-SW 248 0 min 0,000 mm 0,0 UV-I 0 W/m 6,0 C 3,2 km/h (1 Bft)
11.08.2016 03:04 6,7 C 6,8 C 95 % 1023,0 hPa 0,0 mm 1,9 km/h (1 Bft) W-SW 239 0 min 0,000 mm 0,0 UV-I 0 W/m 6,0 C 3,2 km/h (1 Bft)
11.08.2016 03:05 6,7 C 6,8 C 95 % 1023,0 hPa 0,0 mm 1,0 km/h (0 Bft) W-SW 239 0 min 0,000 mm 0,0 UV-I 0 W/m 6,0 C 3,2 km/h (1 Bft)
11.08.2016 03:06 6,8 C 6,8 C 95 % 1023,0 hPa 0,0 mm 0,2 km/h (0 Bft) W-SW 239 0 min 0,000 mm 0,0 UV-I 0 W/m 6,1 C 1,6 km/h (1 Bft)
11.08.2016 03:07 6,7 C 6,8 C 95 % 1023,0 hPa 0,0 mm 0,3 km/h (0 Bft) W-SW 239 0 min 0,000 mm 0,0 UV-I 0 W/m 6,0 C 1,6 km/h (1 Bft)
11.08.2016 03:08 6,7 C 6,8 C 95 % 1023,0 hPa 0,0 mm 0,5 km/h (0 Bft) W-SW 239 0 min 0,000 mm 0,0 UV-I 0 W/m 6,0 C 1,6 km/h (1 Bft)
11.08.2016 03:09 6,7 C 6,8 C 95 % 1023,0 hPa 0,0 mm 0,5 km/h (0 Bft) W-SW 239 0 min 0,000 mm 0,0 UV-I 0 W/m 6,0 C 3,2 km/h (1 Bft)
11.08.2016 03:10 6,7 C 6,7 C 95 % 1023,0 hPa 0,0 mm 2,2 km/h (1 Bft) W-SW 246 0 min 0,000 mm 0,0 UV-I 0 W/m 6,0 C 4,8 km/h (1 Bft)
11.08.2016 03:11 6,7 C 6,7 C 95 % 1023,0 hPa 0,0 mm 0,2 km/h (0 Bft) W-SW 246 0 min 0,000 mm 0,0 UV-I 0 W/m 6,0 C 1,6 km/h (1 Bft)
11.08.2016 03:12 6,7 C 6,7 C 95 % 1023,0 hPa 0,0 mm 0,6 km/h (0 Bft) W-SW 246 0 min 0,000 mm 0,0 UV-I 0 W/m 6,0 C 1,6 km/h (1 Bft)
11.08.2016 03:13 6,7 C 6,8 C 95 % 1023,0 hPa 0,0 mm 2,3 km/h (1 Bft) W 262 0 min 0,000 mm 0,0 UV-I 0 W/m 6,0 C 4,8 km/h (1 Bft)
11.08.2016 03:14 6,8 C 6,8 C 95 % 1023,0 hPa 0,0 mm 1,7 km/h (1 Bft) W 259 0 min 0,000 mm 0,0 UV-I 0 W/m 6,1 C 3,2 km/h (1 Bft)
11.08.2016 03:15 6,8 C 6,8 C 95 % 1023,0 hPa 0,0 mm 1,1 km/h (1 Bft) W 259 0 min 0,000 mm 0,0 UV-I 0 W/m 6,1 C 1,6 km/h (1 Bft)
11.08.2016 03:16 6,8 C 6,8 C 95 % 1023,0 hPa 0,0 mm 0,9 km/h (0 Bft) W 259 0 min 0,000 mm 0,0 UV-I 0 W/m 6,1 C 1,6 km/h (1 Bft)
11.08.2016 03:17 6,8 C 6,8 C 95 % 1023,0 hPa 0,0 mm 0,2 km/h (0 Bft) W 259 0 min 0,000 mm 0,0 UV-I 0 W/m 6,1 C 1,6 km/h (1 Bft)
11.08.2016 03:18 6,7 C 6,8 C 95 % 1023,0 hPa 0,0 mm 0,0 km/h (0 Bft) W 259 0 min 0,000 mm 0,0 UV-I 0 W/m 6,0 C 0,0 km/h (0 Bft)
11.08.2016 03:19 6,7 C 6,7 C 95 % 1023,0 hPa 0,0 mm 0,1 km/h (0 Bft) W 259 0 min 0,000 mm 0,0 UV-I 0 W/m 6,0 C 1,6 km/h (1 Bft)
11.08.2016 03:20 6,7 C 6,7 C 95 % 1023,0 hPa 0,0 mm 0,0 km/h (0 Bft) W 259 0 min 0,000 mm 0,0 UV-I 0 W/m 6,0 C 0,0 km/h (0 Bft)
11.08.2016 03:21 6,7 C 6,7 C 95 % 1023,0 hPa 0,0 mm 1,4 km/h (1 Bft) W 259 0 min 0,000 mm 0,0 UV-I 0 W/m 6,0 C 3,2 km/h (1 Bft)
11.08.2016 03:22 6,7 C 6,7 C 95 % 1023,0 hPa 0,0 mm 1,5 km/h (1 Bft) W-SW 248 0 min 0,000 mm 0,0 UV-I 0 W/m 6,0 C 3,2 km/h (1 Bft)
11.08.2016 03:23 6,7 C 6,7 C 95 % 1023,0 hPa 0,0 mm 2,0 km/h (1 Bft) W-SW 248 0 min 0,000 mm 0,0 UV-I 0 W/m 6,0 C 3,2 km/h (1 Bft)
11.08.2016 03:24 6,7 C 6,7 C 95 % 1023,0 hPa 0,0 mm 0,7 km/h (0 Bft) W-SW 248 0 min 0,000 mm 0,0 UV-I 0 W/m 6,0 C 1,6 km/h (1 Bft)
11.08.2016 03:25 6,7 C 6,7 C 95 % 1023,0 hPa 0,0 mm 0,3 km/h (0 Bft) W-SW 248 0 min 0,000 mm 0,0 UV-I 0 W/m 6,0 C 1,6 km/h (1 Bft)
11.08.2016 03:26 6,7 C 6,7 C 95 % 1023,0 hPa 0,0 mm 2,2 km/h (1 Bft) W-SW 250 0 min 0,000 mm 0,0 UV-I 0 W/m 6,0 C 4,8 km/h (1 Bft)
11.08.2016 03:27 6,7 C 6,7 C 95 % 1023,0 hPa 0,0 mm 2,2 km/h (1 Bft) W-SW 250 0 min 0,000 mm 0,0 UV-I 0 W/m 6,0 C 3,2 km/h (1 Bft)
11.08.2016 03:28 6,7 C 6,7 C 95 % 1023,0 hPa 0,0 mm 1,5 km/h (1 Bft) SW 218 0 min 0,000 mm 0,0 UV-I 0 W/m 6,0 C 3,2 km/h (1 Bft)
11.08.2016 03:29 6,7 C 6,7 C 95 % 1023,0 hPa 0,0 mm 1,3 km/h (1 Bft) SW 219 0 min 0,000 mm 0,0 UV-I 0 W/m 6,0 C 1,6 km/h (1 Bft)
11.08.2016 03:30 6,7 C 6,7 C 95 % 1023,0 hPa 0,0 mm 1,0 km/h (0 Bft) SW 219 0 min 0,000 mm 0,0 UV-I 0 W/m 6,0 C 3,2 km/h (1 Bft)
11.08.2016 03:31 6,8 C 6,8 C 95 % 1023,0 hPa 0,0 mm 1,2 km/h (1 Bft) SW 219 0 min 0,000 mm 0,0 UV-I 0 W/m 6,1 C 1,6 km/h (1 Bft)
11.08.2016 03:32 6,8 C 6,8 C 95 % 1023,0 hPa 0,0 mm 0,3 km/h (0 Bft) SW 219 0 min 0,000 mm 0,0 UV-I 0 W/m 6,1 C 1,6 km/h (1 Bft)
11.08.2016 03:33 6,8 C 6,8 C 95 % 1023,0 hPa 0,0 mm 0,8 km/h (0 Bft) SW 219 0 min 0,000 mm 0,0 UV-I 0 W/m 6,1 C 1,6 km/h (1 Bft)
11.08.2016 03:34 6,7 C 6,8 C 95 % 1023,0 hPa 0,0 mm 0,0 km/h (0 Bft) SW 219 0 min 0,000 mm 0,0 UV-I 0 W/m 6,0 C 0,0 km/h (0 Bft)
11.08.2016 03:35 6,7 C 6,7 C 95 % 1023,0 hPa 0,0 mm 0,0 km/h (0 Bft) SW 219 0 min 0,000 mm 0,0 UV-I 0 W/m 6,0 C 0,0 km/h (0 Bft)
11.08.2016 03:36 6,7 C 6,7 C 95 % 1023,0 hPa 0,0 mm 0,0 km/h (0 Bft) SW 219 0 min 0,000 mm 0,0 UV-I 0 W/m 6,0 C 0,0 km/h (0 Bft)
11.08.2016 03:37 6,7 C 6,7 C 95 % 1023,0 hPa 0,0 mm 0,1 km/h (0 Bft) SW 219 0 min 0,000 mm 0,0 UV-I 0 W/m 6,0 C 1,6 km/h (1 Bft)
11.08.2016 03:38 6,7 C 6,7 C 95 % 1023,0 hPa 0,0 mm 0,0 km/h (0 Bft) SW 219 0 min 0,000 mm 0,0 UV-I 0 W/m 6,0 C 0,0 km/h (0 Bft)
11.08.2016 03:39 6,6 C 6,7 C 95 % 1023,0 hPa 0,0 mm 0,0 km/h (0 Bft) SW 219 0 min 0,000 mm 0,0 UV-I 0 W/m 5,9 C 0,0 km/h (0 Bft)
11.08.2016 03:40 6,7 C 6,7 C 95 % 1023,1 hPa 0,0 mm 0,0 km/h (0 Bft) SW 219 0 min 0,000 mm 0,0 UV-I 0 W/m 6,0 C 0,0 km/h (0 Bft)
11.08.2016 03:41 6,7 C 6,7 C 95 % 1023,1 hPa 0,0 mm 0,0 km/h (0 Bft) SW 219 0 min 0,000 mm 0,0 UV-I 0 W/m 6,0 C 0,0 km/h (0 Bft)
11.08.2016 03:42 6,6 C 6,7 C 95 % 1023,1 hPa 0,0 mm 0,0 km/h (0 Bft) SW 219 0 min 0,000 mm 0,0 UV-I 0 W/m 5,9 C 0,0 km/h (0 Bft)
11.08.2016 03:43 6,6 C 6,6 C 95 % 1023,1 hPa 0,0 mm 0,0 km/h (0 Bft) SW 219 0 min 0,000 mm 0,0 UV-I 0 W/m 5,9 C 0,0 km/h (0 Bft)
11.08.2016 03:44 6,6 C 6,6 C 95 % 1023,1 hPa 0,0 mm 0,0 km/h (0 Bft) SW 219 0 min 0,000 mm 0,0 UV-I 0 W/m 5,9 C 0,0 km/h (0 Bft)
11.08.2016 03:45 6,7 C 6,7 C 95 % 1023,1 hPa 0,0 mm 0,0 km/h (0 Bft) SW 219 0 min 0,000 mm 0,0 UV-I 0 W/m 6,0 C 0,0 km/h (0 Bft)
11.08.2016 03:46 6,7 C 6,7 C 95 % 1023,1 hPa 0,0 mm 0,0 km/h (0 Bft) SW 219 0 min 0,000 mm 0,0 UV-I 0 W/m 6,0 C 0,0 km/h (0 Bft)
11.08.2016 03:47 6,7 C 6,7 C 95 % 1023,1 hPa 0,0 mm 0,0 km/h (0 Bft) SW 219 0 min 0,000 mm 0,0 UV-I 0 W/m 6,0 C 0,0 km/h (0 Bft)
11.08.2016 03:48 6,7 C 6,7 C 95 % 1023,1 hPa 0,0 mm 0,0 km/h (0 Bft) SW 221 0 min 0,000 mm 0,0 UV-I 0 W/m 6,0 C 0,0 km/h (0 Bft)
11.08.2016 03:49 6,7 C 6,7 C 95 % 1023,1 hPa 0,0 mm 0,0 km/h (0 Bft) SW 221 0 min 0,000 mm 0,0 UV-I 0 W/m 6,0 C 0,0 km/h (0 Bft)
11.08.2016 03:50 6,7 C 6,7 C 95 % 1023,1 hPa 0,0 mm 0,0 km/h (0 Bft) SW 221 0 min 0,000 mm 0,0 UV-I 0 W/m 6,0 C 0,0 km/h (0 Bft)
11.08.2016 03:51 6,7 C 6,7 C 95 % 1023,1 hPa 0,0 mm 0,0 km/h (0 Bft) SW 221 0 min 0,000 mm 0,0 UV-I 0 W/m 6,0 C 0,0 km/h (0 Bft)
11.08.2016 03:52 6,6 C 6,7 C 95 % 1023,1 hPa 0,0 mm 1,5 km/h (1 Bft) SW 228 0 min 0,000 mm 0,0 UV-I 0 W/m 5,9 C 3,2 km/h (1 Bft)
11.08.2016 03:53 6,7 C 6,7 C 95 % 1023,2 hPa 0,0 mm 1,2 km/h (1 Bft) SW 236 0 min 0,000 mm 0,0 UV-I 0 W/m 6,0 C 3,2 km/h (1 Bft)
11.08.2016 03:54 6,7 C 6,7 C 95 % 1023,1 hPa 0,0 mm 2,5 km/h (1 Bft) W 261 0 min 0,000 mm 0,0 UV-I 0 W/m 6,0 C 3,2 km/h (1 Bft)
11.08.2016 03:55 6,7 C 6,7 C 95 % 1023,1 hPa 0,0 mm 3,2 km/h (1 Bft) W 261 0 min 0,000 mm 0,0 UV-I 0 W/m 6,0 C 4,8 km/h (1 Bft)
11.08.2016 03:56 6,7 C 6,7 C 95 % 1023,1 hPa 0,0 mm 2,5 km/h (1 Bft) W-SW 241 0 min 0,000 mm 0,0 UV-I 0 W/m 6,0 C 4,8 km/h (1 Bft)
11.08.2016 03:57 6,7 C 6,7 C 95 % 1023,1 hPa 0,0 mm 1,3 km/h (1 Bft) W-SW 241 0 min 0,000 mm 0,0 UV-I 0 W/m 6,0 C 3,2 km/h (1 Bft)
11.08.2016 03:58 6,7 C 6,7 C 95 % 1023,1 hPa 0,0 mm 0,7 km/h (0 Bft) SW 221 0 min 0,000 mm 0,0 UV-I 0 W/m 6,0 C 1,6 km/h (1 Bft)
11.08.2016 03:59 6,7 C 6,7 C 95 % 1023,1 hPa 0,0 mm 0,3 km/h (0 Bft) SW 221 0 min 0,000 mm 0,0 UV-I 0 W/m 6,0 C 1,6 km/h (1 Bft)
11.08.2016 04:00 6,7 C 6,7 C 95 % 1023,1 hPa 0,0 mm 0,2 km/h (0 Bft) SW 221 0 min 0,000 mm 0,0 UV-I 0 W/m 6,0 C 1,6 km/h (1 Bft)
11.08.2016 04:02 6,7 C 6,7 C 95 % 1023,1 hPa 0,0 mm 1,1 km/h (1 Bft) W-SW 237 0 min 0,000 mm 0,0 UV-I 0 W/m 6,0 C 3,2 km/h (1 Bft)
11.08.2016 04:03 6,7 C 6,7 C 95 % 1023,1 hPa 0,0 mm 1,6 km/h (1 Bft) NW 310 0 min 0,000 mm 0,0 UV-I 0 W/m 6,0 C 3,2 km/h (1 Bft)
11.08.2016 04:04 6,7 C 6,7 C 95 % 1023,0 hPa 0,0 mm 3,2 km/h (1 Bft) SW 231 0 min 0,000 mm 0,0 UV-I 0 W/m 6,0 C 4,8 km/h (1 Bft)
11.08.2016 04:05 6,7 C 6,7 C 95 % 1023,1 hPa 0,0 mm 2,8 km/h (1 Bft) W-SW 242 0 min 0,000 mm 0,0 UV-I 0 W/m 6,0 C 4,8 km/h (1 Bft)
11.08.2016 04:06 6,7 C 6,7 C 95 % 1023,1 hPa 0,0 mm 1,5 km/h (1 Bft) W-SW 252 0 min 0,000 mm 0,0 UV-I 0 W/m 6,0 C 3,2 km/h (1 Bft)
11.08.2016 04:07 6,8 C 6,8 C 95 % 1023,1 hPa 0,0 mm 2,0 km/h (1 Bft) W-SW 254 0 min 0,000 mm 0,0 UV-I 0 W/m 6,1 C 3,2 km/h (1 Bft)
11.08.2016 04:08 6,8 C 6,8 C 95 % 1023,1 hPa 0,0 mm 4,2 km/h (1 Bft) W 268 0 min 0,000 mm 0,0 UV-I 0 W/m 6,1 C 4,8 km/h (1 Bft)
11.08.2016 04:09 6,8 C 6,8 C 95 % 1023,1 hPa 0,0 mm 3,7 km/h (1 Bft) W-SW 253 0 min 0,000 mm 0,0 UV-I 0 W/m 6,1 C 9,7 km/h (2 Bft)
11.08.2016 04:10 6,8 C 6,8 C 95 % 1023,1 hPa 0,0 mm 6,5 km/h (2 Bft) W 259 0 min 0,000 mm 0,0 UV-I 0 W/m 6,1 C 8,0 km/h (2 Bft)
11.08.2016 04:11 6,8 C 6,8 C 95 % 1023,1 hPa 0,0 mm 6,8 km/h (2 Bft) W 263 0 min 0,000 mm 0,0 UV-I 0 W/m 6,1 C 11,3 km/h (2 Bft)
11.08.2016 04:12 6,8 C 6,8 C 95 % 1023,1 hPa 0,0 mm 9,0 km/h (2 Bft) W 275 0 min 0,000 mm 0,0 UV-I 0 W/m 6,1 C 12,9 km/h (3 Bft)
11.08.2016 04:13 6,8 C 6,8 C 95 % 1023,1 hPa 0,0 mm 2,7 km/h (1 Bft) SW 215 0 min 0,000 mm 0,0 UV-I 0 W/m 6,1 C 4,8 km/h (1 Bft)
11.08.2016 04:14 6,8 C 6,8 C 95 % 1023,1 hPa 0,0 mm 1,3 km/h (1 Bft) SW 215 0 min 0,000 mm 0,0 UV-I 0 W/m 6,1 C 3,2 km/h (1 Bft)
11.08.2016 04:15 6,8 C 6,8 C 95 % 1023,1 hPa 0,0 mm 0,8 km/h (0 Bft) SW 215 0 min 0,000 mm 0,0 UV-I 0 W/m 6,1 C 1,6 km/h (1 Bft)
11.08.2016 04:16 6,8 C 6,8 C 95 % 1023,1 hPa 0,0 mm 0,5 km/h (0 Bft) SW 215 0 min 0,000 mm 0,0 UV-I 0 W/m 6,1 C 1,6 km/h (1 Bft)
11.08.2016 04:17 6,8 C 6,8 C 95 % 1023,1 hPa 0,0 mm 0,5 km/h (0 Bft) SW 215 0 min 0,000 mm 0,0 UV-I 0 W/m 6,1 C 1,6 km/h (1 Bft)
11.08.2016 04:18 6,8 C 6,8 C 95 % 1023,1 hPa 0,0 mm 0,7 km/h (0 Bft) SW 215 0 min 0,000 mm 0,0 UV-I 0 W/m 6,1 C 1,6 km/h (1 Bft)
11.08.2016 04:19 6,8 C 6,8 C 95 % 1023,1 hPa 0,0 mm 1,8 km/h (1 Bft) W-SW 238 0 min 0,000 mm 0,0 UV-I 0 W/m 6,1 C 3,2 km/h (1 Bft)
11.08.2016 04:20 6,8 C 6,8 C 95 % 1023,2 hPa 0,0 mm 2,9 km/h (1 Bft) W-SW 239 0 min 0,000 mm 0,0 UV-I 0 W/m 6,1 C 3,2 km/h (1 Bft)
11.08.2016 04:21 6,8 C 6,8 C 95 % 1023,2 hPa 0,0 mm 1,7 km/h (1 Bft) W-SW 238 0 min 0,000 mm 0,0 UV-I 0 W/m 6,1 C 3,2 km/h (1 Bft)
11.08.2016 04:22 6,8 C 6,8 C 95 % 1023,2 hPa 0,0 mm 2,1 km/h (1 Bft) W 267 0 min 0,000 mm 0,0 UV-I 0 W/m 6,1 C 4,8 km/h (1 Bft)
11.08.2016 04:23 6,8 C 6,8 C 94 % 1023,2 hPa 0,0 mm 1,9 km/h (1 Bft) W-SW 257 0 min 0,000 mm 0,0 UV-I 0 W/m 5,9 C 4,8 km/h (1 Bft)
11.08.2016 04:24 6,8 C 6,8 C 94 % 1023,2 hPa 0,0 mm 1,8 km/h (1 Bft) S-SO 168 0 min 0,000 mm 0,0 UV-I 0 W/m 5,9 C 3,2 km/h (1 Bft)
11.08.2016 04:25 6,8 C 6,8 C 94 % 1023,2 hPa 0,0 mm 0,8 km/h (0 Bft) S 169 0 min 0,000 mm 0,0 UV-I 0 W/m 5,9 C 1,6 km/h (1 Bft)
11.08.2016 04:26 6,8 C 6,8 C 94 % 1023,2 hPa 0,0 mm 3,6 km/h (1 Bft) W-SW 252 0 min 0,000 mm 0,0 UV-I 0 W/m 5,9 C 4,8 km/h (1 Bft)
11.08.2016 04:27 6,8 C 6,8 C 94 % 1023,1 hPa 0,0 mm 3,6 km/h (1 Bft) W-SW 241 0 min 0,000 mm 0,0 UV-I 0 W/m 5,9 C 6,4 km/h (2 Bft)
11.08.2016 04:28 6,8 C 6,8 C 94 % 1023,2 hPa 0,0 mm 2,4 km/h (1 Bft) S-SW 213 0 min 0,000 mm 0,0 UV-I 0 W/m 5,9 C 4,8 km/h (1 Bft)
11.08.2016 04:29 6,8 C 6,8 C 94 % 1023,2 hPa 0,0 mm 0,5 km/h (0 Bft) S-SW 213 0 min 0,000 mm 0,0 UV-I 0 W/m 5,9 C 3,2 km/h (1 Bft)
11.08.2016 04:30 6,8 C 6,8 C 94 % 1023,1 hPa 0,0 mm 0,6 km/h (0 Bft) S-SW 213 0 min 0,000 mm 0,0 UV-I 0 W/m 5,9 C 1,6 km/h (1 Bft)
11.08.2016 04:31 6,8 C 6,8 C 94 % 1023,1 hPa 0,0 mm 1,3 km/h (1 Bft) S 185 0 min 0,000 mm 0,0 UV-I 0 W/m 5,9 C 3,2 km/h (1 Bft)
11.08.2016 04:32 6,8 C 6,8 C 94 % 1023,1 hPa 0,0 mm 0,0 km/h (0 Bft) S 185 0 min 0,000 mm 0,0 UV-I 0 W/m 5,9 C 0,0 km/h (0 Bft)
11.08.2016 04:33 6,8 C 6,8 C 94 % 1023,2 hPa 0,0 mm 0,1 km/h (0 Bft) S 185 0 min 0,000 mm 0,0 UV-I 0 W/m 5,9 C 1,6 km/h (1 Bft)
11.08.2016 04:34 6,7 C 6,8 C 94 % 1023,2 hPa 0,0 mm 0,0 km/h (0 Bft) S 185 0 min 0,000 mm 0,0 UV-I 0 W/m 5,8 C 0,0 km/h (0 Bft)
11.08.2016 04:35 6,7 C 6,8 C 94 % 1023,2 hPa 0,0 mm 0,0 km/h (0 Bft) S 185 0 min 0,000 mm 0,0 UV-I 0 W/m 5,8 C 0,0 km/h (0 Bft)
11.08.2016 04:36 6,7 C 6,8 C 94 % 1023,2 hPa 0,0 mm 0,3 km/h (0 Bft) S 185 0 min 0,000 mm 0,0 UV-I 0 W/m 5,8 C 1,6 km/h (1 Bft)
11.08.2016 04:37 6,7 C 6,7 C 94 % 1023,2 hPa 0,0 mm 0,0 km/h (0 Bft) S 185 0 min 0,000 mm 0,0 UV-I 0 W/m 5,8 C 0,0 km/h (0 Bft)
11.08.2016 04:38 6,7 C 6,7 C 95 % 1023,2 hPa 0,0 mm 0,0 km/h (0 Bft) S 185 0 min 0,000 mm 0,0 UV-I 0 W/m 6,0 C 0,0 km/h (0 Bft)
11.08.2016 04:39 6,7 C 6,7 C 95 % 1023,1 hPa 0,0 mm 0,0 km/h (0 Bft) S 185 0 min 0,000 mm 0,0 UV-I 0 W/m 6,0 C 0,0 km/h (0 Bft)
11.08.2016 04:40 6,7 C 6,7 C 95 % 1023,2 hPa 0,0 mm 0,3 km/h (0 Bft) S 185 0 min 0,000 mm 0,0 UV-I 0 W/m 6,0 C 1,6 km/h (1 Bft)
11.08.2016 04:41 6,7 C 6,7 C 95 % 1023,2 hPa 0,0 mm 0,2 km/h (0 Bft) S 185 0 min 0,000 mm 0,0 UV-I 0 W/m 6,0 C 1,6 km/h (1 Bft)
11.08.2016 04:42 6,8 C 6,8 C 95 % 1023,2 hPa 0,0 mm 1,1 km/h (1 Bft) S 185 0 min 0,000 mm 0,0 UV-I 0 W/m 6,1 C 3,2 km/h (1 Bft)
11.08.2016 04:43 6,7 C 6,8 C 95 % 1023,1 hPa 0,0 mm 1,5 km/h (1 Bft) S 185 0 min 0,000 mm 0,0 UV-I 0 W/m 6,0 C 1,6 km/h (1 Bft)
11.08.2016 04:44 6,7 C 6,7 C 95 % 1023,1 hPa 0,0 mm 1,2 km/h (1 Bft) S 185 0 min 0,000 mm 0,0 UV-I 0 W/m 6,0 C 3,2 km/h (1 Bft)
11.08.2016 04:45 6,7 C 6,8 C 95 % 1023,2 hPa 0,0 mm 0,3 km/h (0 Bft) S 185 0 min 0,000 mm 0,0 UV-I 0 W/m 6,0 C 1,6 km/h (1 Bft)
11.08.2016 04:46 6,7 C 6,7 C 95 % 1023,1 hPa 0,0 mm 1,5 km/h (1 Bft) S-SW 205 0 min 0,000 mm 0,0 UV-I 0 W/m 6,0 C 3,2 km/h (1 Bft)
11.08.2016 04:47 6,7 C 6,7 C 95 % 1023,1 hPa 0,0 mm 4,2 km/h (1 Bft) S-SW 195 0 min 0,000 mm 0,0 UV-I 0 W/m 6,0 C 6,4 km/h (2 Bft)
11.08.2016 04:48 6,7 C 6,7 C 95 % 1023,2 hPa 0,0 mm 2,5 km/h (1 Bft) S 171 0 min 0,000 mm 0,0 UV-I 0 W/m 6,0 C 3,2 km/h (1 Bft)
11.08.2016 04:49 6,7 C 6,7 C 95 % 1023,1 hPa 0,0 mm 1,4 km/h (1 Bft) S 171 0 min 0,000 mm 0,0 UV-I 0 W/m 6,0 C 1,6 km/h (1 Bft)
11.08.2016 04:50 6,7 C 6,8 C 95 % 1023,1 hPa 0,0 mm 1,7 km/h (1 Bft) S 171 0 min 0,000 mm 0,0 UV-I 0 W/m 6,0 C 3,2 km/h (1 Bft)
11.08.2016 04:51 6,7 C 6,7 C 95 % 1023,1 hPa 0,0 mm 2,0 km/h (1 Bft) S 171 0 min 0,000 mm 0,0 UV-I 0 W/m 6,0 C 3,2 km/h (1 Bft)
11.08.2016 04:52 6,7 C 6,7 C 95 % 1023,1 hPa 0,0 mm 0,3 km/h (0 Bft) S 171 0 min 0,000 mm 0,0 UV-I 0 W/m 6,0 C 1,6 km/h (1 Bft)
11.08.2016 04:53 6,7 C 6,7 C 95 % 1023,1 hPa 0,0 mm 1,6 km/h (1 Bft) S 171 0 min 0,000 mm 0,0 UV-I 0 W/m 6,0 C 3,2 km/h (1 Bft)
11.08.2016 04:54 6,7 C 6,7 C 95 % 1023,1 hPa 0,0 mm 1,9 km/h (1 Bft) S 171 0 min 0,000 mm 0,0 UV-I 0 W/m 6,0 C 3,2 km/h (1 Bft)
11.08.2016 04:55 6,7 C 6,7 C 95 % 1023,1 hPa 0,0 mm 1,3 km/h (1 Bft) S 171 0 min 0,000 mm 0,0 UV-I 0 W/m 6,0 C 1,6 km/h (1 Bft)
11.08.2016 04:56 6,7 C 6,7 C 95 % 1023,1 hPa 0,0 mm 1,3 km/h (1 Bft) S 171 0 min 0,000 mm 0,0 UV-I 0 W/m 6,0 C 3,2 km/h (1 Bft)
11.08.2016 04:57 6,7 C 6,7 C 95 % 1023,1 hPa 0,0 mm 2,0 km/h (1 Bft) S 171 0 min 0,000 mm 0,0 UV-I 0 W/m 6,0 C 3,2 km/h (1 Bft)
11.08.2016 04:58 6,7 C 6,7 C 95 % 1023,1 hPa 0,0 mm 1,2 km/h (1 Bft) S 171 0 min 0,000 mm 0,0 UV-I 0 W/m 6,0 C 1,6 km/h (1 Bft)
11.08.2016 04:59 6,6 C 6,7 C 95 % 1023,2 hPa 0,0 mm 1,6 km/h (1 Bft) S 171 0 min 0,000 mm 0,0 UV-I 0 W/m 5,9 C 3,2 km/h (1 Bft)
11.08.2016 05:00 6,7 C 6,7 C 95 % 1023,2 hPa 0,0 mm 1,5 km/h (1 Bft) S 171 0 min 0,000 mm 0,0 UV-I 0 W/m 6,0 C 3,2 km/h (1 Bft)
11.08.2016 05:01 6,7 C 6,7 C 95 % 1023,2 hPa 0,0 mm 0,1 km/h (0 Bft) S 171 0 min 0,000 mm 0,0 UV-I 0 W/m 6,0 C 1,6 km/h (1 Bft)
11.08.2016 05:02 6,7 C 6,7 C 95 % 1023,2 hPa 0,0 mm 0,0 km/h (0 Bft) S 171 0 min 0,000 mm 0,0 UV-I 0 W/m 6,0 C 0,0 km/h (0 Bft)
11.08.2016 05:03 6,7 C 6,7 C 95 % 1023,2 hPa 0,0 mm 0,0 km/h (0 Bft) S 171 0 min 0,000 mm 0,0 UV-I 0 W/m 6,0 C 0,0 km/h (0 Bft)
11.08.2016 05:04 6,7 C 6,7 C 95 % 1023,2 hPa 0,0 mm 0,0 km/h (0 Bft) S 171 0 min 0,000 mm 0,0 UV-I 0 W/m 6,0 C 0,0 km/h (0 Bft)
11.08.2016 05:05 6,7 C 6,7 C 95 % 1023,2 hPa 0,0 mm 0,2 km/h (0 Bft) S 171 0 min 0,000 mm 0,0 UV-I 0 W/m 6,0 C 1,6 km/h (1 Bft)
11.08.2016 05:06 6,7 C 6,7 C 95 % 1023,2 hPa 0,0 mm 0,1 km/h (0 Bft) S 171 0 min 0,000 mm 0,0 UV-I 0 W/m 6,0 C 1,6 km/h (1 Bft)
11.08.2016 05:07 6,7 C 6,7 C 95 % 1023,2 hPa 0,0 mm 0,0 km/h (0 Bft) S 171 0 min 0,000 mm 0,0 UV-I 0 W/m 6,0 C 0,0 km/h (0 Bft)
11.08.2016 05:08 6,7 C 6,7 C 95 % 1023,2 hPa 0,0 mm 0,1 km/h (0 Bft) S 171 0 min 0,000 mm 0,0 UV-I 0 W/m 6,0 C 1,6 km/h (1 Bft)
11.08.2016 05:09 6,7 C 6,7 C 95 % 1023,2 hPa 0,0 mm 0,0 km/h (0 Bft) S 171 0 min 0,000 mm 0,0 UV-I 0 W/m 6,0 C 0,0 km/h (0 Bft)
11.08.2016 05:10 6,7 C 6,7 C 96 % 1023,2 hPa 0,0 mm 0,0 km/h (0 Bft) S 171 0 min 0,000 mm 0,0 UV-I 0 W/m 6,1 C 0,0 km/h (0 Bft)
11.08.2016 05:11 6,7 C 6,7 C 96 % 1023,2 hPa 0,0 mm 0,0 km/h (0 Bft) S 171 0 min 0,000 mm 0,0 UV-I 0 W/m 6,1 C 0,0 km/h (0 Bft)
11.08.2016 05:12 6,7 C 6,7 C 96 % 1023,2 hPa 0,0 mm 0,3 km/h (0 Bft) S 171 0 min 0,000 mm 0,0 UV-I 0 W/m 6,1 C 1,6 km/h (1 Bft)
11.08.2016 05:13 6,8 C 6,8 C 95 % 1023,2 hPa 0,0 mm 0,4 km/h (0 Bft) S 171 0 min 0,000 mm 0,0 UV-I 0 W/m 6,1 C 1,6 km/h (1 Bft)
11.08.2016 05:14 6,8 C 6,8 C 96 % 1023,2 hPa 0,0 mm 0,2 km/h (0 Bft) S 171 0 min 0,000 mm 0,0 UV-I 0 W/m 6,2 C 1,6 km/h (1 Bft)
11.08.2016 05:15 6,8 C 6,8 C 96 % 1023,2 hPa 0,0 mm 0,4 km/h (0 Bft) S 171 0 min 0,000 mm 0,0 UV-I 0 W/m 6,2 C 1,6 km/h (1 Bft)
11.08.2016 05:16 6,8 C 6,8 C 96 % 1023,2 hPa 0,0 mm 0,3 km/h (0 Bft) S 171 0 min 0,000 mm 0,0 UV-I 0 W/m 6,2 C 1,6 km/h (1 Bft)
11.08.2016 05:17 6,8 C 6,8 C 96 % 1023,2 hPa 0,0 mm 0,2 km/h (0 Bft) S 171 0 min 0,000 mm 0,0 UV-I 0 W/m 6,2 C 1,6 km/h (1 Bft)
11.08.2016 05:18 6,8 C 6,8 C 96 % 1023,2 hPa 0,0 mm 0,1 km/h (0 Bft) S 171 0 min 0,000 mm 0,0 UV-I 0 W/m 6,2 C 1,6 km/h (1 Bft)
11.08.2016 05:19 6,8 C 6,8 C 96 % 1023,2 hPa 0,0 mm 0,6 km/h (0 Bft) S 171 0 min 0,000 mm 0,0 UV-I 0 W/m 6,2 C 1,6 km/h (1 Bft)
11.08.2016 05:20 6,8 C 6,8 C 96 % 1023,2 hPa 0,0 mm 0,3 km/h (0 Bft) S 171 0 min 0,000 mm 0,0 UV-I 0 W/m 6,2 C 1,6 km/h (1 Bft)
11.08.2016 05:21 6,8 C 6,8 C 96 % 1023,2 hPa 0,0 mm 0,6 km/h (0 Bft) S 171 0 min 0,000 mm 0,0 UV-I 0 W/m 6,2 C 1,6 km/h (1 Bft)
11.08.2016 05:22 6,8 C 6,8 C 96 % 1023,2 hPa 0,0 mm 0,8 km/h (0 Bft) S 171 0 min 0,000 mm 0,0 UV-I 0 W/m 6,2 C 1,6 km/h (1 Bft)
11.08.2016 05:23 6,8 C 6,8 C 96 % 1023,2 hPa 0,0 mm 0,3 km/h (0 Bft) S 171 0 min 0,000 mm 0,0 UV-I 0 W/m 6,2 C 1,6 km/h (1 Bft)
11.08.2016 05:24 6,8 C 6,8 C 96 % 1023,2 hPa 0,0 mm 0,5 km/h (0 Bft) S 171 0 min 0,000 mm 0,0 UV-I 0 W/m 6,2 C 1,6 km/h (1 Bft)
11.08.2016 05:25 6,8 C 6,8 C 96 % 1023,2 hPa 0,0 mm 0,3 km/h (0 Bft) S 171 0 min 0,000 mm 0,0 UV-I 0 W/m 6,2 C 1,6 km/h (1 Bft)
11.08.2016 05:26 6,8 C 6,8 C 95 % 1023,2 hPa 0,0 mm 0,6 km/h (0 Bft) S 171 0 min 0,000 mm 0,0 UV-I 0 W/m 6,1 C 3,2 km/h (1 Bft)
11.08.2016 05:27 6,8 C 6,8 C 95 % 1023,2 hPa 0,0 mm 0,7 km/h (0 Bft) S 171 0 min 0,000 mm 0,0 UV-I 0 W/m 6,1 C 1,6 km/h (1 Bft)
11.08.2016 05:28 6,8 C 6,8 C 95 % 1023,2 hPa 0,0 mm 0,3 km/h (0 Bft) S 171 0 min 0,000 mm 0,0 UV-I 0 W/m 6,1 C 1,6 km/h (1 Bft)
11.08.2016 05:29 6,8 C 6,8 C 95 % 1023,2 hPa 0,0 mm 0,0 km/h (0 Bft) S 171 0 min 0,000 mm 0,0 UV-I 0 W/m 6,1 C 0,0 km/h (0 Bft)
11.08.2016 05:30 6,8 C 6,8 C 95 % 1023,2 hPa 0,0 mm 0,3 km/h (0 Bft) S 171 0 min 0,000 mm 0,0 UV-I 0 W/m 6,1 C 1,6 km/h (1 Bft)
11.08.2016 05:31 6,8 C 6,8 C 96 % 1023,3 hPa 0,0 mm 0,2 km/h (0 Bft) S 171 0 min 0,000 mm 0,0 UV-I 0 W/m 6,2 C 1,6 km/h (1 Bft)
11.08.2016 05:32 6,8 C 6,8 C 96 % 1023,2 hPa 0,0 mm 0,7 km/h (0 Bft) S 171 0 min 0,000 mm 0,0 UV-I 0 W/m 6,2 C 1,6 km/h (1 Bft)
11.08.2016 05:33 6,8 C 6,8 C 96 % 1023,3 hPa 0,0 mm 1,1 km/h (1 Bft) S 171 0 min 0,000 mm 0,0 UV-I 0 W/m 6,2 C 3,2 km/h (1 Bft)
11.08.2016 05:34 6,8 C 6,8 C 96 % 1023,3 hPa 0,0 mm 0,5 km/h (0 Bft) S 171 0 min 0,000 mm 0,0 UV-I 0 W/m 6,2 C 1,6 km/h (1 Bft)
11.08.2016 05:35 6,8 C 6,8 C 96 % 1023,2 hPa 0,0 mm 0,0 km/h (0 Bft) S 171 0 min 0,000 mm 0,0 UV-I 0 W/m 6,2 C 0,0 km/h (0 Bft)
11.08.2016 05:36 6,8 C 6,8 C 96 % 1023,3 hPa 0,0 mm 0,0 km/h (0 Bft) S 171 0 min 0,000 mm 0,0 UV-I 0 W/m 6,2 C 0,0 km/h (0 Bft)
11.08.2016 05:37 6,8 C 6,8 C 96 % 1023,4 hPa 0,0 mm 0,9 km/h (0 Bft) S 171 0 min 0,000 mm 0,0 UV-I 0 W/m 6,2 C 3,2 km/h (1 Bft)
11.08.2016 05:38 6,8 C 6,8 C 96 % 1023,3 hPa 0,0 mm 4,1 km/h (1 Bft) S 186 0 min 0,000 mm 0,0 UV-I 0 W/m 6,2 C 6,4 km/h (2 Bft)
11.08.2016 05:39 6,8 C 6,8 C 96 % 1023,3 hPa 0,0 mm 4,4 km/h (1 Bft) S-SW 193 0 min 0,000 mm 0,0 UV-I 0 W/m 6,2 C 6,4 km/h (2 Bft)
11.08.2016 05:40 6,8 C 6,9 C 96 % 1023,3 hPa 0,0 mm 2,3 km/h (1 Bft) S-SO 159 0 min 0,000 mm 0,0 UV-I 0 W/m 6,2 C 3,2 km/h (1 Bft)
11.08.2016 05:41 6,9 C 6,9 C 96 % 1023,3 hPa 0,0 mm 2,4 km/h (1 Bft) S-SO 159 0 min 0,000 mm 0,0 UV-I 0 W/m 6,3 C 3,2 km/h (1 Bft)
11.08.2016 05:42 6,8 C 6,9 C 96 % 1023,3 hPa 0,2 mm 3,1 km/h (1 Bft) S 184 0 min 0,000 mm 0,0 UV-I 0 W/m 6,2 C 4,8 km/h (1 Bft)
11.08.2016 05:43 6,9 C 6,9 C 96 % 1023,2 hPa 0,0 mm 4,0 km/h (1 Bft) S-SW 200 0 min 0,000 mm 0,0 UV-I 0 W/m 6,3 C 4,8 km/h (1 Bft)
11.08.2016 05:44 6,9 C 6,9 C 96 % 1023,2 hPa 0,0 mm 2,7 km/h (1 Bft) S-SW 199 0 min 0,000 mm 0,0 UV-I 0 W/m 6,3 C 4,8 km/h (1 Bft)
11.08.2016 05:45 6,9 C 6,9 C 96 % 1023,2 hPa 0,0 mm 1,0 km/h (0 Bft) S-SW 199 0 min 0,000 mm 0,0 UV-I 0 W/m 6,3 C 1,6 km/h (1 Bft)
11.08.2016 05:46 6,9 C 6,9 C 95 % 1023,2 hPa 0,2 mm 0,2 km/h (0 Bft) S-SW 199 0 min 0,000 mm 0,0 UV-I 0 W/m 6,2 C 1,6 km/h (1 Bft)
11.08.2016 05:47 6,9 C 6,9 C 95 % 1023,2 hPa 0,0 mm 1,8 km/h (1 Bft) S-SW 198 0 min 0,000 mm 0,0 UV-I 0 W/m 6,2 C 3,2 km/h (1 Bft)
11.08.2016 05:48 6,9 C 6,9 C 96 % 1023,2 hPa 0,0 mm 0,5 km/h (0 Bft) S-SW 195 0 min 0,000 mm 0,0 UV-I 0 W/m 6,3 C 1,6 km/h (1 Bft)
11.08.2016 05:49 6,9 C 6,9 C 95 % 1023,2 hPa 0,0 mm 0,0 km/h (0 Bft) S-SW 195 0 min 0,000 mm 0,0 UV-I 0 W/m 6,2 C 0,0 km/h (0 Bft)
11.08.2016 05:50 6,9 C 6,9 C 95 % 1023,2 hPa 0,0 mm 0,1 km/h (0 Bft) S-SW 195 0 min 0,000 mm 0,0 UV-I 0 W/m 6,2 C 1,6 km/h (1 Bft)
11.08.2016 05:51 6,8 C 6,9 C 95 % 1023,2 hPa 0,0 mm 0,0 km/h (0 Bft) S-SW 195 0 min 0,000 mm 0,0 UV-I 0 W/m 6,1 C 0,0 km/h (0 Bft)
11.08.2016 05:52 6,9 C 6,9 C 96 % 1023,3 hPa 0,2 mm 0,0 km/h (0 Bft) S-SW 195 0 min 0,000 mm 0,0 UV-I 0 W/m 6,3 C 0,0 km/h (0 Bft)
11.08.2016 05:53 6,9 C 6,9 C 96 % 1023,2 hPa 0,0 mm 0,5 km/h (0 Bft) S-SW 195 0 min 0,000 mm 0,0 UV-I 0 W/m 6,3 C 1,6 km/h (1 Bft)
11.08.2016 05:54 6,8 C 6,9 C 96 % 1023,3 hPa 0,0 mm 0,1 km/h (0 Bft) S-SW 195 0 min 0,000 mm 0,0 UV-I 0 W/m 6,2 C 1,6 km/h (1 Bft)
11.08.2016 05:55 6,8 C 6,9 C 96 % 1023,3 hPa 0,0 mm 0,0 km/h (0 Bft) S-SW 195 0 min 0,000 mm 0,0 UV-I 0 W/m 6,2 C 0,0 km/h (0 Bft)
11.08.2016 05:56 6,8 C 6,9 C 96 % 1023,2 hPa 0,2 mm 0,1 km/h (0 Bft) S-SW 195 0 min 0,000 mm 0,0 UV-I 0 W/m 6,2 C 1,6 km/h (1 Bft)
11.08.2016 05:57 6,9 C 6,9 C 96 % 1023,3 hPa 0,0 mm 0,5 km/h (0 Bft) S-SW 195 0 min 0,000 mm 0,0 UV-I 0 W/m 6,3 C 1,6 km/h (1 Bft)
11.08.2016 05:58 6,8 C 6,9 C 96 % 1023,3 hPa 0,0 mm 0,5 km/h (0 Bft) S-SW 195 0 min 0,000 mm 0,0 UV-I 0 W/m 6,2 C 1,6 km/h (1 Bft)
11.08.2016 05:59 6,8 C 6,8 C 96 % 1023,4 hPa 0,0 mm 0,9 km/h (0 Bft) S-SW 195 0 min 0,000 mm 0,0 UV-I 0 W/m 6,2 C 3,2 km/h (1 Bft)
11.08.2016 06:00 6,9 C 6,9 C 96 % 1023,3 hPa 0,2 mm 2,1 km/h (1 Bft) S-SW 194 0 min 0,000 mm 0,0 UV-I 0 W/m 6,3 C 4,8 km/h (1 Bft)
11.08.2016 06:01 6,8 C 6,9 C 96 % 1023,3 hPa 0,0 mm 2,3 km/h (1 Bft) S 176 0 min 0,000 mm 0,0 UV-I 0 W/m 6,2 C 3,2 km/h (1 Bft)
11.08.2016 06:02 6,9 C 6,9 C 96 % 1023,3 hPa 0,0 mm 2,2 km/h (1 Bft) S 176 0 min 0,000 mm 0,0 UV-I 0 W/m 6,3 C 3,2 km/h (1 Bft)
11.08.2016 06:03 6,9 C 6,9 C 96 % 1023,3 hPa 0,0 mm 1,3 km/h (1 Bft) S 176 0 min 0,000 mm 0,0 UV-I 0 W/m 6,3 C 1,6 km/h (1 Bft)
11.08.2016 06:04 6,8 C 6,9 C 96 % 1023,3 hPa 0,0 mm 1,5 km/h (1 Bft) S 176 0 min 0,000 mm 0,0 UV-I 0 W/m 6,2 C 1,6 km/h (1 Bft)
11.08.2016 06:05 6,9 C 6,9 C 96 % 1023,4 hPa 0,0 mm 0,6 km/h (0 Bft) S 176 0 min 0,000 mm 0,0 UV-I 0 W/m 6,3 C 1,6 km/h (1 Bft)
11.08.2016 06:06 6,9 C 6,9 C 96 % 1023,4 hPa 0,0 mm 1,3 km/h (1 Bft) S 176 0 min 0,000 mm 0,0 UV-I 0 W/m 6,3 C 3,2 km/h (1 Bft)
11.08.2016 06:07 6,9 C 6,9 C 96 % 1023,4 hPa 0,0 mm 1,6 km/h (1 Bft) S 176 0 min 0,000 mm 0,0 UV-I 0 W/m 6,3 C 3,2 km/h (1 Bft)
11.08.2016 06:08 6,9 C 6,9 C 96 % 1023,4 hPa 0,0 mm 0,2 km/h (0 Bft) S 176 0 min 0,000 mm 0,0 UV-I 0 W/m 6,3 C 1,6 km/h (1 Bft)
11.08.2016 06:09 6,9 C 6,9 C 96 % 1023,5 hPa 0,0 mm 0,4 km/h (0 Bft) S 176 0 min 0,000 mm 0,0 UV-I 0 W/m 6,3 C 1,6 km/h (1 Bft)
11.08.2016 06:10 6,9 C 6,9 C 96 % 1023,5 hPa 0,0 mm 1,0 km/h (0 Bft) S 176 0 min 0,000 mm 0,0 UV-I 0 W/m 6,3 C 1,6 km/h (1 Bft)
11.08.2016 06:11 6,9 C 6,9 C 96 % 1023,4 hPa 0,0 mm 1,7 km/h (1 Bft) S 176 0 min 0,000 mm 0,0 UV-I 0 W/m 6,3 C 3,2 km/h (1 Bft)
11.08.2016 06:12 6,9 C 6,9 C 96 % 1023,5 hPa 0,0 mm 1,5 km/h (1 Bft) S 176 0 min 0,000 mm 0,0 UV-I 0 W/m 6,3 C 3,2 km/h (1 Bft)
11.08.2016 06:13 6,9 C 6,9 C 96 % 1023,5 hPa 0,0 mm 0,9 km/h (0 Bft) S 176 0 min 0,000 mm 0,0 UV-I 0 W/m 6,3 C 1,6 km/h (1 Bft)
11.08.2016 06:14 6,9 C 6,9 C 96 % 1023,5 hPa 0,0 mm 1,1 km/h (1 Bft) S 176 0 min 0,000 mm 0,0 UV-I 0 W/m 6,3 C 1,6 km/h (1 Bft)
11.08.2016 06:15 6,9 C 6,9 C 96 % 1023,5 hPa 0,0 mm 1,7 km/h (1 Bft) S 173 0 min 0,000 mm 0,0 UV-I 0 W/m 6,3 C 3,2 km/h (1 Bft)
11.08.2016 06:16 6,9 C 6,9 C 96 % 1023,5 hPa 0,0 mm 2,2 km/h (1 Bft) W 262 0 min 0,000 mm 0,0 UV-I 0 W/m 6,3 C 4,8 km/h (1 Bft)
11.08.2016 06:17 6,9 C 6,9 C 96 % 1023,5 hPa 0,0 mm 1,9 km/h (1 Bft) W-SW 241 0 min 0,000 mm 0,0 UV-I 0 W/m 6,3 C 4,8 km/h (1 Bft)
11.08.2016 06:18 7,1 C 7,1 C 96 % 1023,6 hPa 0,0 mm 1,9 km/h (1 Bft) W 275 0 min 0,000 mm 0,0 UV-I 0 W/m 6,5 C 3,2 km/h (1 Bft)
11.08.2016 06:19 7,1 C 7,1 C 96 % 1023,6 hPa 0,0 mm 1,0 km/h (0 Bft) S-SW 204 0 min 0,000 mm 0,0 UV-I 0 W/m 6,5 C 3,2 km/h (1 Bft)
11.08.2016 06:20 7,1 C 7,1 C 96 % 1023,6 hPa 0,0 mm 2,5 km/h (1 Bft) S 170 0 min 0,000 mm 0,0 UV-I 0 W/m 6,5 C 4,8 km/h (1 Bft)
11.08.2016 06:21 7,1 C 7,1 C 96 % 1023,6 hPa 0,0 mm 3,1 km/h (1 Bft) SO 138 0 min 0,000 mm 0,0 UV-I 0 W/m 6,5 C 4,8 km/h (1 Bft)
11.08.2016 06:22 7,1 C 7,1 C 96 % 1023,6 hPa 0,0 mm 2,1 km/h (1 Bft) SO 134 0 min 0,000 mm 0,0 UV-I 0 W/m 6,5 C 3,2 km/h (1 Bft)
11.08.2016 06:23 7,1 C 7,1 C 96 % 1023,6 hPa 0,0 mm 1,4 km/h (1 Bft) S-SW 209 0 min 0,000 mm 0,0 UV-I 0 W/m 6,5 C 3,2 km/h (1 Bft)
11.08.2016 06:24 7,1 C 7,1 C 96 % 1023,6 hPa 0,0 mm 1,7 km/h (1 Bft) S-SW 209 0 min 0,000 mm 0,0 UV-I 0 W/m 6,5 C 3,2 km/h (1 Bft)
11.08.2016 06:25 7,1 C 7,1 C 96 % 1023,6 hPa 0,0 mm 2,9 km/h (1 Bft) S 180 0 min 0,000 mm 0,0 UV-I 0 W/m 6,5 C 4,8 km/h (1 Bft)
11.08.2016 06:26 7,1 C 7,1 C 96 % 1023,6 hPa 0,0 mm 0,6 km/h (0 Bft) S 180 0 min 0,000 mm 0,0 UV-I 0 W/m 6,5 C 3,2 km/h (1 Bft)
11.08.2016 06:27 7,1 C 7,2 C 96 % 1023,6 hPa 0,0 mm 1,0 km/h (0 Bft) S 180 0 min 0,000 mm 0,0 UV-I 0 W/m 6,5 C 1,6 km/h (1 Bft)
11.08.2016 06:28 7,2 C 7,2 C 96 % 1023,7 hPa 0,0 mm 1,4 km/h (1 Bft) S 180 0 min 0,000 mm 0,0 UV-I 0 W/m 6,6 C 3,2 km/h (1 Bft)
11.08.2016 06:29 7,1 C 7,2 C 96 % 1023,7 hPa 0,0 mm 1,7 km/h (1 Bft) S 180 0 min 0,000 mm 0,0 UV-I 5 W/m 6,5 C 3,2 km/h (1 Bft)
11.08.2016 06:30 7,1 C 7,2 C 96 % 1023,7 hPa 0,0 mm 0,4 km/h (0 Bft) S 180 0 min 0,000 mm 0,0 UV-I 5 W/m 6,5 C 1,6 km/h (1 Bft)
11.08.2016 06:31 7,1 C 7,1 C 96 % 1023,7 hPa 0,0 mm 0,0 km/h (0 Bft) S 180 0 min 0,000 mm 0,0 UV-I 5 W/m 6,5 C 0,0 km/h (0 Bft)
11.08.2016 06:32 7,1 C 7,1 C 96 % 1023,7 hPa 0,0 mm 0,1 km/h (0 Bft) S 180 0 min 0,000 mm 0,0 UV-I 7 W/m 6,5 C 1,6 km/h (1 Bft)
11.08.2016 06:33 7,1 C 7,1 C 96 % 1023,7 hPa 0,0 mm 0,3 km/h (0 Bft) S 180 0 min 0,000 mm 0,0 UV-I 7 W/m 6,5 C 1,6 km/h (1 Bft)
11.08.2016 06:34 7,1 C 7,1 C 96 % 1023,7 hPa 0,0 mm 0,4 km/h (0 Bft) S 180 0 min 0,000 mm 0,0 UV-I 7 W/m 6,5 C 1,6 km/h (1 Bft)
11.08.2016 06:35 7,1 C 7,1 C 96 % 1023,7 hPa 0,0 mm 0,1 km/h (0 Bft) S 180 0 min 0,000 mm 0,0 UV-I 9 W/m 6,5 C 1,6 km/h (1 Bft)
11.08.2016 06:36 7,1 C 7,1 C 96 % 1023,7 hPa 0,0 mm 0,0 km/h (0 Bft) S 180 0 min 0,000 mm 0,0 UV-I 9 W/m 6,5 C 0,0 km/h (0 Bft)
11.08.2016 06:37 7,1 C 7,1 C 96 % 1023,7 hPa 0,0 mm 0,0 km/h (0 Bft) S 180 0 min 0,000 mm 0,0 UV-I 7 W/m 6,5 C 0,0 km/h (0 Bft)
11.08.2016 06:38 7,1 C 7,1 C 96 % 1023,8 hPa 0,0 mm 0,1 km/h (0 Bft) S 180 0 min 0,000 mm 0,0 UV-I 7 W/m 6,5 C 1,6 km/h (1 Bft)
11.08.2016 06:39 7,1 C 7,1 C 96 % 1023,8 hPa 0,0 mm 0,0 km/h (0 Bft) S 180 0 min 0,000 mm 0,0 UV-I 7 W/m 6,5 C 0,0 km/h (0 Bft)
11.08.2016 06:40 7,1 C 7,1 C 96 % 1023,8 hPa 0,0 mm 0,0 km/h (0 Bft) S 180 0 min 0,000 mm 0,0 UV-I 5 W/m 6,5 C 0,0 km/h (0 Bft)
11.08.2016 06:41 7,2 C 7,2 C 96 % 1023,8 hPa 0,0 mm 0,1 km/h (0 Bft) S 180 0 min 0,000 mm 0,0 UV-I 5 W/m 6,6 C 1,6 km/h (1 Bft)
11.08.2016 06:42 7,1 C 7,2 C 96 % 1023,8 hPa 0,0 mm 0,1 km/h (0 Bft) S 180 0 min 0,000 mm 0,0 UV-I 5 W/m 6,5 C 1,6 km/h (1 Bft)
11.08.2016 06:43 7,2 C 7,2 C 96 % 1023,9 hPa 0,0 mm 0,0 km/h (0 Bft) S 180 0 min 0,000 mm 0,0 UV-I 5 W/m 6,6 C 0,0 km/h (0 Bft)
11.08.2016 06:44 7,1 C 7,2 C 96 % 1023,8 hPa 0,0 mm 0,3 km/h (0 Bft) S 180 0 min 0,000 mm 0,0 UV-I 5 W/m 6,5 C 1,6 km/h (1 Bft)
11.08.2016 06:45 7,1 C 7,2 C 96 % 1023,9 hPa 0,0 mm 0,9 km/h (0 Bft) S 180 0 min 0,000 mm 0,0 UV-I 0 W/m 6,5 C 1,6 km/h (1 Bft)
11.08.2016 06:46 7,2 C 7,2 C 96 % 1023,9 hPa 0,0 mm 0,7 km/h (0 Bft) S 180 0 min 0,000 mm 0,0 UV-I 0 W/m 6,6 C 1,6 km/h (1 Bft)
11.08.2016 06:47 7,2 C 7,2 C 96 % 1023,9 hPa 0,0 mm 0,2 km/h (0 Bft) S 180 0 min 0,000 mm 0,0 UV-I 0 W/m 6,6 C 1,6 km/h (1 Bft)
11.08.2016 06:48 7,2 C 7,2 C 96 % 1023,9 hPa 0,0 mm 0,7 km/h (0 Bft) S 180 0 min 0,000 mm 0,0 UV-I 0 W/m 6,6 C 1,6 km/h (1 Bft)
11.08.2016 06:49 7,2 C 7,2 C 96 % 1023,9 hPa 0,0 mm 0,0 km/h (0 Bft) S 180 0 min 0,000 mm 0,0 UV-I 0 W/m 6,6 C 0,0 km/h (0 Bft)
11.08.2016 06:50 7,2 C 7,2 C 96 % 1023,8 hPa 0,0 mm 0,0 km/h (0 Bft) S 180 0 min 0,000 mm 0,0 UV-I 5 W/m 6,6 C 0,0 km/h (0 Bft)
11.08.2016 06:51 7,2 C 7,2 C 96 % 1023,8 hPa 0,0 mm 0,3 km/h (0 Bft) S 180 0 min 0,000 mm 0,0 UV-I 5 W/m 6,6 C 1,6 km/h (1 Bft)
11.08.2016 06:52 7,2 C 7,2 C 96 % 1023,9 hPa 0,0 mm 0,6 km/h (0 Bft) S 180 0 min 0,000 mm 0,0 UV-I 5 W/m 6,6 C 1,6 km/h (1 Bft)
11.08.2016 06:53 7,2 C 7,2 C 96 % 1023,9 hPa 0,0 mm 0,7 km/h (0 Bft) S 180 0 min 0,000 mm 0,0 UV-I 5 W/m 6,6 C 1,6 km/h (1 Bft)
11.08.2016 06:54 7,2 C 7,2 C 96 % 1023,9 hPa 0,0 mm 0,7 km/h (0 Bft) S 180 0 min 0,000 mm 0,0 UV-I 0 W/m 6,6 C 1,6 km/h (1 Bft)
11.08.2016 06:55 7,2 C 7,2 C 96 % 1023,9 hPa 0,0 mm 0,0 km/h (0 Bft) S 180 0 min 0,000 mm 0,0 UV-I 0 W/m 6,6 C 0,0 km/h (0 Bft)
11.08.2016 06:56 7,2 C 7,2 C 96 % 1024,0 hPa 0,0 mm 0,3 km/h (0 Bft) S 180 0 min 0,000 mm 0,0 UV-I 0 W/m 6,6 C 1,6 km/h (1 Bft)
11.08.2016 06:57 7,2 C 7,2 C 96 % 1024,0 hPa 0,0 mm 0,5 km/h (0 Bft) S 180 0 min 0,000 mm 0,0 UV-I 0 W/m 6,6 C 1,6 km/h (1 Bft)
11.08.2016 06:58 7,2 C 7,2 C 96 % 1024,0 hPa 0,0 mm 0,5 km/h (0 Bft) S 180 0 min 0,000 mm 0,0 UV-I 5 W/m 6,6 C 1,6 km/h (1 Bft)
11.08.2016 06:59 7,2 C 7,3 C 96 % 1024,0 hPa 0,0 mm 0,0 km/h (0 Bft) S 180 0 min 0,000 mm 0,0 UV-I 5 W/m 6,6 C 0,0 km/h (0 Bft)
11.08.2016 07:00 7,2 C 7,3 C 96 % 1024,0 hPa 0,0 mm 0,5 km/h (0 Bft) S 180 0 min 0,000 mm 0,0 UV-I 5 W/m 6,6 C 1,6 km/h (1 Bft)
11.08.2016 07:01 7,2 C 7,2 C 96 % 1024,0 hPa 0,0 mm 0,1 km/h (0 Bft) S 180 0 min 0,000 mm 0,0 UV-I 5 W/m 6,6 C 1,6 km/h (1 Bft)
11.08.2016 07:02 7,2 C 7,2 C 96 % 1024,0 hPa 0,0 mm 1,6 km/h (1 Bft) S 180 0 min 0,000 mm 0,0 UV-I 7 W/m 6,6 C 3,2 km/h (1 Bft)
11.08.2016 07:03 7,2 C 7,3 C 96 % 1024,0 hPa 0,0 mm 3,5 km/h (1 Bft) S-SO 150 0 min 0,000 mm 0,0 UV-I 7 W/m 6,6 C 6,4 km/h (2 Bft)
11.08.2016 07:04 7,2 C 7,3 C 96 % 1023,9 hPa 0,0 mm 1,5 km/h (1 Bft) S-SO 150 0 min 0,000 mm 0,0 UV-I 7 W/m 6,6 C 3,2 km/h (1 Bft)
11.08.2016 07:05 7,3 C 7,3 C 96 % 1024,0 hPa 0,0 mm 0,0 km/h (0 Bft) S-SO 150 0 min 0,000 mm 0,0 UV-I 9 W/m 6,7 C 0,0 km/h (0 Bft)
11.08.2016 07:06 7,3 C 7,3 C 96 % 1024,0 hPa 0,0 mm 0,0 km/h (0 Bft) S-SO 150 0 min 0,000 mm 0,0 UV-I 9 W/m 6,7 C 0,0 km/h (0 Bft)
11.08.2016 07:07 7,3 C 7,3 C 96 % 1024,0 hPa 0,0 mm 1,0 km/h (0 Bft) S-SO 150 0 min 0,000 mm 0,0 UV-I 9 W/m 6,7 C 3,2 km/h (1 Bft)
11.08.2016 07:08 7,3 C 7,3 C 96 % 1024,0 hPa 0,0 mm 0,1 km/h (0 Bft) S-SO 150 0 min 0,000 mm 0,0 UV-I 9 W/m 6,7 C 1,6 km/h (1 Bft)
11.08.2016 07:09 7,3 C 7,3 C 96 % 1024,0 hPa 0,0 mm 0,0 km/h (0 Bft) S-SO 150 0 min 0,000 mm 0,0 UV-I 9 W/m 6,7 C 0,0 km/h (0 Bft)
11.08.2016 07:10 7,3 C 7,4 C 96 % 1024,0 hPa 0,0 mm 0,0 km/h (0 Bft) S-SO 150 0 min 0,000 mm 0,0 UV-I 9 W/m 6,7 C 0,0 km/h (0 Bft)
11.08.2016 07:11 7,4 C 7,4 C 96 % 1024,0 hPa 0,0 mm 0,0 km/h (0 Bft) S-SO 150 0 min 0,000 mm 0,0 UV-I 11 W/m 6,8 C 0,0 km/h (0 Bft)
11.08.2016 07:12 7,4 C 7,4 C 96 % 1024,1 hPa 0,0 mm 0,0 km/h (0 Bft) S-SO 150 0 min 0,000 mm 0,0 UV-I 12 W/m 6,8 C 0,0 km/h (0 Bft)
11.08.2016 07:13 7,4 C 7,4 C 96 % 1024,1 hPa 0,0 mm 0,0 km/h (0 Bft) S-SO 150 0 min 0,000 mm 0,0 UV-I 14 W/m 6,8 C 0,0 km/h (0 Bft)
11.08.2016 07:14 7,3 C 7,4 C 95 % 1024,1 hPa 0,0 mm 0,0 km/h (0 Bft) S-SO 150 0 min 0,000 mm 0,0 UV-I 16 W/m 6,6 C 0,0 km/h (0 Bft)
11.08.2016 07:15 7,3 C 7,4 C 95 % 1024,0 hPa 0,0 mm 0,0 km/h (0 Bft) S-SO 150 0 min 0,000 mm 0,0 UV-I 19 W/m 6,6 C 0,0 km/h (0 Bft)
11.08.2016 07:16 7,3 C 7,3 C 95 % 1024,0 hPa 0,0 mm 0,0 km/h (0 Bft) S-SO 150 0 min 0,000 mm 0,0 UV-I 21 W/m 6,6 C 0,0 km/h (0 Bft)
11.08.2016 07:17 7,3 C 7,3 C 95 % 1024,1 hPa 0,0 mm 0,0 km/h (0 Bft) S-SO 150 0 min 0,000 mm 0,0 UV-I 23 W/m 6,6 C 0,0 km/h (0 Bft)
11.08.2016 07:18 7,3 C 7,3 C 95 % 1024,1 hPa 0,0 mm 0,0 km/h (0 Bft) S-SO 150 0 min 0,000 mm 0,0 UV-I 23 W/m 6,6 C 0,0 km/h (0 Bft)
11.08.2016 07:19 7,3 C 7,4 C 95 % 1024,1 hPa 0,0 mm 0,0 km/h (0 Bft) S-SO 150 0 min 0,000 mm 0,0 UV-I 23 W/m 6,6 C 0,0 km/h (0 Bft)
11.08.2016 07:20 7,3 C 7,3 C 95 % 1024,1 hPa 0,0 mm 0,0 km/h (0 Bft) S-SO 150 0 min 0,000 mm 0,0 UV-I 23 W/m 6,6 C 0,0 km/h (0 Bft)
11.08.2016 07:21 7,3 C 7,3 C 95 % 1024,1 hPa 0,0 mm 0,0 km/h (0 Bft) S-SO 150 0 min 0,000 mm 0,0 UV-I 23 W/m 6,6 C 0,0 km/h (0 Bft)
11.08.2016 07:22 7,3 C 7,4 C 95 % 1024,1 hPa 0,0 mm 0,0 km/h (0 Bft) S-SO 150 0 min 0,000 mm 0,0 UV-I 21 W/m 6,6 C 0,0 km/h (0 Bft)
11.08.2016 07:23 7,4 C 7,4 C 95 % 1024,1 hPa 0,0 mm 0,0 km/h (0 Bft) S-SO 150 0 min 0,000 mm 0,0 UV-I 21 W/m 6,7 C 0,0 km/h (0 Bft)
11.08.2016 07:24 7,4 C 7,4 C 96 % 1024,2 hPa 0,0 mm 0,0 km/h (0 Bft) S-SO 150 0 min 0,000 mm 0,0 UV-I 19 W/m 6,8 C 0,0 km/h (0 Bft)
11.08.2016 07:25 7,4 C 7,4 C 96 % 1024,1 hPa 0,0 mm 0,1 km/h (0 Bft) S-SO 150 0 min 0,000 mm 0,0 UV-I 18 W/m 6,8 C 1,6 km/h (1 Bft)
11.08.2016 07:26 7,4 C 7,4 C 96 % 1024,1 hPa 0,0 mm 1,7 km/h (1 Bft) S-SO 150 0 min 0,000 mm 0,0 UV-I 18 W/m 6,8 C 3,2 km/h (1 Bft)
11.08.2016 07:27 7,4 C 7,4 C 96 % 1024,2 hPa 0,0 mm 2,7 km/h (1 Bft) S-SO 150 0 min 0,000 mm 0,0 UV-I 14 W/m 6,8 C 3,2 km/h (1 Bft)
11.08.2016 07:28 7,3 C 7,4 C 96 % 1024,2 hPa 0,0 mm 0,5 km/h (0 Bft) S-SO 150 0 min 0,000 mm 0,0 UV-I 14 W/m 6,7 C 1,6 km/h (1 Bft)
11.08.2016 07:29 7,4 C 7,4 C 96 % 1024,2 hPa 0,0 mm 1,5 km/h (1 Bft) S-SO 151 0 min 0,000 mm 0,0 UV-I 14 W/m 6,8 C 3,2 km/h (1 Bft)
11.08.2016 07:30 7,4 C 7,4 C 96 % 1024,2 hPa 0,0 mm 1,1 km/h (1 Bft) S-SO 151 0 min 0,000 mm 0,0 UV-I 14 W/m 6,8 C 3,2 km/h (1 Bft)
11.08.2016 07:31 7,4 C 7,4 C 96 % 1024,2 hPa 0,0 mm 0,0 km/h (0 Bft) S-SO 151 0 min 0,000 mm 0,0 UV-I 16 W/m 6,8 C 0,0 km/h (0 Bft)
11.08.2016 07:32 7,4 C 7,4 C 96 % 1024,2 hPa 0,0 mm 0,5 km/h (0 Bft) S-SO 151 0 min 0,000 mm 0,0 UV-I 16 W/m 6,8 C 1,6 km/h (1 Bft)
11.08.2016 07:33 7,5 C 7,5 C 96 % 1024,2 hPa 0,0 mm 0,2 km/h (0 Bft) S-SO 151 0 min 0,000 mm 0,0 UV-I 18 W/m 6,9 C 1,6 km/h (1 Bft)
11.08.2016 07:34 7,4 C 7,5 C 96 % 1024,2 hPa 0,0 mm 0,1 km/h (0 Bft) S-SO 151 0 min 0,000 mm 0,0 UV-I 21 W/m 6,8 C 1,6 km/h (1 Bft)
11.08.2016 07:35 7,5 C 7,5 C 96 % 1024,2 hPa 0,0 mm 0,5 km/h (0 Bft) S-SO 151 0 min 0,000 mm 0,0 UV-I 21 W/m 6,9 C 1,6 km/h (1 Bft)
11.08.2016 07:36 7,4 C 7,5 C 96 % 1024,2 hPa 0,0 mm 0,0 km/h (0 Bft) S-SO 151 0 min 0,000 mm 0,0 UV-I 23 W/m 6,8 C 0,0 km/h (0 Bft)
11.08.2016 07:37 7,4 C 7,5 C 96 % 1024,2 hPa 0,0 mm 0,0 km/h (0 Bft) S-SO 151 0 min 0,000 mm 0,0 UV-I 23 W/m 6,8 C 0,0 km/h (0 Bft)
11.08.2016 07:38 7,5 C 7,5 C 96 % 1024,2 hPa 0,0 mm 0,0 km/h (0 Bft) S-SO 151 0 min 0,000 mm 0,0 UV-I 23 W/m 6,9 C 0,0 km/h (0 Bft)
11.08.2016 07:39 7,6 C 7,6 C 96 % 1024,2 hPa 0,0 mm 0,0 km/h (0 Bft) S-SO 151 0 min 0,000 mm 0,0 UV-I 21 W/m 7,0 C 0,0 km/h (0 Bft)
11.08.2016 07:40 7,5 C 7,6 C 96 % 1024,2 hPa 0,0 mm 0,0 km/h (0 Bft) S-SO 151 0 min 0,000 mm 0,0 UV-I 21 W/m 6,9 C 0,0 km/h (0 Bft)
11.08.2016 07:41 7,6 C 7,6 C 96 % 1024,2 hPa 0,0 mm 0,0 km/h (0 Bft) S-SO 151 0 min 0,000 mm 0,0 UV-I 23 W/m 7,0 C 0,0 km/h (0 Bft)
11.08.2016 07:42 7,6 C 7,6 C 96 % 1024,2 hPa 0,0 mm 1,4 km/h (1 Bft) S-SO 151 0 min 0,000 mm 0,0 UV-I 25 W/m 7,0 C 3,2 km/h (1 Bft)
11.08.2016 07:43 7,4 C 7,6 C 96 % 1024,2 hPa 0,0 mm 1,7 km/h (1 Bft) S-SO 151 0 min 0,000 mm 0,0 UV-I 28 W/m 6,8 C 3,2 km/h (1 Bft)
11.08.2016 07:44 7,6 C 7,6 C 96 % 1024,2 hPa 0,0 mm 0,3 km/h (0 Bft) S-SO 151 0 min 0,000 mm 0,0 UV-I 28 W/m 7,0 C 1,6 km/h (1 Bft)
11.08.2016 07:45 7,6 C 7,6 C 96 % 1024,3 hPa 0,0 mm 0,0 km/h (0 Bft) S-SO 151 0 min 0,000 mm 0,0 UV-I 35 W/m 7,0 C 0,0 km/h (0 Bft)
11.08.2016 07:46 7,6 C 7,6 C 96 % 1024,3 hPa 0,0 mm 0,1 km/h (0 Bft) S-SO 151 0 min 0,000 mm 0,0 UV-I 40 W/m 7,0 C 1,6 km/h (1 Bft)
11.08.2016 07:47 7,6 C 7,6 C 96 % 1024,3 hPa 0,0 mm 0,1 km/h (0 Bft) S-SO 151 0 min 0,000 mm 0,0 UV-I 42 W/m 7,0 C 1,6 km/h (1 Bft)
11.08.2016 07:48 7,6 C 7,6 C 96 % 1024,3 hPa 0,0 mm 0,0 km/h (0 Bft) S-SO 151 0 min 0,000 mm 0,0 UV-I 42 W/m 7,0 C 0,0 km/h (0 Bft)
11.08.2016 07:49 7,6 C 7,6 C 96 % 1024,3 hPa 0,0 mm 0,0 km/h (0 Bft) S-SO 151 0 min 0,000 mm 0,0 UV-I 42 W/m 7,0 C 0,0 km/h (0 Bft)
11.08.2016 07:50 7,6 C 7,6 C 96 % 1024,2 hPa 0,0 mm 0,0 km/h (0 Bft) S-SO 151 0 min 0,000 mm 0,0 UV-I 46 W/m 7,0 C 0,0 km/h (0 Bft)
11.08.2016 07:51 7,7 C 7,7 C 96 % 1024,3 hPa 0,0 mm 0,7 km/h (0 Bft) S-SO 151 0 min 0,000 mm 0,0 UV-I 51 W/m 7,1 C 1,6 km/h (1 Bft)
11.08.2016 07:52 7,7 C 7,7 C 96 % 1024,3 hPa 0,0 mm 1,9 km/h (1 Bft) W 269 0 min 0,000 mm 0,0 UV-I 51 W/m 7,1 C 3,2 km/h (1 Bft)
11.08.2016 07:53 7,8 C 7,8 C 96 % 1024,3 hPa 0,0 mm 0,6 km/h (0 Bft) W 269 0 min 0,000 mm 0,0 UV-I 51 W/m 7,2 C 1,6 km/h (1 Bft)
11.08.2016 07:54 7,7 C 7,8 C 96 % 1024,3 hPa 0,0 mm 0,0 km/h (0 Bft) W 269 0 min 0,000 mm 0,0 UV-I 53 W/m 7,1 C 0,0 km/h (0 Bft)
11.08.2016 07:55 7,8 C 7,8 C 96 % 1024,3 hPa 0,0 mm 0,0 km/h (0 Bft) W 269 0 min 0,000 mm 0,0 UV-I 56 W/m 7,2 C 0,0 km/h (0 Bft)
11.08.2016 07:56 7,8 C 7,8 C 96 % 1024,3 hPa 0,0 mm 0,0 km/h (0 Bft) W 269 0 min 0,000 mm 0,0 UV-I 63 W/m 7,2 C 0,0 km/h (0 Bft)
11.08.2016 07:57 7,9 C 7,9 C 96 % 1024,3 hPa 0,0 mm 0,0 km/h (0 Bft) W 269 0 min 0,000 mm 0,0 UV-I 77 W/m 7,3 C 0,0 km/h (0 Bft)
11.08.2016 07:58 7,9 C 7,9 C 96 % 1024,3 hPa 0,0 mm 0,0 km/h (0 Bft) W 260 0 min 0,000 mm 0,0 UV-I 83 W/m 7,3 C 0,0 km/h (0 Bft)
11.08.2016 07:59 7,9 C 7,9 C 96 % 1024,3 hPa 0,0 mm 0,0 km/h (0 Bft) W 260 0 min 0,000 mm 0,5 UV-I 90 W/m 7,3 C 0,0 km/h (0 Bft)
11.08.2016 08:00 7,9 C 7,9 C 96 % 1024,3 hPa 0,0 mm 0,0 km/h (0 Bft) W 260 0 min 0,000 mm 0,5 UV-I 93 W/m 7,3 C 0,0 km/h (0 Bft)
11.08.2016 08:01 8,0 C 8,0 C 96 % 1024,3 hPa 0,0 mm 0,0 km/h (0 Bft) W 260 0 min 0,000 mm 0,5 UV-I 98 W/m 7,4 C 0,0 km/h (0 Bft)
11.08.2016 08:02 8,1 C 8,1 C 96 % 1024,3 hPa 0,0 mm 0,0 km/h (0 Bft) W 260 0 min 0,000 mm 0,5 UV-I 98 W/m 7,5 C 0,0 km/h (0 Bft)
11.08.2016 08:03 8,2 C 8,2 C 96 % 1024,3 hPa 0,0 mm 0,0 km/h (0 Bft) W 260 0 min 0,000 mm 0,5 UV-I 113 W/m 7,6 C 0,0 km/h (0 Bft)
11.08.2016 08:04 8,2 C 8,2 C 96 % 1024,3 hPa 0,0 mm 0,1 km/h (0 Bft) W 260 0 min 0,000 mm 0,6 UV-I 116 W/m 7,6 C 1,6 km/h (1 Bft)
11.08.2016 08:05 8,2 C 8,2 C 96 % 1024,3 hPa 0,0 mm 0,1 km/h (0 Bft) W 266 0 min 0,000 mm 0,6 UV-I 118 W/m 7,6 C 1,6 km/h (1 Bft)
11.08.2016 08:06 8,2 C 8,2 C 96 % 1024,4 hPa 0,0 mm 0,0 km/h (0 Bft) W 266 0 min 0,000 mm 0,6 UV-I 120 W/m 7,6 C 0,0 km/h (0 Bft)
11.08.2016 08:07 8,3 C 8,3 C 95 % 1024,4 hPa 0,0 mm 0,0 km/h (0 Bft) W 266 0 min 0,000 mm 0,6 UV-I 120 W/m 7,5 C 0,0 km/h (0 Bft)
11.08.2016 08:08 8,3 C 8,3 C 94 % 1024,4 hPa 0,0 mm 1,5 km/h (1 Bft) W 266 0 min 0,000 mm 0,6 UV-I 121 W/m 7,4 C 3,2 km/h (1 Bft)
11.08.2016 08:09 8,4 C 8,4 C 94 % 1024,4 hPa 0,0 mm 1,0 km/h (0 Bft) W 266 0 min 0,000 mm 0,6 UV-I 123 W/m 7,5 C 1,6 km/h (1 Bft)
11.08.2016 08:10 8,4 C 8,4 C 94 % 1024,4 hPa 0,0 mm 1,0 km/h (0 Bft) W 266 0 min 0,000 mm 0,6 UV-I 123 W/m 7,5 C 3,2 km/h (1 Bft)
11.08.2016 08:11 8,4 C 8,4 C 94 % 1024,5 hPa 0,0 mm 1,5 km/h (1 Bft) W 267 0 min 0,000 mm 0,5 UV-I 120 W/m 7,5 C 3,2 km/h (1 Bft)
11.08.2016 08:12 8,6 C 8,6 C 94 % 1024,4 hPa 0,0 mm 2,0 km/h (1 Bft) W 261 0 min 0,000 mm 0,5 UV-I 107 W/m 7,7 C 3,2 km/h (1 Bft)
11.08.2016 08:13 8,6 C 8,6 C 94 % 1024,4 hPa 0,0 mm 2,7 km/h (1 Bft) W 267 0 min 0,000 mm 0,0 UV-I 95 W/m 7,7 C 3,2 km/h (1 Bft)
11.08.2016 08:14 8,6 C 8,6 C 94 % 1024,4 hPa 0,0 mm 2,1 km/h (1 Bft) W 274 0 min 0,000 mm 0,5 UV-I 91 W/m 7,7 C 3,2 km/h (1 Bft)
11.08.2016 08:15 8,6 C 8,6 C 93 % 1024,4 hPa 0,0 mm 0,5 km/h (0 Bft) W 274 0 min 0,000 mm 0,5 UV-I 95 W/m 7,5 C 1,6 km/h (1 Bft)
11.08.2016 08:16 8,5 C 8,6 C 92 % 1024,4 hPa 0,0 mm 0,0 km/h (0 Bft) W 274 0 min 0,000 mm 0,5 UV-I 97 W/m 7,3 C 0,0 km/h (0 Bft)
11.08.2016 08:17 8,5 C 8,5 C 92 % 1024,4 hPa 0,0 mm 0,0 km/h (0 Bft) W 274 0 min 0,000 mm 0,6 UV-I 100 W/m 7,3 C 0,0 km/h (0 Bft)
11.08.2016 08:18 8,5 C 8,6 C 93 % 1024,4 hPa 0,0 mm 1,2 km/h (1 Bft) W 273 0 min 0,000 mm 0,6 UV-I 109 W/m 7,4 C 3,2 km/h (1 Bft)
11.08.2016 08:19 8,5 C 8,6 C 93 % 1024,4 hPa 0,0 mm 1,4 km/h (1 Bft) W 273 0 min 0,000 mm 0,7 UV-I 116 W/m 7,4 C 3,2 km/h (1 Bft)
11.08.2016 08:20 8,6 C 8,6 C 94 % 1024,4 hPa 0,0 mm 0,5 km/h (0 Bft) W 273 0 min 0,000 mm 0,7 UV-I 125 W/m 7,7 C 1,6 km/h (1 Bft)
11.08.2016 08:21 8,6 C 8,6 C 94 % 1024,5 hPa 0,0 mm 0,0 km/h (0 Bft) W 273 0 min 0,000 mm 0,7 UV-I 139 W/m 7,7 C 0,0 km/h (0 Bft)
11.08.2016 08:22 8,6 C 8,6 C 94 % 1024,4 hPa 0,0 mm 0,0 km/h (0 Bft) W 273 0 min 0,000 mm 0,7 UV-I 141 W/m 7,7 C 0,0 km/h (0 Bft)
11.08.2016 08:23 8,6 C 8,6 C 93 % 1024,4 hPa 0,0 mm 0,6 km/h (0 Bft) W 262 0 min 0,000 mm 0,7 UV-I 141 W/m 7,5 C 1,6 km/h (1 Bft)
11.08.2016 08:24 8,5 C 8,6 C 92 % 1024,5 hPa 0,0 mm 0,0 km/h (0 Bft) W 262 0 min 0,000 mm 0,7 UV-I 139 W/m 7,3 C 0,0 km/h (0 Bft)
11.08.2016 08:25 8,6 C 8,6 C 93 % 1024,5 hPa 0,0 mm 1,2 km/h (1 Bft) W 262 0 min 0,000 mm 0,7 UV-I 137 W/m 7,5 C 3,2 km/h (1 Bft)
11.08.2016 08:26 8,6 C 8,6 C 93 % 1024,5 hPa 0,0 mm 1,6 km/h (1 Bft) W 263 0 min 0,000 mm 0,8 UV-I 137 W/m 7,5 C 3,2 km/h (1 Bft)
11.08.2016 08:27 8,7 C 8,7 C 93 % 1024,5 hPa 0,0 mm 1,5 km/h (1 Bft) W 263 0 min 0,000 mm 0,8 UV-I 135 W/m 7,6 C 3,2 km/h (1 Bft)
11.08.2016 08:28 8,7 C 8,7 C 93 % 1024,5 hPa 0,0 mm 0,9 km/h (0 Bft) W 263 0 min 0,000 mm 0,8 UV-I 137 W/m 7,6 C 1,6 km/h (1 Bft)
11.08.2016 08:29 8,7 C 8,7 C 93 % 1024,6 hPa 0,0 mm 0,9 km/h (0 Bft) W 263 0 min 0,000 mm 0,8 UV-I 139 W/m 7,6 C 1,6 km/h (1 Bft)
11.08.2016 08:30 8,7 C 8,7 C 93 % 1024,6 hPa 0,0 mm 1,9 km/h (1 Bft) W 276 0 min 0,000 mm 0,9 UV-I 141 W/m 7,6 C 3,2 km/h (1 Bft)
11.08.2016 08:31 8,8 C 8,8 C 94 % 1024,6 hPa 0,0 mm 0,7 km/h (0 Bft) W 276 0 min 0,000 mm 0,9 UV-I 144 W/m 7,9 C 1,6 km/h (1 Bft)
11.08.2016 08:32 8,9 C 8,9 C 94 % 1024,6 hPa 0,0 mm 1,0 km/h (0 Bft) W 276 0 min 0,000 mm 0,9 UV-I 158 W/m 8,0 C 1,6 km/h (1 Bft)
11.08.2016 08:33 8,9 C 8,9 C 93 % 1024,6 hPa 0,0 mm 1,7 km/h (1 Bft) W 276 0 min 0,000 mm 0,9 UV-I 142 W/m 7,8 C 3,2 km/h (1 Bft)
11.08.2016 08:34 8,9 C 8,9 C 93 % 1024,6 hPa 0,0 mm 0,3 km/h (0 Bft) W 276 0 min 0,000 mm 0,9 UV-I 148 W/m 7,8 C 1,6 km/h (1 Bft)
11.08.2016 08:35 9,0 C 9,0 C 93 % 1024,7 hPa 0,0 mm 2,4 km/h (1 Bft) W 259 0 min 0,000 mm 0,9 UV-I 153 W/m 7,9 C 4,8 km/h (1 Bft)
11.08.2016 08:36 9,1 C 9,1 C 94 % 1024,7 hPa 0,0 mm 3,0 km/h (1 Bft) W-SW 240 0 min 0,000 mm 0,9 UV-I 148 W/m 8,2 C 4,8 km/h (1 Bft)
11.08.2016 08:37 9,1 C 9,1 C 94 % 1024,7 hPa 0,0 mm 2,5 km/h (1 Bft) SW 229 0 min 0,000 mm 0,9 UV-I 142 W/m 8,2 C 3,2 km/h (1 Bft)
11.08.2016 08:38 9,1 C 9,1 C 92 % 1024,7 hPa 0,0 mm 2,3 km/h (1 Bft) SW 215 0 min 0,000 mm 0,9 UV-I 141 W/m 7,9 C 4,8 km/h (1 Bft)
11.08.2016 08:39 9,0 C 9,1 C 92 % 1024,7 hPa 0,0 mm 1,9 km/h (1 Bft) W-SW 250 0 min 0,000 mm 0,9 UV-I 134 W/m 7,8 C 3,2 km/h (1 Bft)
11.08.2016 08:40 9,1 C 9,1 C 93 % 1024,7 hPa 0,0 mm 2,2 km/h (1 Bft) W-SW 247 0 min 0,000 mm 0,9 UV-I 128 W/m 8,0 C 3,2 km/h (1 Bft)
11.08.2016 08:41 9,1 C 9,1 C 93 % 1024,7 hPa 0,0 mm 3,8 km/h (1 Bft) W 265 0 min 0,000 mm 0,9 UV-I 125 W/m 8,0 C 6,4 km/h (2 Bft)
11.08.2016 08:42 9,1 C 9,1 C 93 % 1024,7 hPa 0,0 mm 4,0 km/h (1 Bft) W-SW 252 0 min 0,000 mm 0,9 UV-I 125 W/m 8,0 C 6,4 km/h (2 Bft)
11.08.2016 08:43 9,1 C 9,2 C 93 % 1024,7 hPa 0,0 mm 2,9 km/h (1 Bft) W-SW 254 0 min 0,000 mm 0,9 UV-I 127 W/m 8,0 C 3,2 km/h (1 Bft)
11.08.2016 08:44 9,2 C 9,2 C 93 % 1024,7 hPa 0,0 mm 2,3 km/h (1 Bft) W 277 0 min 0,000 mm 0,9 UV-I 137 W/m 8,1 C 4,8 km/h (1 Bft)
11.08.2016 08:45 9,2 C 9,2 C 93 % 1024,7 hPa 0,0 mm 2,0 km/h (1 Bft) W 277 0 min 0,000 mm 1,0 UV-I 142 W/m 8,1 C 4,8 km/h (1 Bft)
11.08.2016 08:46 9,2 C 9,2 C 94 % 1024,7 hPa 0,0 mm 0,9 km/h (0 Bft) W 277 0 min 0,000 mm 1,0 UV-I 148 W/m 8,3 C 1,6 km/h (1 Bft)
11.08.2016 08:47 9,2 C 9,2 C 93 % 1024,7 hPa 0,0 mm 0,5 km/h (0 Bft) W 274 0 min 0,000 mm 1,0 UV-I 153 W/m 8,1 C 1,6 km/h (1 Bft)
11.08.2016 08:48 9,2 C 9,2 C 93 % 1024,8 hPa 0,0 mm 2,7 km/h (1 Bft) W 281 0 min 0,000 mm 1,1 UV-I 156 W/m 8,1 C 4,8 km/h (1 Bft)
11.08.2016 08:49 9,2 C 9,2 C 93 % 1024,7 hPa 0,0 mm 2,9 km/h (1 Bft) W 269 0 min 0,000 mm 1,1 UV-I 162 W/m 8,1 C 3,2 km/h (1 Bft)
11.08.2016 08:50 9,2 C 9,2 C 92 % 1024,7 hPa 0,0 mm 3,2 km/h (1 Bft) W-NW 290 0 min 0,000 mm 1,2 UV-I 181 W/m 8,0 C 6,4 km/h (2 Bft)
11.08.2016 08:51 9,2 C 9,2 C 92 % 1024,7 hPa 0,0 mm 4,8 km/h (1 Bft) W-SW 256 0 min 0,000 mm 1,2 UV-I 179 W/m 8,0 C 6,4 km/h (2 Bft)
11.08.2016 08:52 9,2 C 9,2 C 92 % 1024,7 hPa 0,0 mm 3,0 km/h (1 Bft) W 266 0 min 0,000 mm 1,3 UV-I 185 W/m 8,0 C 3,2 km/h (1 Bft)
11.08.2016 08:53 9,2 C 9,2 C 91 % 1024,7 hPa 0,0 mm 2,6 km/h (1 Bft) W 266 0 min 0,000 mm 1,3 UV-I 190 W/m 7,8 C 3,2 km/h (1 Bft)
11.08.2016 08:54 9,1 C 9,2 C 92 % 1024,7 hPa 0,0 mm 1,9 km/h (1 Bft) W-SW 255 0 min 0,000 mm 1,3 UV-I 190 W/m 7,9 C 3,2 km/h (1 Bft)
11.08.2016 08:55 9,2 C 9,2 C 93 % 1024,7 hPa 0,0 mm 1,7 km/h (1 Bft) W-SW 255 0 min 0,000 mm 1,3 UV-I 183 W/m 8,1 C 3,2 km/h (1 Bft)
11.08.2016 08:56 9,3 C 9,3 C 93 % 1024,7 hPa 0,0 mm 1,6 km/h (1 Bft) W-SW 255 0 min 0,000 mm 1,3 UV-I 179 W/m 8,2 C 3,2 km/h (1 Bft)
11.08.2016 08:57 9,3 C 9,3 C 93 % 1024,7 hPa 0,0 mm 4,1 km/h (1 Bft) W-SW 257 0 min 0,000 mm 1,3 UV-I 179 W/m 8,2 C 6,4 km/h (2 Bft)
11.08.2016 08:58 9,3 C 9,3 C 93 % 1024,8 hPa 0,0 mm 4,3 km/h (1 Bft) W 272 0 min 0,000 mm 1,3 UV-I 181 W/m 8,2 C 6,4 km/h (2 Bft)
11.08.2016 08:59 9,3 C 9,3 C 91 % 1024,8 hPa 0,0 mm 3,2 km/h (1 Bft) W 271 1 min 0,000 mm 1,4 UV-I 265 W/m 7,9 C 4,8 km/h (1 Bft)
11.08.2016 09:00 9,3 C 9,3 C 92 % 1024,8 hPa 0,0 mm 3,8 km/h (1 Bft) W-SW 246 0 min 0,051 mm 1,3 UV-I 183 W/m 8,1 C 4,8 km/h (1 Bft)
11.08.2016 09:01 9,3 C 9,3 C 92 % 1024,8 hPa 0,0 mm 1,6 km/h (1 Bft) W-SW 247 0 min 0,000 mm 1,2 UV-I 178 W/m 8,1 C 3,2 km/h (1 Bft)
11.08.2016 09:02 9,3 C 9,3 C 92 % 1024,8 hPa 0,0 mm 2,4 km/h (1 Bft) W-SW 256 0 min 0,000 mm 1,2 UV-I 174 W/m 8,1 C 4,8 km/h (1 Bft)
11.08.2016 09:03 9,3 C 9,3 C 92 % 1024,8 hPa 0,0 mm 1,7 km/h (1 Bft) W-SW 257 0 min 0,000 mm 1,3 UV-I 174 W/m 8,1 C 4,8 km/h (1 Bft)
11.08.2016 09:04 9,4 C 9,4 C 93 % 1024,8 hPa 0,0 mm 2,9 km/h (1 Bft) W 279 0 min 0,000 mm 1,3 UV-I 179 W/m 8,3 C 3,2 km/h (1 Bft)
11.08.2016 09:05 9,5 C 9,5 C 93 % 1024,8 hPa 0,0 mm 3,4 km/h (1 Bft) W-NW 282 0 min 0,000 mm 1,3 UV-I 183 W/m 8,4 C 4,8 km/h (1 Bft)
11.08.2016 09:06 9,5 C 9,6 C 92 % 1024,8 hPa 0,0 mm 3,6 km/h (1 Bft) W 261 0 min 0,000 mm 1,3 UV-I 179 W/m 8,3 C 4,8 km/h (1 Bft)
11.08.2016 09:07 9,5 C 9,6 C 92 % 1024,7 hPa 0,0 mm 2,5 km/h (1 Bft) W-NW 285 0 min 0,000 mm 1,3 UV-I 176 W/m 8,3 C 3,2 km/h (1 Bft)
11.08.2016 09:08 9,5 C 9,5 C 91 % 1024,7 hPa 0,0 mm 2,2 km/h (1 Bft) NW 305 0 min 0,000 mm 1,3 UV-I 171 W/m 8,1 C 3,2 km/h (1 Bft)
11.08.2016 09:09 9,5 C 9,6 C 92 % 1024,8 hPa 0,0 mm 3,6 km/h (1 Bft) W-NW 297 0 min 0,000 mm 1,4 UV-I 179 W/m 8,3 C 4,8 km/h (1 Bft)
11.08.2016 09:10 9,5 C 9,5 C 91 % 1024,8 hPa 0,0 mm 4,2 km/h (1 Bft) W-NW 303 0 min 0,000 mm 1,5 UV-I 200 W/m 8,1 C 4,8 km/h (1 Bft)
11.08.2016 09:11 9,5 C 9,5 C 91 % 1024,7 hPa 0,0 mm 3,2 km/h (1 Bft) W-NW 303 0 min 0,000 mm 1,6 UV-I 250 W/m 8,1 C 4,8 km/h (1 Bft)
11.08.2016 09:12 9,6 C 9,6 C 91 % 1024,7 hPa 0,0 mm 2,0 km/h (1 Bft) W-NW 303 0 min 0,000 mm 1,6 UV-I 234 W/m 8,2 C 3,2 km/h (1 Bft)
11.08.2016 09:13 9,6 C 9,6 C 91 % 1024,7 hPa 0,0 mm 2,0 km/h (1 Bft) W 281 0 min 0,000 mm 1,6 UV-I 230 W/m 8,2 C 3,2 km/h (1 Bft)
11.08.2016 09:14 9,6 C 9,6 C 92 % 1024,7 hPa 0,0 mm 3,4 km/h (1 Bft) W-SW 250 0 min 0,000 mm 1,7 UV-I 258 W/m 8,4 C 4,8 km/h (1 Bft)
11.08.2016 09:15 9,8 C 9,8 C 92 % 1024,7 hPa 0,0 mm 2,0 km/h (1 Bft) W-SW 248 1 min 0,000 mm 1,8 UV-I 288 W/m 8,6 C 3,2 km/h (1 Bft)
11.08.2016 09:16 9,8 C 9,8 C 92 % 1024,7 hPa 0,0 mm 2,4 km/h (1 Bft) W-SW 247 1 min 0,000 mm 2,3 UV-I 288 W/m 8,6 C 3,2 km/h (1 Bft)
11.08.2016 09:17 9,9 C 9,9 C 91 % 1024,7 hPa 0,0 mm 2,7 km/h (1 Bft) NW 319 1 min 0,000 mm 2,1 UV-I 288 W/m 8,5 C 3,2 km/h (1 Bft)
11.08.2016 09:18 9,9 C 10,0 C 91 % 1024,7 hPa 0,0 mm 2,0 km/h (1 Bft) NW 318 1 min 0,000 mm 1,7 UV-I 288 W/m 8,5 C 3,2 km/h (1 Bft)
11.08.2016 09:19 10,0 C 10,0 C 90 % 1024,7 hPa 0,0 mm 1,9 km/h (1 Bft) W 277 0 min 0,000 mm 1,5 UV-I 204 W/m 8,4 C 3,2 km/h (1 Bft)
11.08.2016 09:20 9,9 C 10,0 C 91 % 1024,7 hPa 0,0 mm 2,5 km/h (1 Bft) W 281 0 min 0,000 mm 1,5 UV-I 193 W/m 8,5 C 3,2 km/h (1 Bft)
11.08.2016 09:21 9,9 C 9,9 C 88 % 1024,7 hPa 0,0 mm 2,5 km/h (1 Bft) W-SW 254 0 min 0,000 mm 1,6 UV-I 202 W/m 8,0 C 3,2 km/h (1 Bft)
11.08.2016 09:22 9,8 C 9,9 C 87 % 1024,7 hPa 0,0 mm 0,8 km/h (0 Bft) W-SW 254 0 min 0,000 mm 1,6 UV-I 213 W/m 7,7 C 1,6 km/h (1 Bft)
11.08.2016 09:23 9,8 C 9,8 C 89 % 1024,8 hPa 0,0 mm 0,6 km/h (0 Bft) W-SW 257 0 min 0,000 mm 1,7 UV-I 234 W/m 8,1 C 1,6 km/h (1 Bft)
11.08.2016 09:24 9,8 C 9,8 C 90 % 1024,7 hPa 0,0 mm 2,1 km/h (1 Bft) W-NW 287 0 min 0,000 mm 2,0 UV-I 234 W/m 8,2 C 3,2 km/h (1 Bft)
11.08.2016 09:25 9,9 C 9,9 C 90 % 1024,7 hPa 0,0 mm 3,0 km/h (1 Bft) W 281 0 min 0,000 mm 1,8 UV-I 251 W/m 8,3 C 3,2 km/h (1 Bft)
11.08.2016 09:26 10,1 C 10,1 C 92 % 1024,7 hPa 0,0 mm 1,6 km/h (1 Bft) W 281 0 min 0,000 mm 2,5 UV-I 251 W/m 8,9 C 3,2 km/h (1 Bft)
11.08.2016 09:27 10,2 C 10,2 C 92 % 1024,7 hPa 0,0 mm 2,7 km/h (1 Bft) NW 315 1 min 0,000 mm 2,6 UV-I 605 W/m 9,0 C 4,8 km/h (1 Bft)
11.08.2016 09:28 10,5 C 10,5 C 91 % 1024,8 hPa 0,0 mm 1,5 km/h (1 Bft) W-NW 292 1 min 0,000 mm 1,9 UV-I 605 W/m 9,1 C 3,2 km/h (1 Bft)
11.08.2016 09:29 10,6 C 10,6 C 90 % 1024,7 hPa 0,0 mm 3,7 km/h (1 Bft) W-SW 252 1 min 0,000 mm 1,9 UV-I 605 W/m 9,0 C 6,4 km/h (2 Bft)
11.08.2016 09:30 10,7 C 10,7 C 91 % 1024,8 hPa 0,0 mm 3,3 km/h (1 Bft) W-SW 240 1 min 0,000 mm 2,6 UV-I 605 W/m 9,3 C 4,8 km/h (1 Bft)
11.08.2016 09:31 10,7 C 10,7 C 89 % 1024,8 hPa 0,0 mm 2,6 km/h (1 Bft) SW 234 1 min 0,000 mm 2,5 UV-I 605 W/m 9,0 C 3,2 km/h (1 Bft)
11.08.2016 09:32 10,7 C 10,7 C 89 % 1024,7 hPa 0,0 mm 0,3 km/h (0 Bft) SW 234 1 min 0,000 mm 2,6 UV-I 598 W/m 9,0 C 1,6 km/h (1 Bft)
11.08.2016 09:33 10,7 C 10,7 C 88 % 1024,8 hPa 0,0 mm 0,3 km/h (0 Bft) SW 234 1 min 0,000 mm 2,5 UV-I 629 W/m 8,8 C 1,6 km/h (1 Bft)
11.08.2016 09:34 10,8 C 10,8 C 91 % 1024,8 hPa 0,0 mm 5,0 km/h (1 Bft) W-SW 241 1 min 0,000 mm 2,1 UV-I 629 W/m 9,4 C 9,7 km/h (2 Bft)
11.08.2016 09:35 10,8 C 10,8 C 92 % 1024,8 hPa 0,0 mm 5,5 km/h (1 Bft) W 265 1 min 0,000 mm 2,0 UV-I 301 W/m 9,6 C 6,4 km/h (2 Bft)
11.08.2016 09:36 10,7 C 10,8 C 88 % 1024,7 hPa 0,0 mm 3,7 km/h (1 Bft) W 266 1 min 0,000 mm 2,1 UV-I 390 W/m 8,8 C 6,4 km/h (2 Bft)
11.08.2016 09:37 10,6 C 10,7 C 87 % 1024,7 hPa 0,0 mm 2,9 km/h (1 Bft) W 271 1 min 0,000 mm 1,8 UV-I 302 W/m 8,5 C 4,8 km/h (1 Bft)
11.08.2016 09:38 10,6 C 10,7 C 87 % 1024,8 hPa 0,0 mm 2,6 km/h (1 Bft) W-SW 250 0 min 0,000 mm 2,5 UV-I 302 W/m 8,5 C 3,2 km/h (1 Bft)
11.08.2016 09:39 10,8 C 10,8 C 88 % 1024,8 hPa 0,0 mm 1,4 km/h (1 Bft) W 259 1 min 0,000 mm 2,3 UV-I 684 W/m 8,9 C 3,2 km/h (1 Bft)
11.08.2016 09:40 10,9 C 10,9 C 90 % 1024,7 hPa 0,0 mm 1,4 km/h (1 Bft) SW 229 1 min 0,000 mm 2,3 UV-I 671 W/m 9,3 C 3,2 km/h (1 Bft)
11.08.2016 09:41 10,9 C 10,9 C 84 % 1024,8 hPa 0,0 mm 3,0 km/h (1 Bft) W 279 1 min 0,000 mm 2,0 UV-I 631 W/m 8,3 C 4,8 km/h (1 Bft)
11.08.2016 09:42 10,9 C 10,9 C 86 % 1024,8 hPa 0,0 mm 5,8 km/h (2 Bft) W-SW 254 1 min 0,000 mm 1,8 UV-I 631 W/m 8,7 C 9,7 km/h (2 Bft)
11.08.2016 09:43 10,8 C 10,9 C 85 % 1024,8 hPa 0,0 mm 4,2 km/h (1 Bft) W-SW 258 1 min 0,000 mm 1,2 UV-I 631 W/m 8,4 C 4,8 km/h (1 Bft)
11.08.2016 09:44 10,6 C 10,8 C 84 % 1024,8 hPa 0,0 mm 1,4 km/h (1 Bft) W-SW 258 0 min 0,000 mm 0,7 UV-I 134 W/m 8,0 C 3,2 km/h (1 Bft)
11.08.2016 09:45 10,4 C 10,6 C 83 % 1024,8 hPa 0,0 mm 0,2 km/h (0 Bft) W-SW 258 0 min 0,000 mm 0,7 UV-I 120 W/m 7,6 C 1,6 km/h (1 Bft)
11.08.2016 09:46 10,4 C 10,4 C 85 % 1024,8 hPa 0,0 mm 1,3 km/h (1 Bft) W 265 0 min 0,000 mm 0,6 UV-I 109 W/m 8,0 C 3,2 km/h (1 Bft)
11.08.2016 09:47 10,3 C 10,4 C 86 % 1024,8 hPa 0,0 mm 4,3 km/h (1 Bft) W 277 0 min 0,000 mm 0,6 UV-I 95 W/m 8,1 C 6,4 km/h (2 Bft)
11.08.2016 09:48 10,3 C 10,3 C 86 % 1024,8 hPa 0,0 mm 6,5 km/h (2 Bft) W 261 0 min 0,000 mm 0,6 UV-I 81 W/m 8,1 C 9,7 km/h (2 Bft)
11.08.2016 09:49 10,2 C 10,3 C 87 % 1024,8 hPa 0,0 mm 4,7 km/h (1 Bft) W-NW 296 0 min 0,000 mm 0,6 UV-I 76 W/m 8,1 C 9,7 km/h (2 Bft)
11.08.2016 09:50 10,2 C 10,2 C 88 % 1024,8 hPa 0,0 mm 6,4 km/h (2 Bft) W-NW 298 0 min 0,000 mm 0,6 UV-I 83 W/m 8,3 C 9,7 km/h (2 Bft)
11.08.2016 09:51 10,1 C 10,2 C 88 % 1024,9 hPa 0,0 mm 5,6 km/h (1 Bft) W 273 0 min 0,000 mm 0,8 UV-I 91 W/m 8,2 C 9,7 km/h (2 Bft)
11.08.2016 09:52 10,1 C 10,1 C 88 % 1024,9 hPa 0,0 mm 5,3 km/h (1 Bft) NW 319 0 min 0,000 mm 0,9 UV-I 100 W/m 8,2 C 6,4 km/h (2 Bft)
11.08.2016 09:53 10,1 C 10,1 C 88 % 1024,9 hPa 0,0 mm 8,4 km/h (2 Bft) W-NW 293 0 min 0,000 mm 1,0 UV-I 109 W/m 8,2 C 11,3 km/h (2 Bft)
11.08.2016 09:54 10,0 C 10,1 C 88 % 1024,9 hPa 0,0 mm 6,4 km/h (2 Bft) W 271 0 min 0,000 mm 1,0 UV-I 114 W/m 8,1 C 9,7 km/h (2 Bft)
11.08.2016 09:55 9,9 C 10,0 C 87 % 1024,9 hPa 0,0 mm 5,7 km/h (1 Bft) NW 306 0 min 0,000 mm 1,1 UV-I 123 W/m 7,8 C 9,7 km/h (2 Bft)
11.08.2016 09:56 9,9 C 9,9 C 87 % 1024,9 hPa 0,0 mm 5,1 km/h (1 Bft) W-SW 254 0 min 0,000 mm 1,2 UV-I 127 W/m 7,8 C 6,4 km/h (2 Bft)
11.08.2016 09:57 9,8 C 9,9 C 87 % 1025,0 hPa 0,0 mm 8,4 km/h (2 Bft) W-SW 252 0 min 0,000 mm 1,2 UV-I 130 W/m 7,7 C 11,3 km/h (2 Bft)
11.08.2016 09:58 9,8 C 9,8 C 86 % 1025,0 hPa 0,0 mm 6,3 km/h (2 Bft) W-NW 289 0 min 0,000 mm 1,3 UV-I 135 W/m 7,6 C 9,7 km/h (2 Bft)
11.08.2016 09:59 9,8 C 9,8 C 87 % 1025,0 hPa 0,0 mm 4,6 km/h (1 Bft) W 277 0 min 0,000 mm 1,3 UV-I 142 W/m 7,7 C 8,0 km/h (2 Bft)
11.08.2016 10:00 9,8 C 9,8 C 86 % 1025,0 hPa 0,0 mm 4,9 km/h (1 Bft) W 269 0 min 0,000 mm 1,4 UV-I 149 W/m 7,6 C 6,4 km/h (2 Bft)
11.08.2016 10:01 9,7 C 9,8 C 87 % 1025,0 hPa 0,0 mm 5,0 km/h (1 Bft) W-NW 296 0 min 0,127 mm 1,4 UV-I 165 W/m 7,6 C 9,7 km/h (2 Bft)
11.08.2016 10:02 9,7 C 9,7 C 87 % 1025,0 hPa 0,0 mm 5,6 km/h (1 Bft) W-NW 297 0 min 0,000 mm 1,5 UV-I 167 W/m 7,6 C 6,4 km/h (2 Bft)
11.08.2016 10:03 9,7 C 9,7 C 87 % 1025,0 hPa 0,0 mm 5,4 km/h (1 Bft) W 269 0 min 0,000 mm 1,6 UV-I 171 W/m 7,6 C 9,7 km/h (2 Bft)
11.08.2016 10:04 9,7 C 9,7 C 87 % 1025,0 hPa 0,0 mm 3,4 km/h (1 Bft) W-NW 282 0 min 0,000 mm 1,6 UV-I 176 W/m 7,6 C 4,8 km/h (1 Bft)
11.08.2016 10:05 9,7 C 9,7 C 86 % 1025,0 hPa 0,0 mm 1,4 km/h (1 Bft) W-NW 282 0 min 0,000 mm 1,7 UV-I 183 W/m 7,5 C 3,2 km/h (1 Bft)
11.08.2016 10:06 9,7 C 9,7 C 88 % 1025,0 hPa 0,0 mm 2,5 km/h (1 Bft) W 262 0 min 0,000 mm 1,8 UV-I 202 W/m 7,8 C 4,8 km/h (1 Bft)
11.08.2016 10:07 9,7 C 9,7 C 88 % 1025,0 hPa 0,0 mm 1,5 km/h (1 Bft) W 263 0 min 0,000 mm 1,9 UV-I 211 W/m 7,8 C 3,2 km/h (1 Bft)
11.08.2016 10:08 9,8 C 9,8 C 89 % 1025,0 hPa 0,0 mm 0,3 km/h (0 Bft) W 263 0 min 0,000 mm 2,0 UV-I 216 W/m 8,1 C 1,6 km/h (1 Bft)
11.08.2016 10:09 9,8 C 9,8 C 89 % 1025,0 hPa 0,0 mm 4,2 km/h (1 Bft) W 260 0 min 0,000 mm 2,1 UV-I 220 W/m 8,1 C 6,4 km/h (2 Bft)
11.08.2016 10:10 9,9 C 9,9 C 89 % 1025,1 hPa 0,0 mm 4,4 km/h (1 Bft) W-SW 240 0 min 0,000 mm 2,1 UV-I 229 W/m 8,2 C 6,4 km/h (2 Bft)
11.08.2016 10:11 10,0 C 10,0 C 89 % 1025,1 hPa 0,0 mm 5,8 km/h (2 Bft) W-NW 287 0 min 0,000 mm 2,2 UV-I 246 W/m 8,3 C 9,7 km/h (2 Bft)
11.08.2016 10:12 10,1 C 10,1 C 88 % 1025,1 hPa 0,0 mm 7,6 km/h (2 Bft) W-SW 248 0 min 0,000 mm 3,1 UV-I 246 W/m 8,2 C 11,3 km/h (2 Bft)
11.08.2016 10:13 10,1 C 10,1 C 88 % 1025,1 hPa 0,0 mm 6,4 km/h (2 Bft) W 261 0 min 0,000 mm 2,4 UV-I 274 W/m 8,2 C 9,7 km/h (2 Bft)
11.08.2016 10:14 10,1 C 10,1 C 89 % 1025,1 hPa 0,0 mm 1,3 km/h (1 Bft) W 261 0 min 0,000 mm 2,6 UV-I 276 W/m 8,4 C 3,2 km/h (1 Bft)
11.08.2016 10:15 10,1 C 10,1 C 90 % 1025,1 hPa 0,0 mm 0,9 km/h (0 Bft) W 261 0 min 0,000 mm 2,4 UV-I 287 W/m 8,5 C 3,2 km/h (1 Bft)
11.08.2016 10:16 10,3 C 10,3 C 90 % 1025,1 hPa 0,0 mm 2,4 km/h (1 Bft) W-NW 283 0 min 0,000 mm 3,0 UV-I 287 W/m 8,7 C 4,8 km/h (1 Bft)
11.08.2016 10:17 10,4 C 10,4 C 90 % 1025,1 hPa 0,0 mm 4,6 km/h (1 Bft) W 279 0 min 0,000 mm 3,2 UV-I 287 W/m 8,8 C 6,4 km/h (2 Bft)
11.08.2016 10:18 10,4 C 10,4 C 87 % 1025,0 hPa 0,0 mm 4,7 km/h (1 Bft) NW 324 0 min 0,000 mm 2,9 UV-I 287 W/m 8,3 C 8,0 km/h (2 Bft)
11.08.2016 10:19 10,4 C 10,4 C 86 % 1025,0 hPa 0,0 mm 4,3 km/h (1 Bft) W 274 0 min 0,000 mm 2,3 UV-I 251 W/m 8,2 C 6,4 km/h (2 Bft)
11.08.2016 10:20 10,6 C 10,6 C 88 % 1025,1 hPa 0,0 mm 4,9 km/h (1 Bft) W-NW 286 0 min 0,000 mm 2,3 UV-I 223 W/m 8,7 C 6,4 km/h (2 Bft)
11.08.2016 10:21 10,7 C 10,7 C 89 % 1025,1 hPa 0,0 mm 2,5 km/h (1 Bft) W 263 0 min 0,000 mm 3,1 UV-I 223 W/m 9,0 C 9,7 km/h (2 Bft)
11.08.2016 10:22 10,7 C 10,7 C 87 % 1025,0 hPa 0,0 mm 8,7 km/h (2 Bft) W 267 1 min 0,000 mm 3,0 UV-I 457 W/m 8,6 C 11,3 km/h (2 Bft)
11.08.2016 10:23 10,8 C 10,8 C 88 % 1025,0 hPa 0,0 mm 6,1 km/h (2 Bft) W-SW 240 1 min 0,000 mm 3,0 UV-I 438 W/m 8,9 C 11,3 km/h (2 Bft)
11.08.2016 10:24 10,8 C 10,9 C 86 % 1025,0 hPa 0,0 mm 6,1 km/h (2 Bft) SW 236 1 min 0,000 mm 3,4 UV-I 452 W/m 8,6 C 11,3 km/h (2 Bft)
11.08.2016 10:25 10,9 C 10,9 C 84 % 1025,1 hPa 0,0 mm 2,6 km/h (1 Bft) W 273 1 min 0,000 mm 4,2 UV-I 870 W/m 8,3 C 4,8 km/h (1 Bft)
11.08.2016 10:26 11,1 C 11,1 C 86 % 1025,1 hPa 0,0 mm 5,1 km/h (1 Bft) W-SW 246 1 min 0,000 mm 4,1 UV-I 865 W/m 8,8 C 9,7 km/h (2 Bft)
11.08.2016 10:27 11,3 C 11,3 C 88 % 1025,0 hPa 0,0 mm 2,2 km/h (1 Bft) W-SW 255 1 min 0,000 mm 4,0 UV-I 870 W/m 9,4 C 4,8 km/h (1 Bft)
11.08.2016 10:28 11,5 C 11,5 C 86 % 1025,1 hPa 0,0 mm 2,5 km/h (1 Bft) W-SW 244 1 min 0,000 mm 3,2 UV-I 870 W/m 9,2 C 3,2 km/h (1 Bft)
11.08.2016 10:29 11,5 C 11,6 C 83 % 1025,1 hPa 0,0 mm 2,6 km/h (1 Bft) W 265 1 min 0,000 mm 2,6 UV-I 870 W/m 8,7 C 4,8 km/h (1 Bft)
11.08.2016 10:30 11,4 C 11,5 C 81 % 1025,1 hPa 0,0 mm 3,9 km/h (1 Bft) W-SW 252 1 min 0,000 mm 3,2 UV-I 606 W/m 8,3 C 6,4 km/h (2 Bft)
11.08.2016 10:31 11,3 C 11,4 C 83 % 1025,1 hPa 0,0 mm 3,7 km/h (1 Bft) W 261 1 min 0,000 mm 2,3 UV-I 606 W/m 8,5 C 6,4 km/h (2 Bft)
11.08.2016 10:32 11,2 C 11,3 C 82 % 1025,1 hPa 0,0 mm 1,9 km/h (1 Bft) S 184 1 min 0,000 mm 2,5 UV-I 606 W/m 8,2 C 3,2 km/h (1 Bft)
11.08.2016 10:33 11,1 C 11,2 C 84 % 1025,1 hPa 0,0 mm 2,6 km/h (1 Bft) SW 223 0 min 0,000 mm 2,3 UV-I 313 W/m 8,5 C 3,2 km/h (1 Bft)
11.08.2016 10:34 11,0 C 11,1 C 84 % 1025,1 hPa 0,0 mm 3,9 km/h (1 Bft) W-SW 249 0 min 0,000 mm 2,2 UV-I 281 W/m 8,4 C 4,8 km/h (1 Bft)
11.08.2016 10:35 11,0 C 11,1 C 85 % 1025,0 hPa 0,0 mm 4,6 km/h (1 Bft) W-SW 250 0 min 0,000 mm 2,2 UV-I 265 W/m 8,6 C 6,4 km/h (2 Bft)
11.08.2016 10:36 11,1 C 11,1 C 86 % 1025,0 hPa 0,0 mm 4,1 km/h (1 Bft) W-SW 254 0 min 0,000 mm 2,2 UV-I 269 W/m 8,8 C 6,4 km/h (2 Bft)
11.08.2016 10:37 11,2 C 11,2 C 86 % 1025,0 hPa 0,0 mm 8,3 km/h (2 Bft) W-SW 245 0 min 0,000 mm 2,9 UV-I 269 W/m 8,9 C 11,3 km/h (2 Bft)
11.08.2016 10:38 11,2 C 11,2 C 87 % 1025,0 hPa 0,0 mm 7,7 km/h (2 Bft) W-SW 252 0 min 0,000 mm 2,5 UV-I 269 W/m 9,1 C 11,3 km/h (2 Bft)
11.08.2016 10:39 11,2 C 11,3 C 86 % 1025,0 hPa 0,0 mm 8,2 km/h (2 Bft) W-SW 254 0 min 0,000 mm 2,6 UV-I 297 W/m 8,9 C 12,9 km/h (3 Bft)
11.08.2016 10:40 11,2 C 11,3 C 84 % 1025,1 hPa 0,0 mm 7,5 km/h (2 Bft) W 262 0 min 0,000 mm 2,7 UV-I 309 W/m 8,6 C 11,3 km/h (2 Bft)
11.08.2016 10:41 11,2 C 11,2 C 84 % 1025,1 hPa 0,0 mm 3,5 km/h (1 Bft) W-SW 240 1 min 0,000 mm 3,6 UV-I 390 W/m 8,6 C 4,8 km/h (1 Bft)
11.08.2016 10:42 11,2 C 11,2 C 86 % 1025,0 hPa 0,0 mm 8,5 km/h (2 Bft) W-SW 242 1 min 0,000 mm 4,5 UV-I 390 W/m 8,9 C 14,5 km/h (3 Bft)
11.08.2016 10:43 11,4 C 11,4 C 86 % 1025,1 hPa 0,0 mm 6,2 km/h (2 Bft) SW 232 1 min 0,000 mm 3,5 UV-I 390 W/m 9,1 C 9,7 km/h (2 Bft)
11.08.2016 10:44 11,4 C 11,4 C 86 % 1025,1 hPa 0,0 mm 3,5 km/h (1 Bft) W 269 1 min 0,000 mm 3,3 UV-I 390 W/m 9,1 C 8,0 km/h (2 Bft)
11.08.2016 10:45 11,5 C 11,5 C 85 % 1025,0 hPa 0,0 mm 3,0 km/h (1 Bft) SW 230 1 min 0,000 mm 3,4 UV-I 482 W/m 9,1 C 4,8 km/h (1 Bft)
11.08.2016 10:46 11,6 C 11,6 C 84 % 1025,0 hPa 0,0 mm 5,9 km/h (2 Bft) W-SW 240 1 min 0,000 mm 3,7 UV-I 547 W/m 9,0 C 12,9 km/h (3 Bft)
11.08.2016 10:47 11,6 C 11,6 C 82 % 1025,1 hPa 0,0 mm 8,6 km/h (2 Bft) NW 315 1 min 0,000 mm 4,0 UV-I 881 W/m 8,6 C 12,9 km/h (3 Bft)
11.08.2016 10:48 11,7 C 11,7 C 85 % 1025,0 hPa 0,0 mm 7,6 km/h (2 Bft) W 268 1 min 0,000 mm 4,4 UV-I 870 W/m 9,3 C 11,3 km/h (2 Bft)
11.08.2016 10:49 11,7 C 11,7 C 82 % 1025,0 hPa 0,0 mm 8,4 km/h (2 Bft) W-SW 257 1 min 0,000 mm 3,9 UV-I 861 W/m 8,7 C 14,5 km/h (3 Bft)
11.08.2016 10:50 11,8 C 11,8 C 81 % 1025,1 hPa 0,0 mm 7,6 km/h (2 Bft) W-SW 252 1 min 0,000 mm 4,5 UV-I 826 W/m 8,6 C 14,5 km/h (3 Bft)
11.08.2016 10:51 11,8 C 11,8 C 82 % 1025,1 hPa 0,0 mm 10,1 km/h (2 Bft) W 280 1 min 0,000 mm 4,5 UV-I 802 W/m 8,8 C 12,9 km/h (3 Bft)
11.08.2016 10:52 11,8 C 11,8 C 79 % 1025,1 hPa 0,0 mm 6,8 km/h (2 Bft) SW 226 1 min 0,000 mm 4,4 UV-I 772 W/m 8,3 C 11,3 km/h (2 Bft)
11.08.2016 10:53 11,8 C 11,9 C 80 % 1025,0 hPa 0,0 mm 6,1 km/h (2 Bft) W 279 1 min 0,000 mm 4,4 UV-I 751 W/m 8,5 C 8,0 km/h (2 Bft)
11.08.2016 10:54 11,8 C 11,8 C 80 % 1025,0 hPa 0,0 mm 4,7 km/h (1 Bft) W-NW 285 1 min 0,000 mm 4,4 UV-I 751 W/m 8,5 C 6,4 km/h (2 Bft)
11.08.2016 10:55 11,8 C 11,8 C 78 % 1024,9 hPa 0,0 mm 3,8 km/h (1 Bft) W-NW 288 1 min 0,000 mm 4,4 UV-I 756 W/m 8,1 C 6,4 km/h (2 Bft)
11.08.2016 10:56 11,9 C 11,9 C 81 % 1024,9 hPa 0,0 mm 3,6 km/h (1 Bft) W 271 1 min 0,000 mm 4,3 UV-I 731 W/m 8,7 C 4,8 km/h (1 Bft)
11.08.2016 10:57 11,9 C 11,9 C 80 % 1024,9 hPa 0,0 mm 4,8 km/h (1 Bft) NW 306 1 min 0,000 mm 4,4 UV-I 731 W/m 8,6 C 6,4 km/h (2 Bft)
11.08.2016 10:58 12,1 C 12,1 C 83 % 1024,9 hPa 0,0 mm 6,7 km/h (2 Bft) W 267 1 min 0,000 mm 4,4 UV-I 756 W/m 9,3 C 12,9 km/h (3 Bft)
11.08.2016 10:59 12,2 C 12,2 C 84 % 1024,9 hPa 0,0 mm 5,8 km/h (2 Bft) W-SW 249 1 min 0,000 mm 4,4 UV-I 773 W/m 9,6 C 11,3 km/h (2 Bft)
11.08.2016 11:00 12,3 C 12,3 C 82 % 1024,9 hPa 0,0 mm 5,5 km/h (1 Bft) W-SW 257 1 min 0,000 mm 4,5 UV-I 775 W/m 9,3 C 9,7 km/h (2 Bft)
11.08.2016 11:01 12,3 C 12,3 C 81 % 1024,9 hPa 0,0 mm 5,5 km/h (1 Bft) W-SW 257 1 min 0,228 mm 4,5 UV-I 773 W/m 9,1 C 8,0 km/h (2 Bft)
11.08.2016 11:02 12,2 C 12,3 C 80 % 1024,9 hPa 0,0 mm 4,7 km/h (1 Bft) SW 234 1 min 0,000 mm 4,5 UV-I 780 W/m 8,9 C 6,4 km/h (2 Bft)
11.08.2016 11:03 12,3 C 12,3 C 82 % 1024,9 hPa 0,0 mm 3,8 km/h (1 Bft) S-SO 148 1 min 0,000 mm 4,6 UV-I 780 W/m 9,3 C 8,0 km/h (2 Bft)
11.08.2016 11:04 12,3 C 12,3 C 86 % 1024,9 hPa 0,0 mm 2,5 km/h (1 Bft) SW 236 1 min 0,000 mm 4,7 UV-I 830 W/m 10,0 C 8,0 km/h (2 Bft)
11.08.2016 11:05 12,4 C 12,4 C 82 % 1024,9 hPa 0,0 mm 6,6 km/h (2 Bft) W-SW 256 1 min 0,000 mm 4,8 UV-I 870 W/m 9,4 C 9,7 km/h (2 Bft)
11.08.2016 11:06 12,5 C 12,5 C 82 % 1024,8 hPa 0,0 mm 4,5 km/h (1 Bft) W-SW 244 1 min 0,000 mm 3,7 UV-I 849 W/m 9,5 C 6,4 km/h (2 Bft)
11.08.2016 11:07 12,6 C 12,6 C 83 % 1024,9 hPa 0,0 mm 3,9 km/h (1 Bft) N 360 1 min 0,000 mm 4,7 UV-I 851 W/m 9,8 C 4,8 km/h (1 Bft)
11.08.2016 11:08 12,5 C 12,6 C 79 % 1024,8 hPa 0,0 mm 7,6 km/h (2 Bft) W 270 1 min 0,000 mm 4,3 UV-I 830 W/m 9,0 C 14,5 km/h (3 Bft)
11.08.2016 11:09 12,3 C 12,5 C 81 % 1024,8 hPa 0,0 mm 11,3 km/h (2 Bft) W-SW 250 1 min 0,000 mm 4,5 UV-I 830 W/m 9,1 C 17,7 km/h (3 Bft)
11.08.2016 11:10 12,3 C 12,3 C 82 % 1024,8 hPa 0,0 mm 7,0 km/h (2 Bft) S 189 1 min 0,000 mm 4,7 UV-I 830 W/m 9,3 C 12,9 km/h (3 Bft)
11.08.2016 11:11 12,3 C 12,3 C 79 % 1024,8 hPa 0,0 mm 5,1 km/h (1 Bft) W 267 1 min 0,000 mm 4,8 UV-I 823 W/m 8,8 C 9,7 km/h (2 Bft)
11.08.2016 11:12 12,4 C 12,4 C 83 % 1024,8 hPa 0,0 mm 5,6 km/h (1 Bft) NW 305 1 min 0,000 mm 4,8 UV-I 837 W/m 9,6 C 11,3 km/h (2 Bft)
11.08.2016 11:13 12,4 C 12,4 C 80 % 1024,8 hPa 0,0 mm 9,1 km/h (2 Bft) N-NW 329 1 min 0,000 mm 4,9 UV-I 854 W/m 9,0 C 14,5 km/h (3 Bft)
11.08.2016 11:14 12,5 C 12,5 C 79 % 1024,8 hPa 0,0 mm 8,0 km/h (2 Bft) NW 325 1 min 0,000 mm 4,9 UV-I 863 W/m 9,0 C 12,9 km/h (3 Bft)
11.08.2016 11:15 12,5 C 12,6 C 75 % 1024,8 hPa 0,0 mm 5,4 km/h (1 Bft) NW 309 1 min 0,000 mm 3,8 UV-I 863 W/m 8,2 C 9,7 km/h (2 Bft)
11.08.2016 11:16 12,4 C 12,5 C 77 % 1024,9 hPa 0,0 mm 6,6 km/h (2 Bft) N 360 1 min 0,000 mm 4,4 UV-I 863 W/m 8,5 C 11,3 km/h (2 Bft)
11.08.2016 11:17 12,5 C 12,5 C 79 % 1024,8 hPa 0,0 mm 11,7 km/h (2 Bft) NW 306 1 min 0,000 mm 4,2 UV-I 863 W/m 9,0 C 14,5 km/h (3 Bft)
11.08.2016 11:18 12,6 C 12,6 C 80 % 1024,8 hPa 0,0 mm 8,5 km/h (2 Bft) W-NW 301 1 min 0,000 mm 4,8 UV-I 800 W/m 9,2 C 14,5 km/h (3 Bft)
11.08.2016 11:19 12,6 C 12,6 C 77 % 1024,8 hPa 0,0 mm 7,1 km/h (2 Bft) NW 319 1 min 0,000 mm 4,8 UV-I 802 W/m 8,7 C 11,3 km/h (2 Bft)
11.08.2016 11:20 12,7 C 12,7 C 76 % 1024,8 hPa 0,0 mm 6,6 km/h (2 Bft) W-NW 286 1 min 0,000 mm 3,1 UV-I 802 W/m 8,6 C 11,3 km/h (2 Bft)
11.08.2016 11:21 12,6 C 12,7 C 75 % 1024,8 hPa 0,0 mm 6,8 km/h (2 Bft) W 280 1 min 0,000 mm 4,4 UV-I 802 W/m 8,3 C 11,3 km/h (2 Bft)
11.08.2016 11:22 12,5 C 12,6 C 75 % 1024,8 hPa 0,0 mm 9,1 km/h (2 Bft) NW 320 1 min 0,000 mm 4,8 UV-I 810 W/m 8,2 C 11,3 km/h (2 Bft)
11.08.2016 11:23 12,4 C 12,5 C 77 % 1024,8 hPa 0,0 mm 8,4 km/h (2 Bft) W-NW 283 1 min 0,000 mm 4,9 UV-I 810 W/m 8,5 C 12,9 km/h (3 Bft)
11.08.2016 11:24 12,4 C 12,5 C 76 % 1024,8 hPa 0,0 mm 8,2 km/h (2 Bft) W-NW 289 1 min 0,000 mm 5,0 UV-I 810 W/m 8,3 C 12,9 km/h (3 Bft)
11.08.2016 11:25 12,4 C 12,4 C 78 % 1024,8 hPa 0,0 mm 7,8 km/h (2 Bft) W 262 1 min 0,000 mm 5,0 UV-I 838 W/m 8,7 C 11,3 km/h (2 Bft)
11.08.2016 11:26 12,4 C 12,4 C 77 % 1024,8 hPa 0,0 mm 8,6 km/h (2 Bft) W-SW 246 1 min 0,000 mm 4,9 UV-I 826 W/m 8,5 C 14,5 km/h (3 Bft)
11.08.2016 11:27 12,6 C 12,6 C 76 % 1024,8 hPa 0,0 mm 4,4 km/h (1 Bft) W-NW 301 1 min 0,000 mm 4,7 UV-I 826 W/m 8,5 C 9,7 km/h (2 Bft)
11.08.2016 11:28 12,6 C 12,6 C 77 % 1024,7 hPa 0,0 mm 3,7 km/h (1 Bft) W-NW 284 1 min 0,000 mm 4,2 UV-I 761 W/m 8,7 C 4,8 km/h (1 Bft)
11.08.2016 11:29 12,4 C 12,6 C 74 % 1024,8 hPa 0,0 mm 3,6 km/h (1 Bft) W-NW 286 1 min 0,000 mm 4,9 UV-I 761 W/m 7,9 C 4,8 km/h (1 Bft)
11.08.2016 11:30 12,4 C 12,5 C 76 % 1024,7 hPa 0,0 mm 4,8 km/h (1 Bft) W-NW 288 1 min 0,000 mm 2,8 UV-I 761 W/m 8,3 C 8,0 km/h (2 Bft)
11.08.2016 11:31 12,3 C 12,4 C 73 % 1024,8 hPa 0,0 mm 4,1 km/h (1 Bft) NW 318 1 min 0,000 mm 5,1 UV-I 761 W/m 7,6 C 6,4 km/h (2 Bft)
11.08.2016 11:32 12,3 C 12,3 C 75 % 1024,8 hPa 0,0 mm 5,5 km/h (1 Bft) W-NW 292 1 min 0,000 mm 4,2 UV-I 863 W/m 8,0 C 9,7 km/h (2 Bft)
11.08.2016 11:33 12,3 C 12,3 C 77 % 1024,8 hPa 0,0 mm 8,0 km/h (2 Bft) W-NW 287 1 min 0,000 mm 2,5 UV-I 863 W/m 8,4 C 11,3 km/h (2 Bft)
11.08.2016 11:34 12,2 C 12,3 C 73 % 1024,8 hPa 0,0 mm 5,2 km/h (1 Bft) W-NW 292 0 min 0,000 mm 2,5 UV-I 121 W/m 7,5 C 9,7 km/h (2 Bft)
11.08.2016 11:35 12,1 C 12,2 C 72 % 1024,8 hPa 0,0 mm 4,8 km/h (1 Bft) N 360 0 min 0,000 mm 5,0 UV-I 121 W/m 7,2 C 9,7 km/h (2 Bft)
11.08.2016 11:36 12,2 C 12,2 C 77 % 1024,8 hPa 0,0 mm 5,3 km/h (1 Bft) W-SW 245 0 min 0,000 mm 4,4 UV-I 121 W/m 8,3 C 11,3 km/h (2 Bft)
11.08.2016 11:37 12,2 C 12,2 C 76 % 1024,8 hPa 0,0 mm 10,5 km/h (2 Bft) W-NW 290 0 min 0,000 mm 4,7 UV-I 121 W/m 8,1 C 14,5 km/h (3 Bft)
11.08.2016 11:38 12,2 C 12,2 C 74 % 1024,8 hPa 0,0 mm 6,8 km/h (2 Bft) NW 326 0 min 0,000 mm 5,2 UV-I 121 W/m 7,7 C 9,7 km/h (2 Bft)
11.08.2016 11:39 12,3 C 12,3 C 76 % 1024,8 hPa 0,0 mm 3,5 km/h (1 Bft) W-NW 303 0 min 0,000 mm 5,2 UV-I 121 W/m 8,2 C 8,0 km/h (2 Bft)
11.08.2016 11:40 12,5 C 12,5 C 77 % 1024,8 hPa 0,0 mm 7,9 km/h (2 Bft) W 270 1 min 0,000 mm 5,2 UV-I 861 W/m 8,6 C 11,3 km/h (2 Bft)
11.08.2016 11:41 12,6 C 12,6 C 76 % 1024,8 hPa 0,0 mm 7,0 km/h (2 Bft) W 273 0 min 0,000 mm 2,7 UV-I 169 W/m 8,5 C 9,7 km/h (2 Bft)
11.08.2016 11:42 12,4 C 12,6 C 72 % 1024,7 hPa 0,0 mm 5,3 km/h (1 Bft) SW 229 0 min 0,000 mm 3,0 UV-I 169 W/m 7,5 C 6,4 km/h (2 Bft)
11.08.2016 11:43 12,3 C 12,4 C 78 % 1024,8 hPa 0,0 mm 3,8 km/h (1 Bft) S-SO 164 0 min 0,000 mm 5,4 UV-I 169 W/m 8,6 C 6,4 km/h (2 Bft)
11.08.2016 11:44 12,3 C 12,3 C 75 % 1024,8 hPa 0,0 mm 2,1 km/h (1 Bft) S 184 1 min 0,000 mm 5,4 UV-I 942 W/m 8,0 C 6,4 km/h (2 Bft)
11.08.2016 11:45 12,3 C 12,4 C 75 % 1024,8 hPa 0,0 mm 2,1 km/h (1 Bft) S 173 1 min 0,000 mm 5,4 UV-I 942 W/m 8,0 C 4,8 km/h (1 Bft)
11.08.2016 11:46 12,3 C 12,3 C 75 % 1024,8 hPa 0,0 mm 0,7 km/h (0 Bft) S 186 0 min 0,000 mm 2,4 UV-I 174 W/m 8,0 C 3,2 km/h (1 Bft)
11.08.2016 11:47 12,2 C 12,3 C 78 % 1024,8 hPa 0,0 mm 5,6 km/h (1 Bft) O 83 0 min 0,000 mm 2,3 UV-I 179 W/m 8,5 C 12,9 km/h (3 Bft)
11.08.2016 11:48 12,2 C 12,2 C 77 % 1024,8 hPa 0,0 mm 6,7 km/h (2 Bft) W-NW 297 0 min 0,000 mm 2,5 UV-I 220 W/m 8,3 C 11,3 km/h (2 Bft)
11.08.2016 11:49 12,1 C 12,2 C 77 % 1024,8 hPa 0,0 mm 6,6 km/h (2 Bft) W-SW 258 0 min 0,000 mm 2,2 UV-I 169 W/m 8,2 C 11,3 km/h (2 Bft)
11.08.2016 11:50 12,1 C 12,1 C 76 % 1024,8 hPa 0,0 mm 6,3 km/h (2 Bft) NW 310 0 min 0,000 mm 2,2 UV-I 155 W/m 8,0 C 9,7 km/h (2 Bft)
11.08.2016 11:51 11,9 C 12,1 C 77 % 1024,8 hPa 0,0 mm 3,2 km/h (1 Bft) W-NW 298 0 min 0,000 mm 2,2 UV-I 151 W/m 8,0 C 4,8 km/h (1 Bft)
11.08.2016 11:52 11,9 C 11,9 C 76 % 1024,8 hPa 0,0 mm 4,3 km/h (1 Bft) NW 311 0 min 0,000 mm 2,3 UV-I 153 W/m 7,8 C 6,4 km/h (2 Bft)
11.08.2016 11:53 11,9 C 11,9 C 78 % 1024,8 hPa 0,0 mm 3,4 km/h (1 Bft) NW 309 0 min 0,000 mm 2,4 UV-I 151 W/m 8,2 C 4,8 km/h (1 Bft)
11.08.2016 11:54 11,8 C 11,9 C 77 % 1024,8 hPa 0,0 mm 3,8 km/h (1 Bft) NW 321 0 min 0,000 mm 2,5 UV-I 162 W/m 7,9 C 4,8 km/h (1 Bft)
11.08.2016 11:55 11,8 C 11,8 C 79 % 1024,9 hPa 0,0 mm 2,8 km/h (1 Bft) W-NW 282 0 min 0,000 mm 2,5 UV-I 160 W/m 8,3 C 4,8 km/h (1 Bft)
11.08.2016 11:56 11,8 C 11,8 C 77 % 1024,8 hPa 0,0 mm 3,8 km/h (1 Bft) W-NW 282 0 min 0,000 mm 2,7 UV-I 183 W/m 7,9 C 4,8 km/h (1 Bft)
11.08.2016 11:57 11,8 C 11,8 C 78 % 1024,7 hPa 0,0 mm 2,7 km/h (1 Bft) W-NW 296 0 min 0,000 mm 2,8 UV-I 202 W/m 8,1 C 4,8 km/h (1 Bft)
11.08.2016 11:58 11,9 C 11,9 C 78 % 1024,7 hPa 0,0 mm 2,3 km/h (1 Bft) W-NW 297 0 min 0,000 mm 2,9 UV-I 248 W/m 8,2 C 3,2 km/h (1 Bft)
11.08.2016 11:59 12,1 C 12,1 C 80 % 1024,7 hPa 0,0 mm 1,6 km/h (1 Bft) W-NW 296 0 min 0,000 mm 5,4 UV-I 248 W/m 8,8 C 3,2 km/h (1 Bft)
11.08.2016 12:00 12,2 C 12,2 C 81 % 1024,7 hPa 0,0 mm 4,2 km/h (1 Bft) W 265 1 min 0,000 mm 5,4 UV-I 865 W/m 9,0 C 4,8 km/h (1 Bft)
11.08.2016 12:01 12,5 C 12,5 C 79 % 1024,7 hPa 0,0 mm 4,4 km/h (1 Bft) W-SW 253 1 min 0,279 mm 5,4 UV-I 860 W/m 9,0 C 6,4 km/h (2 Bft)
11.08.2016 12:02 12,6 C 12,6 C 80 % 1024,7 hPa 0,0 mm 3,6 km/h (1 Bft) W-SW 240 1 min 0,001 mm 2,4 UV-I 860 W/m 9,2 C 6,4 km/h (2 Bft)
11.08.2016 12:03 12,6 C 12,6 C 75 % 1024,7 hPa 0,0 mm 3,6 km/h (1 Bft) W-SW 246 0 min 0,000 mm 2,4 UV-I 102 W/m 8,3 C 6,4 km/h (2 Bft)
11.08.2016 12:04 12,6 C 12,6 C 75 % 1024,7 hPa 0,0 mm 4,9 km/h (1 Bft) W-SW 242 0 min 0,000 mm 2,5 UV-I 109 W/m 8,3 C 6,4 km/h (2 Bft)
11.08.2016 12:05 12,5 C 12,6 C 75 % 1024,7 hPa 0,0 mm 2,2 km/h (1 Bft) NW 311 1 min 0,000 mm 5,6 UV-I 879 W/m 8,2 C 4,8 km/h (1 Bft)
11.08.2016 12:06 12,6 C 12,6 C 77 % 1024,7 hPa 0,0 mm 4,6 km/h (1 Bft) W 275 1 min 0,000 mm 5,7 UV-I 895 W/m 8,7 C 11,3 km/h (2 Bft)
11.08.2016 12:07 12,9 C 12,9 C 81 % 1024,7 hPa 0,0 mm 9,6 km/h (2 Bft) W-SW 243 1 min 0,000 mm 5,7 UV-I 916 W/m 9,7 C 14,5 km/h (3 Bft)
11.08.2016 12:08 13,1 C 13,1 C 76 % 1024,7 hPa 0,0 mm 8,3 km/h (2 Bft) W-NW 299 1 min 0,000 mm 5,7 UV-I 886 W/m 9,0 C 11,3 km/h (2 Bft)
11.08.2016 12:09 13,2 C 13,2 C 75 % 1024,7 hPa 0,0 mm 8,8 km/h (2 Bft) W-NW 288 1 min 0,000 mm 4,0 UV-I 886 W/m 8,9 C 14,5 km/h (3 Bft)
11.08.2016 12:10 13,3 C 13,3 C 75 % 1024,7 hPa 0,0 mm 9,5 km/h (2 Bft) W 259 1 min 0,000 mm 5,8 UV-I 886 W/m 9,0 C 14,5 km/h (3 Bft)
11.08.2016 12:11 13,3 C 13,3 C 74 % 1024,7 hPa 0,0 mm 8,0 km/h (2 Bft) W 277 1 min 0,000 mm 5,8 UV-I 877 W/m 8,8 C 12,9 km/h (3 Bft)
11.08.2016 12:12 13,3 C 13,3 C 69 % 1024,7 hPa 0,0 mm 9,0 km/h (2 Bft) W 280 1 min 0,000 mm 5,8 UV-I 874 W/m 7,7 C 12,9 km/h (3 Bft)
11.08.2016 12:13 13,2 C 13,3 C 67 % 1024,7 hPa 0,0 mm 6,2 km/h (2 Bft) W 279 1 min 0,000 mm 5,9 UV-I 884 W/m 7,2 C 11,3 km/h (2 Bft)
11.08.2016 12:14 13,2 C 13,2 C 69 % 1024,6 hPa 0,0 mm 6,5 km/h (2 Bft) W-SW 238 1 min 0,000 mm 6,0 UV-I 895 W/m 7,6 C 9,7 km/h (2 Bft)
11.08.2016 12:15 13,2 C 13,2 C 75 % 1024,6 hPa 0,0 mm 3,3 km/h (1 Bft) W-SW 240 1 min 0,000 mm 6,0 UV-I 932 W/m 8,9 C 6,4 km/h (2 Bft)
11.08.2016 12:16 13,4 C 13,4 C 77 % 1024,6 hPa 0,0 mm 4,6 km/h (1 Bft) N-NW 345 1 min 0,000 mm 6,3 UV-I 958 W/m 9,5 C 8,0 km/h (2 Bft)
11.08.2016 12:17 13,4 C 13,4 C 70 % 1024,6 hPa 0,0 mm 5,8 km/h (2 Bft) NW 305 1 min 0,000 mm 6,5 UV-I 983 W/m 8,0 C 8,0 km/h (2 Bft)
11.08.2016 12:18 13,4 C 13,4 C 71 % 1024,6 hPa 0,0 mm 7,2 km/h (2 Bft) NW 323 1 min 0,000 mm 6,5 UV-I 1004 W/m 8,3 C 11,3 km/h (2 Bft)
11.08.2016 12:19 13,4 C 13,4 C 67 % 1024,7 hPa 0,0 mm 7,1 km/h (2 Bft) NW 318 1 min 0,000 mm 6,5 UV-I 1030 W/m 7,4 C 11,3 km/h (2 Bft)
11.08.2016 12:20 13,5 C 13,5 C 70 % 1024,6 hPa 0,0 mm 10,4 km/h (2 Bft) NW 307 1 min 0,000 mm 4,3 UV-I 1030 W/m 8,1 C 16,1 km/h (3 Bft)
11.08.2016 12:21 13,6 C 13,6 C 67 % 1024,6 hPa 0,0 mm 9,0 km/h (2 Bft) W-NW 291 1 min 0,000 mm 3,7 UV-I 1030 W/m 7,6 C 14,5 km/h (3 Bft)
11.08.2016 12:22 13,5 C 13,6 C 70 % 1024,6 hPa 0,0 mm 7,4 km/h (2 Bft) W 275 1 min 0,000 mm 3,2 UV-I 1030 W/m 8,1 C 11,3 km/h (2 Bft)
11.08.2016 12:23 13,3 C 13,5 C 68 % 1024,6 hPa 0,0 mm 6,8 km/h (2 Bft) W-NW 289 0 min 0,000 mm 2,9 UV-I 251 W/m 7,5 C 12,9 km/h (3 Bft)
11.08.2016 12:24 13,2 C 13,3 C 67 % 1024,6 hPa 0,0 mm 4,2 km/h (1 Bft) W-NW 299 0 min 0,000 mm 3,1 UV-I 258 W/m 7,2 C 8,0 km/h (2 Bft)
11.08.2016 12:25 13,1 C 13,2 C 68 % 1024,6 hPa 0,0 mm 5,9 km/h (2 Bft) W-SW 251 0 min 0,000 mm 2,8 UV-I 234 W/m 7,3 C 9,7 km/h (2 Bft)
11.08.2016 12:26 12,9 C 13,1 C 70 % 1024,6 hPa 0,0 mm 7,2 km/h (2 Bft) W-SW 240 0 min 0,000 mm 2,8 UV-I 216 W/m 7,6 C 16,1 km/h (3 Bft)
11.08.2016 12:27 12,8 C 12,9 C 71 % 1024,6 hPa 0,0 mm 9,7 km/h (2 Bft) W-NW 286 0 min 0,000 mm 4,0 UV-I 216 W/m 7,7 C 16,1 km/h (3 Bft)
11.08.2016 12:28 12,8 C 12,8 C 73 % 1024,7 hPa 0,0 mm 3,7 km/h (1 Bft) W 278 0 min 0,000 mm 6,0 UV-I 216 W/m 8,1 C 4,8 km/h (1 Bft)
11.08.2016 12:29 12,9 C 12,9 C 71 % 1024,6 hPa 0,0 mm 5,6 km/h (1 Bft) SW 228 0 min 0,000 mm 6,1 UV-I 216 W/m 7,8 C 9,7 km/h (2 Bft)
11.08.2016 12:30 12,9 C 12,9 C 70 % 1024,6 hPa 0,0 mm 3,5 km/h (1 Bft) W-SW 248 1 min 0,000 mm 6,1 UV-I 909 W/m 7,6 C 6,4 km/h (2 Bft)
11.08.2016 12:31 12,9 C 13,0 C 68 % 1024,6 hPa 0,0 mm 4,2 km/h (1 Bft) W 277 1 min 0,000 mm 6,0 UV-I 891 W/m 7,1 C 6,4 km/h (2 Bft)
11.08.2016 12:32 13,2 C 13,2 C 75 % 1024,5 hPa 0,0 mm 6,8 km/h (2 Bft) W-NW 282 1 min 0,000 mm 6,0 UV-I 872 W/m 8,9 C 9,7 km/h (2 Bft)
11.08.2016 12:33 13,6 C 13,6 C 75 % 1024,5 hPa 0,0 mm 8,9 km/h (2 Bft) W-SW 257 1 min 0,000 mm 6,0 UV-I 854 W/m 9,3 C 12,9 km/h (3 Bft)
11.08.2016 12:34 13,6 C 13,7 C 66 % 1024,5 hPa 0,0 mm 4,3 km/h (1 Bft) W-SW 249 1 min 0,000 mm 6,0 UV-I 851 W/m 7,4 C 8,0 km/h (2 Bft)
11.08.2016 12:35 13,6 C 13,6 C 62 % 1024,6 hPa 0,0 mm 1,9 km/h (1 Bft) S-SW 205 1 min 0,000 mm 6,0 UV-I 849 W/m 6,5 C 4,8 km/h (1 Bft)
11.08.2016 12:36 13,6 C 13,6 C 67 % 1024,5 hPa 0,0 mm 4,3 km/h (1 Bft) W-SW 247 1 min 0,000 mm 6,1 UV-I 853 W/m 7,6 C 6,4 km/h (2 Bft)
11.08.2016 12:37 13,6 C 13,6 C 66 % 1024,5 hPa 0,0 mm 3,1 km/h (1 Bft) W 275 1 min 0,000 mm 6,1 UV-I 854 W/m 7,4 C 6,4 km/h (2 Bft)
11.08.2016 12:38 13,6 C 13,6 C 66 % 1024,5 hPa 0,0 mm 5,2 km/h (1 Bft) W-NW 286 1 min 0,000 mm 6,0 UV-I 849 W/m 7,4 C 8,0 km/h (2 Bft)
11.08.2016 12:39 13,6 C 13,6 C 63 % 1024,5 hPa 0,0 mm 8,6 km/h (2 Bft) W 272 1 min 0,000 mm 6,0 UV-I 854 W/m 6,7 C 11,3 km/h (2 Bft)
11.08.2016 12:40 13,8 C 13,8 C 71 % 1024,4 hPa 0,0 mm 7,4 km/h (2 Bft) W 261 1 min 0,000 mm 6,1 UV-I 854 W/m 8,6 C 11,3 km/h (2 Bft)
11.08.2016 12:41 14,1 C 14,1 C 75 % 1024,4 hPa 0,0 mm 6,4 km/h (2 Bft) W-SW 258 1 min 0,000 mm 6,2 UV-I 856 W/m 9,7 C 11,3 km/h (2 Bft)
11.08.2016 12:42 14,1 C 14,2 C 67 % 1024,4 hPa 0,0 mm 8,2 km/h (2 Bft) W 271 1 min 0,000 mm 6,2 UV-I 858 W/m 8,1 C 11,3 km/h (2 Bft)
11.08.2016 12:43 13,9 C 14,1 C 70 % 1024,4 hPa 0,0 mm 5,8 km/h (2 Bft) W-SW 246 1 min 0,000 mm 6,2 UV-I 861 W/m 8,5 C 12,9 km/h (3 Bft)
11.08.2016 12:44 14,1 C 14,1 C 75 % 1024,4 hPa 0,0 mm 5,2 km/h (1 Bft) W 274 1 min 0,000 mm 6,3 UV-I 877 W/m 9,7 C 11,3 km/h (2 Bft)
11.08.2016 12:45 14,0 C 14,1 C 71 % 1024,4 hPa 0,0 mm 5,4 km/h (1 Bft) W 265 1 min 0,000 mm 6,4 UV-I 877 W/m 8,8 C 6,4 km/h (2 Bft)
11.08.2016 12:46 13,9 C 14,0 C 69 % 1024,3 hPa 0,0 mm 5,4 km/h (1 Bft) W 277 1 min 0,000 mm 6,4 UV-I 879 W/m 8,3 C 8,0 km/h (2 Bft)
11.08.2016 12:47 14,2 C 14,2 C 76 % 1024,3 hPa 0,0 mm 4,5 km/h (1 Bft) W 264 1 min 0,000 mm 6,5 UV-I 877 W/m 10,0 C 8,0 km/h (2 Bft)
11.08.2016 12:48 14,3 C 14,3 C 68 % 1024,3 hPa 0,0 mm 3,4 km/h (1 Bft) W 265 1 min 0,000 mm 6,5 UV-I 874 W/m 8,5 C 6,4 km/h (2 Bft)
11.08.2016 12:49 14,3 C 14,3 C 67 % 1024,3 hPa 0,0 mm 11,0 km/h (2 Bft) W-NW 284 1 min 0,000 mm 6,5 UV-I 870 W/m 8,3 C 17,7 km/h (3 Bft)
11.08.2016 12:50 14,2 C 14,3 C 64 % 1024,4 hPa 0,0 mm 7,7 km/h (2 Bft) W 268 1 min 0,000 mm 6,5 UV-I 877 W/m 7,5 C 12,9 km/h (3 Bft)
11.08.2016 12:51 14,2 C 14,2 C 66 % 1024,3 hPa 0,0 mm 7,7 km/h (2 Bft) W-SW 240 1 min 0,000 mm 6,5 UV-I 881 W/m 7,9 C 12,9 km/h (3 Bft)
11.08.2016 12:52 14,2 C 14,2 C 62 % 1024,3 hPa 0,0 mm 6,0 km/h (2 Bft) N 11 1 min 0,000 mm 6,5 UV-I 879 W/m 7,0 C 11,3 km/h (2 Bft)
11.08.2016 12:53 14,2 C 14,2 C 62 % 1024,3 hPa 0,0 mm 5,2 km/h (1 Bft) W 264 1 min 0,000 mm 6,4 UV-I 884 W/m 7,0 C 8,0 km/h (2 Bft)
11.08.2016 12:54 14,2 C 14,2 C 62 % 1024,2 hPa 0,0 mm 4,0 km/h (1 Bft) NW 320 1 min 0,000 mm 6,5 UV-I 900 W/m 7,0 C 9,7 km/h (2 Bft)
11.08.2016 12:55 14,3 C 14,3 C 59 % 1024,3 hPa 0,0 mm 4,6 km/h (1 Bft) W 275 1 min 0,000 mm 5,4 UV-I 919 W/m 6,4 C 9,7 km/h (2 Bft)
11.08.2016 12:56 14,2 C 14,3 C 63 % 1024,3 hPa 0,0 mm 7,8 km/h (2 Bft) W-NW 298 0 min 0,000 mm 3,1 UV-I 190 W/m 7,3 C 12,9 km/h (3 Bft)
11.08.2016 12:57 14,0 C 14,2 C 59 % 1024,2 hPa 0,0 mm 4,8 km/h (1 Bft) NW 313 0 min 0,000 mm 6,7 UV-I 190 W/m 6,1 C 6,4 km/h (2 Bft)
11.08.2016 12:58 13,9 C 14,0 C 61 % 1024,2 hPa 0,0 mm 3,3 km/h (1 Bft) NW 319 0 min 0,000 mm 6,5 UV-I 190 W/m 6,5 C 8,0 km/h (2 Bft)
11.08.2016 12:59 13,9 C 13,9 C 66 % 1024,2 hPa 0,0 mm 6,0 km/h (2 Bft) N-NW 332 1 min 0,000 mm 6,5 UV-I 889 W/m 7,7 C 9,7 km/h (2 Bft)
11.08.2016 13:00 13,9 C 13,9 C 63 % 1024,2 hPa 0,0 mm 6,9 km/h (2 Bft) NW 317 1 min 0,000 mm 6,5 UV-I 881 W/m 7,0 C 12,9 km/h (3 Bft)
11.08.2016 13:01 14,1 C 14,1 C 65 % 1024,1 hPa 0,0 mm 9,3 km/h (2 Bft) N-NW 332 1 min 0,406 mm 6,5 UV-I 879 W/m 7,6 C 14,5 km/h (3 Bft)
11.08.2016 13:02 14,1 C 14,1 C 64 % 1024,1 hPa 0,0 mm 5,6 km/h (1 Bft) NW 313 1 min 0,000 mm 6,4 UV-I 875 W/m 7,4 C 11,3 km/h (2 Bft)
11.08.2016 13:03 14,2 C 14,2 C 67 % 1024,2 hPa 0,0 mm 4,1 km/h (1 Bft) W-SW 256 1 min 0,000 mm 6,4 UV-I 875 W/m 8,2 C 6,4 km/h (2 Bft)
11.08.2016 13:04 14,2 C 14,2 C 64 % 1024,2 hPa 0,0 mm 6,2 km/h (2 Bft) W 259 1 min 0,000 mm 6,4 UV-I 868 W/m 7,5 C 12,9 km/h (3 Bft)
11.08.2016 13:05 14,3 C 14,3 C 67 % 1024,2 hPa 0,0 mm 10,0 km/h (2 Bft) W 269 1 min 0,000 mm 6,4 UV-I 872 W/m 8,3 C 14,5 km/h (3 Bft)
11.08.2016 13:06 14,4 C 14,4 C 67 % 1024,1 hPa 0,0 mm 7,4 km/h (2 Bft) W-SW 252 1 min 0,000 mm 6,5 UV-I 877 W/m 8,4 C 14,5 km/h (3 Bft)
11.08.2016 13:07 14,5 C 14,5 C 66 % 1024,1 hPa 0,0 mm 13,1 km/h (3 Bft) SW 235 1 min 0,000 mm 6,4 UV-I 882 W/m 8,2 C 19,3 km/h (3 Bft)
11.08.2016 13:08 14,4 C 14,6 C 62 % 1024,1 hPa 0,0 mm 10,3 km/h (2 Bft) W-NW 290 1 min 0,000 mm 6,5 UV-I 884 W/m 7,2 C 17,7 km/h (3 Bft)
11.08.2016 13:09 14,3 C 14,4 C 64 % 1024,1 hPa 0,0 mm 7,9 km/h (2 Bft) W 269 1 min 0,000 mm 6,5 UV-I 886 W/m 7,6 C 12,9 km/h (3 Bft)
11.08.2016 13:10 14,2 C 14,3 C 61 % 1024,1 hPa 0,0 mm 9,1 km/h (2 Bft) W 281 1 min 0,000 mm 6,5 UV-I 888 W/m 6,8 C 16,1 km/h (3 Bft)
11.08.2016 13:11 14,1 C 14,2 C 65 % 1024,1 hPa 0,0 mm 9,3 km/h (2 Bft) NW 313 1 min 0,000 mm 6,5 UV-I 893 W/m 7,6 C 12,9 km/h (3 Bft)
11.08.2016 13:12 14,2 C 14,2 C 65 % 1024,1 hPa 0,0 mm 3,4 km/h (1 Bft) W-SW 240 1 min 0,000 mm 6,6 UV-I 905 W/m 7,7 C 4,8 km/h (1 Bft)
11.08.2016 13:14 14,3 C 14,3 C 63 % 1024,0 hPa 0,0 mm 4,2 km/h (1 Bft) SW 221 2 min 0,000 mm 6,6 UV-I 930 W/m 7,4 C 9,7 km/h (2 Bft)
11.08.2016 13:15 14,2 C 14,3 C 64 % 1024,0 hPa 0,0 mm 0,9 km/h (0 Bft) SW 215 1 min 0,000 mm 6,7 UV-I 942 W/m 7,5 C 1,6 km/h (1 Bft)
11.08.2016 13:16 14,3 C 14,3 C 70 % 1024,1 hPa 0,0 mm 5,7 km/h (1 Bft) W-NW 301 1 min 0,000 mm 6,7 UV-I 953 W/m 8,9 C 9,7 km/h (2 Bft)
11.08.2016 13:17 14,6 C 14,6 C 67 % 1024,1 hPa 0,0 mm 8,9 km/h (2 Bft) NW 310 1 min 0,000 mm 6,8 UV-I 998 W/m 8,5 C 12,9 km/h (3 Bft)
11.08.2016 13:18 14,7 C 14,7 C 63 % 1024,1 hPa 0,0 mm 7,5 km/h (2 Bft) N 355 1 min 0,000 mm 4,0 UV-I 998 W/m 7,7 C 12,9 km/h (3 Bft)
11.08.2016 13:19 14,7 C 14,7 C 63 % 1024,1 hPa 0,0 mm 4,5 km/h (1 Bft) W-NW 298 0 min 0,000 mm 3,5 UV-I 241 W/m 7,7 C 9,7 km/h (2 Bft)
11.08.2016 13:20 14,4 C 14,7 C 62 % 1024,1 hPa 0,0 mm 10,1 km/h (2 Bft) NW 319 0 min 0,000 mm 3,3 UV-I 229 W/m 7,2 C 14,5 km/h (3 Bft)
11.08.2016 13:21 14,2 C 14,4 C 63 % 1024,1 hPa 0,0 mm 10,3 km/h (2 Bft) W-NW 284 0 min 0,000 mm 5,4 UV-I 229 W/m 7,3 C 16,1 km/h (3 Bft)
11.08.2016 13:22 14,1 C 14,2 C 62 % 1024,1 hPa 0,0 mm 6,6 km/h (2 Bft) W-NW 286 0 min 0,000 mm 6,6 UV-I 229 W/m 6,9 C 11,3 km/h (2 Bft)
11.08.2016 13:23 14,1 C 14,1 C 62 % 1024,0 hPa 0,0 mm 8,0 km/h (2 Bft) W-NW 288 1 min 0,000 mm 6,5 UV-I 954 W/m 6,9 C 12,9 km/h (3 Bft)
11.08.2016 13:24 14,2 C 14,2 C 64 % 1024,0 hPa 0,0 mm 11,2 km/h (2 Bft) NW 307 1 min 0,000 mm 6,4 UV-I 967 W/m 7,5 C 17,7 km/h (3 Bft)
11.08.2016 13:25 14,3 C 14,3 C 63 % 1024,0 hPa 0,0 mm 9,2 km/h (2 Bft) NW 319 1 min 0,000 mm 6,4 UV-I 956 W/m 7,4 C 12,9 km/h (3 Bft)
11.08.2016 13:26 14,5 C 14,5 C 65 % 1024,0 hPa 0,0 mm 8,8 km/h (2 Bft) W-SW 249 1 min 0,000 mm 6,6 UV-I 965 W/m 8,0 C 14,5 km/h (3 Bft)
11.08.2016 13:27 14,5 C 14,6 C 63 % 1024,0 hPa 0,0 mm 11,9 km/h (2 Bft) W-NW 292 1 min 0,000 mm 6,5 UV-I 965 W/m 7,5 C 17,7 km/h (3 Bft)
11.08.2016 13:28 14,5 C 14,6 C 64 % 1024,0 hPa 0,0 mm 7,0 km/h (2 Bft) W-NW 291 1 min 0,000 mm 6,5 UV-I 919 W/m 7,8 C 12,9 km/h (3 Bft)
11.08.2016 13:29 14,5 C 14,5 C 61 % 1024,0 hPa 0,0 mm 7,8 km/h (2 Bft) W 277 1 min 0,000 mm 6,5 UV-I 916 W/m 7,1 C 12,9 km/h (3 Bft)
11.08.2016 13:30 14,7 C 14,7 C 66 % 1024,0 hPa 0,0 mm 9,9 km/h (2 Bft) NW 321 1 min 0,000 mm 6,4 UV-I 907 W/m 8,4 C 16,1 km/h (3 Bft)
11.08.2016 13:31 14,7 C 14,7 C 63 % 1024,0 hPa 0,0 mm 5,5 km/h (1 Bft) W-NW 300 1 min 0,000 mm 6,5 UV-I 907 W/m 7,7 C 11,3 km/h (2 Bft)
11.08.2016 13:32 14,8 C 14,8 C 63 % 1024,0 hPa 0,0 mm 6,4 km/h (2 Bft) W 261 1 min 0,000 mm 6,5 UV-I 912 W/m 7,8 C 11,3 km/h (2 Bft)
11.08.2016 13:33 14,8 C 14,8 C 63 % 1024,0 hPa 0,0 mm 9,4 km/h (2 Bft) NW 309 1 min 0,000 mm 6,6 UV-I 919 W/m 7,8 C 14,5 km/h (3 Bft)
11.08.2016 13:34 14,9 C 14,9 C 66 % 1024,0 hPa 0,0 mm 9,3 km/h (2 Bft) NW 322 1 min 0,000 mm 6,7 UV-I 919 W/m 8,6 C 12,9 km/h (3 Bft)
11.08.2016 13:35 14,9 C 14,9 C 67 % 1024,0 hPa 0,0 mm 10,6 km/h (2 Bft) W-NW 296 1 min 0,000 mm 6,7 UV-I 919 W/m 8,8 C 14,5 km/h (3 Bft)
11.08.2016 13:36 14,9 C 14,9 C 64 % 1024,0 hPa 0,0 mm 10,9 km/h (2 Bft) W-SW 250 1 min 0,000 mm 6,6 UV-I 933 W/m 8,2 C 14,5 km/h (3 Bft)
11.08.2016 13:37 14,8 C 14,9 C 63 % 1024,0 hPa 0,0 mm 7,6 km/h (2 Bft) S 184 1 min 0,000 mm 6,6 UV-I 949 W/m 7,8 C 12,9 km/h (3 Bft)
11.08.2016 13:38 14,9 C 14,9 C 64 % 1024,0 hPa 0,0 mm 4,8 km/h (1 Bft) W 277 1 min 0,000 mm 5,2 UV-I 949 W/m 8,2 C 9,7 km/h (2 Bft)
11.08.2016 13:39 15,0 C 15,0 C 68 % 1024,0 hPa 0,0 mm 8,3 km/h (2 Bft) W-SW 241 1 min 0,000 mm 6,8 UV-I 949 W/m 9,1 C 14,5 km/h (3 Bft)
11.08.2016 13:40 15,1 C 15,1 C 65 % 1024,0 hPa 0,0 mm 7,4 km/h (2 Bft) NW 305 1 min 0,000 mm 6,8 UV-I 988 W/m 8,6 C 11,3 km/h (2 Bft)
11.08.2016 13:41 15,1 C 15,1 C 66 % 1024,0 hPa 0,0 mm 8,8 km/h (2 Bft) W-NW 297 1 min 0,000 mm 6,9 UV-I 1007 W/m 8,8 C 14,5 km/h (3 Bft)
11.08.2016 13:42 15,1 C 15,1 C 61 % 1024,0 hPa 0,0 mm 11,7 km/h (2 Bft) W-SW 245 1 min 0,000 mm 6,9 UV-I 1014 W/m 7,6 C 14,5 km/h (3 Bft)
11.08.2016 13:43 15,0 C 15,1 C 62 % 1024,0 hPa 0,0 mm 9,0 km/h (2 Bft) W-NW 296 1 min 0,000 mm 6,8 UV-I 1005 W/m 7,8 C 12,9 km/h (3 Bft)
11.08.2016 13:44 15,0 C 15,0 C 61 % 1023,9 hPa 0,0 mm 5,3 km/h (1 Bft) N-NW 346 1 min 0,000 mm 6,7 UV-I 1000 W/m 7,5 C 11,3 km/h (2 Bft)
11.08.2016 13:45 15,1 C 15,1 C 65 % 1023,9 hPa 0,0 mm 8,2 km/h (2 Bft) W-SW 257 1 min 0,000 mm 6,6 UV-I 967 W/m 8,6 C 17,7 km/h (3 Bft)
11.08.2016 13:46 15,2 C 15,2 C 69 % 1023,9 hPa 0,0 mm 9,1 km/h (2 Bft) SW 230 1 min 0,000 mm 6,6 UV-I 896 W/m 9,6 C 14,5 km/h (3 Bft)
11.08.2016 13:47 15,1 C 15,2 C 60 % 1024,0 hPa 0,0 mm 8,4 km/h (2 Bft) W-SW 242 1 min 0,000 mm 3,2 UV-I 896 W/m 7,4 C 12,9 km/h (3 Bft)
11.08.2016 13:48 14,9 C 15,1 C 64 % 1023,9 hPa 0,0 mm 10,5 km/h (2 Bft) W 269 1 min 0,000 mm 3,5 UV-I 896 W/m 8,2 C 16,1 km/h (3 Bft)
11.08.2016 13:49 14,7 C 14,9 C 62 % 1023,9 hPa 0,0 mm 8,8 km/h (2 Bft) W 268 0 min 0,000 mm 3,5 UV-I 246 W/m 7,5 C 12,9 km/h (3 Bft)
11.08.2016 13:50 14,5 C 14,7 C 62 % 1023,9 hPa 0,0 mm 7,8 km/h (2 Bft) W-SW 257 0 min 0,000 mm 3,3 UV-I 281 W/m 7,3 C 12,9 km/h (3 Bft)
11.08.2016 13:51 14,3 C 14,5 C 63 % 1023,9 hPa 0,0 mm 5,3 km/h (1 Bft) S-SW 211 0 min 0,000 mm 4,2 UV-I 281 W/m 7,4 C 12,9 km/h (3 Bft)
11.08.2016 13:52 14,3 C 14,3 C 67 % 1023,9 hPa 0,0 mm 5,2 km/h (1 Bft) S-SW 194 0 min 0,000 mm 3,8 UV-I 281 W/m 8,3 C 8,0 km/h (2 Bft)
11.08.2016 13:53 14,2 C 14,3 C 63 % 1023,8 hPa 0,0 mm 3,2 km/h (1 Bft) S-SO 163 0 min 0,000 mm 6,6 UV-I 281 W/m 7,3 C 6,4 km/h (2 Bft)
11.08.2016 13:54 14,3 C 14,3 C 70 % 1023,8 hPa 0,0 mm 9,6 km/h (2 Bft) W 268 1 min 0,000 mm 6,6 UV-I 1081 W/m 8,9 C 16,1 km/h (3 Bft)
11.08.2016 13:55 14,6 C 14,6 C 66 % 1023,9 hPa 0,0 mm 8,9 km/h (2 Bft) W-SW 246 1 min 0,000 mm 6,6 UV-I 1028 W/m 8,3 C 12,9 km/h (3 Bft)
11.08.2016 13:56 14,7 C 14,7 C 65 % 1023,9 hPa 0,0 mm 9,0 km/h (2 Bft) W 263 1 min 0,000 mm 6,5 UV-I 939 W/m 8,2 C 12,9 km/h (3 Bft)
11.08.2016 13:57 14,8 C 14,8 C 68 % 1023,9 hPa 0,0 mm 7,8 km/h (2 Bft) W-SW 246 1 min 0,000 mm 6,7 UV-I 888 W/m 9,0 C 12,9 km/h (3 Bft)
11.08.2016 13:58 14,9 C 14,9 C 67 % 1023,9 hPa 0,0 mm 11,7 km/h (2 Bft) W-SW 242 1 min 0,000 mm 6,7 UV-I 888 W/m 8,8 C 14,5 km/h (3 Bft)
11.08.2016 13:59 14,9 C 14,9 C 63 % 1023,9 hPa 0,0 mm 9,9 km/h (2 Bft) W-NW 285 1 min 0,000 mm 6,6 UV-I 888 W/m 7,9 C 12,9 km/h (3 Bft)
11.08.2016 14:00 14,8 C 14,9 C 61 % 1023,9 hPa 0,0 mm 6,4 km/h (2 Bft) W-NW 288 1 min 0,000 mm 3,6 UV-I 888 W/m 7,4 C 12,9 km/h (3 Bft)
11.08.2016 14:01 14,6 C 14,8 C 64 % 1023,9 hPa 0,0 mm 5,0 km/h (1 Bft) W-SW 253 1 min 0,457 mm 3,1 UV-I 888 W/m 7,9 C 8,0 km/h (2 Bft)
11.08.2016 14:02 14,5 C 14,7 C 66 % 1023,9 hPa 0,0 mm 3,5 km/h (1 Bft) NW 318 0 min 0,000 mm 3,1 UV-I 197 W/m 8,2 C 6,4 km/h (2 Bft)
11.08.2016 14:03 14,3 C 14,5 C 64 % 1024,0 hPa 0,0 mm 3,7 km/h (1 Bft) W-NW 291 0 min 0,000 mm 3,4 UV-I 199 W/m 7,6 C 4,8 km/h (1 Bft)
11.08.2016 14:04 14,3 C 14,3 C 65 % 1024,0 hPa 0,0 mm 4,0 km/h (1 Bft) NW 319 0 min 0,000 mm 4,7 UV-I 199 W/m 7,8 C 6,4 km/h (2 Bft)
11.08.2016 14:05 14,2 C 14,3 C 68 % 1024,0 hPa 0,0 mm 5,7 km/h (1 Bft) W-NW 292 0 min 0,000 mm 4,0 UV-I 199 W/m 8,4 C 12,9 km/h (3 Bft)
11.08.2016 14:06 14,2 C 14,2 C 66 % 1024,1 hPa 0,0 mm 8,1 km/h (2 Bft) W-NW 288 0 min 0,000 mm 3,5 UV-I 199 W/m 7,9 C 12,9 km/h (3 Bft)
11.08.2016 14:07 14,2 C 14,2 C 64 % 1024,0 hPa 0,0 mm 8,6 km/h (2 Bft) W-NW 292 1 min 0,000 mm 6,2 UV-I 904 W/m 7,5 C 16,1 km/h (3 Bft)
11.08.2016 14:08 14,2 C 14,2 C 65 % 1024,0 hPa 0,0 mm 9,5 km/h (2 Bft) S-SW 200 1 min 0,000 mm 6,2 UV-I 893 W/m 7,7 C 14,5 km/h (3 Bft)
11.08.2016 14:09 14,4 C 14,4 C 68 % 1024,0 hPa 0,0 mm 5,8 km/h (2 Bft) SW 233 1 min 0,000 mm 6,2 UV-I 891 W/m 8,6 C 9,7 km/h (2 Bft)
11.08.2016 14:10 14,4 C 14,4 C 65 % 1024,0 hPa 0,0 mm 9,3 km/h (2 Bft) W-NW 298 1 min 0,000 mm 6,2 UV-I 888 W/m 7,9 C 12,9 km/h (3 Bft)
11.08.2016 14:11 14,7 C 14,7 C 67 % 1024,0 hPa 0,0 mm 4,9 km/h (1 Bft) W-SW 247 1 min 0,000 mm 6,2 UV-I 884 W/m 8,6 C 11,3 km/h (2 Bft)
11.08.2016 14:12 14,8 C 14,8 C 66 % 1024,0 hPa 0,0 mm 8,4 km/h (2 Bft) W 278 1 min 0,000 mm 6,2 UV-I 886 W/m 8,5 C 11,3 km/h (2 Bft)
11.08.2016 14:13 14,8 C 14,8 C 66 % 1024,0 hPa 0,0 mm 5,8 km/h (2 Bft) NW 315 1 min 0,000 mm 6,2 UV-I 902 W/m 8,5 C 11,3 km/h (2 Bft)
11.08.2016 14:14 14,9 C 14,9 C 65 % 1024,0 hPa 0,0 mm 6,6 km/h (2 Bft) NW 304 1 min 0,000 mm 6,3 UV-I 914 W/m 8,4 C 11,3 km/h (2 Bft)
11.08.2016 14:15 15,1 C 15,1 C 65 % 1024,0 hPa 0,0 mm 6,0 km/h (2 Bft) W-NW 283 1 min 0,000 mm 6,3 UV-I 919 W/m 8,6 C 11,3 km/h (2 Bft)
11.08.2016 14:16 15,1 C 15,1 C 60 % 1024,0 hPa 0,0 mm 7,2 km/h (2 Bft) NW 321 1 min 0,000 mm 6,3 UV-I 928 W/m 7,4 C 9,7 km/h (2 Bft)
11.08.2016 14:17 15,1 C 15,1 C 59 % 1023,9 hPa 0,0 mm 5,1 km/h (1 Bft) W-NW 296 1 min 0,000 mm 6,3 UV-I 932 W/m 7,1 C 9,7 km/h (2 Bft)
11.08.2016 14:18 15,0 C 15,1 C 61 % 1023,9 hPa 0,0 mm 9,0 km/h (2 Bft) W 272 1 min 0,000 mm 6,3 UV-I 939 W/m 7,5 C 12,9 km/h (3 Bft)
11.08.2016 14:19 14,8 C 15,0 C 60 % 1024,0 hPa 0,0 mm 6,8 km/h (2 Bft) SW 227 1 min 0,000 mm 3,3 UV-I 939 W/m 7,1 C 9,7 km/h (2 Bft)
11.08.2016 14:20 14,8 C 14,8 C 60 % 1023,9 hPa 0,0 mm 11,8 km/h (2 Bft) W 271 1 min 0,000 mm 6,2 UV-I 939 W/m 7,1 C 17,7 km/h (3 Bft)
11.08.2016 14:21 14,8 C 14,8 C 66 % 1023,9 hPa 0,0 mm 5,6 km/h (1 Bft) NW 320 1 min 0,000 mm 6,4 UV-I 998 W/m 8,5 C 9,7 km/h (2 Bft)
11.08.2016 14:22 14,9 C 14,9 C 66 % 1023,9 hPa 0,0 mm 5,3 km/h (1 Bft) NW 314 1 min 0,000 mm 6,3 UV-I 998 W/m 8,6 C 14,5 km/h (3 Bft)
11.08.2016 14:23 15,1 C 15,1 C 62 % 1023,9 hPa 0,0 mm 11,7 km/h (2 Bft) NW 325 1 min 0,000 mm 6,3 UV-I 902 W/m 7,9 C 14,5 km/h (3 Bft)
11.08.2016 14:24 15,2 C 15,2 C 65 % 1023,9 hPa 0,0 mm 7,6 km/h (2 Bft) NW 306 1 min 0,000 mm 6,3 UV-I 907 W/m 8,7 C 12,9 km/h (3 Bft)
11.08.2016 14:25 15,2 C 15,2 C 60 % 1023,9 hPa 0,0 mm 6,2 km/h (2 Bft) N-NW 341 1 min 0,000 mm 6,3 UV-I 895 W/m 7,5 C 12,9 km/h (3 Bft)
11.08.2016 14:26 15,2 C 15,2 C 62 % 1023,9 hPa 0,0 mm 6,4 km/h (2 Bft) NW 308 1 min 0,000 mm 6,1 UV-I 882 W/m 8,0 C 9,7 km/h (2 Bft)
11.08.2016 14:27 15,2 C 15,2 C 61 % 1023,8 hPa 0,0 mm 8,7 km/h (2 Bft) NW 325 1 min 0,000 mm 6,2 UV-I 886 W/m 7,7 C 14,5 km/h (3 Bft)
11.08.2016 14:28 15,3 C 15,3 C 63 % 1023,8 hPa 0,0 mm 7,1 km/h (2 Bft) NW 304 1 min 0,000 mm 6,2 UV-I 898 W/m 8,3 C 12,9 km/h (3 Bft)
11.08.2016 14:29 15,4 C 15,4 C 63 % 1023,8 hPa 0,0 mm 12,4 km/h (3 Bft) W-NW 282 1 min 0,000 mm 6,3 UV-I 937 W/m 8,4 C 16,1 km/h (3 Bft)
11.08.2016 14:30 15,3 C 15,4 C 58 % 1023,8 hPa 0,0 mm 10,1 km/h (2 Bft) W-NW 303 0 min 0,000 mm 3,6 UV-I 244 W/m 7,1 C 14,5 km/h (3 Bft)
11.08.2016 14:31 15,2 C 15,3 C 58 % 1023,8 hPa 0,0 mm 8,9 km/h (2 Bft) W-NW 283 0 min 0,000 mm 6,2 UV-I 244 W/m 7,0 C 12,9 km/h (3 Bft)
11.08.2016 14:32 15,1 C 15,2 C 59 % 1023,8 hPa 0,0 mm 8,4 km/h (2 Bft) W-NW 286 0 min 0,000 mm 3,2 UV-I 244 W/m 7,1 C 12,9 km/h (3 Bft)
11.08.2016 14:33 15,0 C 15,1 C 59 % 1023,8 hPa 0,0 mm 5,9 km/h (2 Bft) W-NW 294 0 min 0,000 mm 5,7 UV-I 244 W/m 7,1 C 9,7 km/h (2 Bft)
11.08.2016 14:34 14,9 C 15,0 C 60 % 1023,8 hPa 0,0 mm 4,1 km/h (1 Bft) NW 310 0 min 0,000 mm 3,6 UV-I 244 W/m 7,2 C 6,4 km/h (2 Bft)
11.08.2016 14:35 14,9 C 14,9 C 60 % 1023,8 hPa 0,0 mm 6,6 km/h (2 Bft) W 268 0 min 0,000 mm 3,4 UV-I 313 W/m 7,2 C 12,9 km/h (3 Bft)
11.08.2016 14:36 14,9 C 14,9 C 59 % 1023,8 hPa 0,0 mm 7,7 km/h (2 Bft) W-NW 287 0 min 0,000 mm 3,3 UV-I 304 W/m 7,0 C 11,3 km/h (2 Bft)
11.08.2016 14:37 14,8 C 14,9 C 61 % 1023,8 hPa 0,0 mm 5,7 km/h (1 Bft) W-SW 249 0 min 0,000 mm 3,9 UV-I 304 W/m 7,4 C 11,3 km/h (2 Bft)
11.08.2016 14:38 14,8 C 14,9 C 64 % 1023,8 hPa 0,0 mm 12,6 km/h (3 Bft) W 262 0 min 0,000 mm 3,2 UV-I 327 W/m 8,1 C 16,1 km/h (3 Bft)
11.08.2016 14:39 14,8 C 14,9 C 61 % 1023,8 hPa 0,0 mm 8,4 km/h (2 Bft) W 259 0 min 0,000 mm 3,7 UV-I 327 W/m 7,4 C 14,5 km/h (3 Bft)
11.08.2016 14:40 14,8 C 14,8 C 62 % 1023,8 hPa 0,0 mm 8,2 km/h (2 Bft) W 269 0 min 0,000 mm 3,2 UV-I 327 W/m 7,6 C 12,9 km/h (3 Bft)
11.08.2016 14:41 14,7 C 14,8 C 58 % 1023,8 hPa 0,0 mm 9,1 km/h (2 Bft) W-SW 254 0 min 0,000 mm 3,0 UV-I 290 W/m 6,5 C 12,9 km/h (3 Bft)
11.08.2016 14:42 14,5 C 14,7 C 59 % 1023,7 hPa 0,0 mm 4,2 km/h (1 Bft) W-NW 288 0 min 0,000 mm 2,9 UV-I 244 W/m 6,6 C 9,7 km/h (2 Bft)
11.08.2016 14:43 14,4 C 14,5 C 60 % 1023,7 hPa 0,0 mm 3,5 km/h (1 Bft) W 278 0 min 0,000 mm 2,6 UV-I 229 W/m 6,7 C 4,8 km/h (1 Bft)
11.08.2016 14:44 14,3 C 14,4 C 60 % 1023,7 hPa 0,0 mm 4,3 km/h (1 Bft) W 261 0 min 0,000 mm 2,5 UV-I 216 W/m 6,6 C 9,7 km/h (2 Bft)
11.08.2016 14:45 14,3 C 14,3 C 66 % 1023,8 hPa 0,0 mm 6,6 km/h (2 Bft) W-SW 252 0 min 0,000 mm 2,5 UV-I 179 W/m 8,0 C 9,7 km/h (2 Bft)
11.08.2016 14:46 14,2 C 14,3 C 63 % 1023,8 hPa 0,0 mm 4,4 km/h (1 Bft) W 277 0 min 0,000 mm 2,4 UV-I 209 W/m 7,3 C 6,4 km/h (2 Bft)
11.08.2016 14:47 14,2 C 14,2 C 65 % 1023,8 hPa 0,0 mm 6,0 km/h (2 Bft) W-NW 284 0 min 0,000 mm 2,3 UV-I 207 W/m 7,7 C 11,3 km/h (2 Bft)
11.08.2016 14:48 14,2 C 14,2 C 63 % 1023,8 hPa 0,0 mm 8,1 km/h (2 Bft) W-SW 251 0 min 0,000 mm 2,2 UV-I 211 W/m 7,3 C 11,3 km/h (2 Bft)
11.08.2016 14:49 14,1 C 14,2 C 63 % 1023,8 hPa 0,0 mm 9,0 km/h (2 Bft) NW 311 0 min 0,000 mm 2,3 UV-I 216 W/m 7,2 C 16,1 km/h (3 Bft)
11.08.2016 14:50 14,1 C 14,1 C 61 % 1023,8 hPa 0,0 mm 10,6 km/h (2 Bft) W-NW 292 0 min 0,000 mm 2,4 UV-I 230 W/m 6,7 C 14,5 km/h (3 Bft)
11.08.2016 14:51 14,1 C 14,1 C 65 % 1023,8 hPa 0,0 mm 6,4 km/h (2 Bft) W-NW 284 0 min 0,000 mm 2,5 UV-I 246 W/m 7,6 C 11,3 km/h (2 Bft)
11.08.2016 14:52 14,1 C 14,1 C 67 % 1023,8 hPa 0,0 mm 6,9 km/h (2 Bft) W-NW 296 0 min 0,000 mm 2,9 UV-I 281 W/m 8,1 C 11,3 km/h (2 Bft)
11.08.2016 14:53 14,1 C 14,1 C 66 % 1023,8 hPa 0,0 mm 5,1 km/h (1 Bft) NW 304 1 min 0,000 mm 3,1 UV-I 457 W/m 7,8 C 6,4 km/h (2 Bft)
11.08.2016 14:54 14,2 C 14,2 C 64 % 1023,8 hPa 0,0 mm 6,9 km/h (2 Bft) W 281 0 min 0,000 mm 3,0 UV-I 399 W/m 7,5 C 12,9 km/h (3 Bft)
11.08.2016 14:55 14,4 C 14,4 C 65 % 1023,8 hPa 0,0 mm 8,5 km/h (2 Bft) W 280 0 min 0,000 mm 3,6 UV-I 399 W/m 7,9 C 12,9 km/h (3 Bft)
11.08.2016 14:56 14,4 C 14,4 C 66 % 1023,8 hPa 0,0 mm 8,2 km/h (2 Bft) W 261 0 min 0,000 mm 3,2 UV-I 399 W/m 8,1 C 11,3 km/h (2 Bft)
11.08.2016 14:57 14,4 C 14,4 C 60 % 1023,9 hPa 0,0 mm 8,8 km/h (2 Bft) W-SW 250 0 min 0,000 mm 3,1 UV-I 309 W/m 6,7 C 12,9 km/h (3 Bft)
11.08.2016 14:58 14,3 C 14,4 C 59 % 1023,9 hPa 0,0 mm 5,4 km/h (1 Bft) W 271 0 min 0,000 mm 3,7 UV-I 348 W/m 6,4 C 11,3 km/h (2 Bft)
11.08.2016 14:59 14,3 C 14,3 C 61 % 1023,9 hPa 0,0 mm 5,4 km/h (1 Bft) W 275 0 min 0,000 mm 5,5 UV-I 348 W/m 6,9 C 9,7 km/h (2 Bft)
11.08.2016 15:00 14,3 C 14,3 C 62 % 1023,8 hPa 0,0 mm 7,2 km/h (2 Bft) W-NW 288 0 min 0,000 mm 5,6 UV-I 348 W/m 7,1 C 12,9 km/h (3 Bft)
11.08.2016 15:01 14,4 C 14,4 C 64 % 1023,9 hPa 0,0 mm 6,9 km/h (2 Bft) W-NW 292 1 min 0,330 mm 5,6 UV-I 898 W/m 7,7 C 12,9 km/h (3 Bft)
11.08.2016 15:02 14,5 C 14,5 C 63 % 1023,9 hPa 0,0 mm 5,4 km/h (1 Bft) NW 307 1 min 0,001 mm 5,5 UV-I 844 W/m 7,5 C 11,3 km/h (2 Bft)
11.08.2016 15:03 14,7 C 14,7 C 64 % 1023,9 hPa 0,0 mm 7,5 km/h (2 Bft) W-NW 289 1 min 0,000 mm 5,5 UV-I 849 W/m 8,0 C 11,3 km/h (2 Bft)
11.08.2016 15:04 14,9 C 14,9 C 62 % 1023,8 hPa 0,0 mm 6,3 km/h (2 Bft) W-NW 295 1 min 0,000 mm 5,4 UV-I 849 W/m 7,7 C 9,7 km/h (2 Bft)
11.08.2016 15:05 14,9 C 14,9 C 62 % 1023,9 hPa 0,0 mm 7,3 km/h (2 Bft) W-SW 242 1 min 0,000 mm 5,3 UV-I 803 W/m 7,7 C 11,3 km/h (2 Bft)
11.08.2016 15:06 14,8 C 14,9 C 59 % 1023,9 hPa 0,0 mm 6,6 km/h (2 Bft) W-SW 258 1 min 0,000 mm 5,3 UV-I 803 W/m 6,9 C 12,9 km/h (3 Bft)
11.08.2016 15:07 14,8 C 14,8 C 63 % 1023,8 hPa 0,0 mm 5,8 km/h (2 Bft) NW 306 1 min 0,000 mm 5,3 UV-I 800 W/m 7,8 C 11,3 km/h (2 Bft)
11.08.2016 15:08 14,8 C 14,8 C 61 % 1023,8 hPa 0,0 mm 4,8 km/h (1 Bft) N-NW 338 1 min 0,000 mm 5,3 UV-I 800 W/m 7,4 C 8,0 km/h (2 Bft)
11.08.2016 15:09 14,8 C 14,8 C 60 % 1023,8 hPa 0,0 mm 5,7 km/h (1 Bft) W-NW 300 1 min 0,000 mm 5,3 UV-I 800 W/m 7,1 C 8,0 km/h (2 Bft)
11.08.2016 15:10 14,9 C 14,9 C 62 % 1023,8 hPa 0,0 mm 7,0 km/h (2 Bft) W-SW 244 1 min 0,000 mm 5,3 UV-I 809 W/m 7,7 C 9,7 km/h (2 Bft)
11.08.2016 15:11 14,9 C 14,9 C 60 % 1023,9 hPa 0,0 mm 8,2 km/h (2 Bft) W 271 1 min 0,000 mm 5,3 UV-I 826 W/m 7,2 C 11,3 km/h (2 Bft)
11.08.2016 15:12 15,0 C 15,0 C 65 % 1023,9 hPa 0,0 mm 4,1 km/h (1 Bft) W-NW 288 1 min 0,000 mm 5,3 UV-I 830 W/m 8,5 C 6,4 km/h (2 Bft)
11.08.2016 15:13 14,9 C 15,0 C 57 % 1023,9 hPa 0,0 mm 6,3 km/h (2 Bft) W 279 1 min 0,000 mm 5,3 UV-I 833 W/m 6,5 C 9,7 km/h (2 Bft)
11.08.2016 15:14 14,9 C 14,9 C 55 % 1023,9 hPa 0,0 mm 4,5 km/h (1 Bft) W-SW 237 1 min 0,000 mm 5,4 UV-I 840 W/m 5,9 C 6,4 km/h (2 Bft)
11.08.2016 15:15 15,2 C 15,2 C 63 % 1023,9 hPa 0,0 mm 2,9 km/h (1 Bft) W-SW 246 1 min 0,000 mm 5,4 UV-I 846 W/m 8,2 C 4,8 km/h (1 Bft)
11.08.2016 15:16 15,2 C 15,2 C 56 % 1023,9 hPa 0,0 mm 2,7 km/h (1 Bft) SW 234 1 min 0,000 mm 5,4 UV-I 849 W/m 6,5 C 4,8 km/h (1 Bft)
11.08.2016 15:17 15,1 C 15,2 C 56 % 1023,8 hPa 0,0 mm 1,5 km/h (1 Bft) N-NW 345 1 min 0,000 mm 5,4 UV-I 849 W/m 6,4 C 3,2 km/h (1 Bft)
11.08.2016 15:18 15,1 C 15,1 C 54 % 1023,9 hPa 0,0 mm 6,3 km/h (2 Bft) W-NW 283 1 min 0,000 mm 5,4 UV-I 842 W/m 5,9 C 11,3 km/h (2 Bft)
11.08.2016 15:19 15,2 C 15,2 C 58 % 1023,9 hPa 0,0 mm 3,8 km/h (1 Bft) NW 315 1 min 0,000 mm 5,4 UV-I 838 W/m 7,0 C 6,4 km/h (2 Bft)
11.08.2016 15:20 15,4 C 15,4 C 59 % 1023,8 hPa 0,0 mm 4,6 km/h (1 Bft) W-NW 290 1 min 0,000 mm 4,1 UV-I 838 W/m 7,4 C 8,0 km/h (2 Bft)
11.08.2016 15:21 15,4 C 15,4 C 55 % 1023,9 hPa 0,0 mm 5,4 km/h (1 Bft) S-SW 203 1 min 0,000 mm 5,3 UV-I 838 W/m 6,4 C 12,9 km/h (3 Bft)
11.08.2016 15:22 15,4 C 15,4 C 60 % 1023,9 hPa 0,0 mm 2,5 km/h (1 Bft) W-NW 286 1 min 0,000 mm 5,3 UV-I 826 W/m 7,7 C 4,8 km/h (1 Bft)
11.08.2016 15:23 15,5 C 15,5 C 59 % 1023,9 hPa 0,0 mm 3,6 km/h (1 Bft) NW 319 1 min 0,000 mm 4,9 UV-I 817 W/m 7,5 C 6,4 km/h (2 Bft)
11.08.2016 15:24 15,7 C 15,7 C 63 % 1023,9 hPa 0,0 mm 5,9 km/h (2 Bft) N-NW 329 1 min 0,000 mm 5,3 UV-I 814 W/m 8,7 C 6,4 km/h (2 Bft)
11.08.2016 15:25 15,9 C 15,9 C 61 % 1023,8 hPa 0,0 mm 5,5 km/h (1 Bft) W 281 1 min 0,000 mm 5,3 UV-I 812 W/m 8,4 C 11,3 km/h (2 Bft)
11.08.2016 15:26 15,9 C 15,9 C 56 % 1023,9 hPa 0,0 mm 6,7 km/h (2 Bft) W-NW 292 1 min 0,000 mm 5,2 UV-I 803 W/m 7,1 C 9,7 km/h (2 Bft)
11.08.2016 15:27 15,8 C 15,9 C 58 % 1023,9 hPa 0,0 mm 6,8 km/h (2 Bft) W-SW 246 1 min 0,000 mm 5,2 UV-I 802 W/m 7,6 C 12,9 km/h (3 Bft)
11.08.2016 15:28 15,8 C 15,8 C 61 % 1023,9 hPa 0,0 mm 7,1 km/h (2 Bft) W 265 1 min 0,000 mm 5,2 UV-I 805 W/m 8,3 C 11,3 km/h (2 Bft)
11.08.2016 15:29 15,8 C 15,8 C 62 % 1023,9 hPa 0,0 mm 7,9 km/h (2 Bft) W-NW 294 1 min 0,000 mm 5,1 UV-I 805 W/m 8,5 C 12,9 km/h (3 Bft)
11.08.2016 15:30 15,8 C 15,8 C 58 % 1023,7 hPa 0,0 mm 12,2 km/h (2 Bft) W 273 1 min 0,000 mm 5,2 UV-I 809 W/m 7,6 C 16,1 km/h (3 Bft)
11.08.2016 15:31 15,7 C 15,8 C 56 % 1023,9 hPa 0,0 mm 12,4 km/h (3 Bft) W 265 1 min 0,000 mm 5,2 UV-I 809 W/m 6,9 C 16,1 km/h (3 Bft)
11.08.2016 15:32 15,7 C 15,7 C 59 % 1023,8 hPa 0,0 mm 9,0 km/h (2 Bft) W 264 1 min 0,000 mm 5,1 UV-I 805 W/m 7,7 C 14,5 km/h (3 Bft)
11.08.2016 15:33 15,7 C 15,7 C 59 % 1023,8 hPa 0,0 mm 10,4 km/h (2 Bft) W-SW 240 1 min 0,000 mm 5,1 UV-I 805 W/m 7,7 C 14,5 km/h (3 Bft)
11.08.2016 15:34 15,6 C 15,7 C 58 % 1023,8 hPa 0,0 mm 9,8 km/h (2 Bft) W-NW 285 1 min 0,000 mm 5,0 UV-I 835 W/m 7,4 C 14,5 km/h (3 Bft)
11.08.2016 15:35 15,6 C 15,6 C 62 % 1023,8 hPa 0,0 mm 7,6 km/h (2 Bft) W 274 1 min 0,000 mm 4,5 UV-I 854 W/m 8,3 C 11,3 km/h (2 Bft)
11.08.2016 15:36 15,6 C 15,7 C 57 % 1023,9 hPa 0,0 mm 6,4 km/h (2 Bft) N-NW 345 1 min 0,000 mm 5,1 UV-I 870 W/m 7,1 C 12,9 km/h (3 Bft)
11.08.2016 15:37 15,6 C 15,6 C 59 % 1023,8 hPa 0,0 mm 5,0 km/h (1 Bft) W 260 1 min 0,000 mm 3,8 UV-I 870 W/m 7,6 C 9,7 km/h (2 Bft)
11.08.2016 15:38 15,5 C 15,6 C 60 % 1023,9 hPa 0,0 mm 8,6 km/h (2 Bft) N-NW 339 0 min 0,000 mm 2,4 UV-I 202 W/m 7,8 C 12,9 km/h (3 Bft)
11.08.2016 15:39 15,4 C 15,5 C 60 % 1023,9 hPa 0,0 mm 5,9 km/h (2 Bft) NW 319 0 min 0,000 mm 2,3 UV-I 209 W/m 7,7 C 8,0 km/h (2 Bft)
11.08.2016 15:40 15,3 C 15,4 C 60 % 1023,9 hPa 0,0 mm 7,8 km/h (2 Bft) NW 315 0 min 0,000 mm 2,4 UV-I 232 W/m 7,6 C 11,3 km/h (2 Bft)
11.08.2016 15:41 15,2 C 15,3 C 61 % 1023,9 hPa 0,0 mm 8,0 km/h (2 Bft) N-NO 12 0 min 0,000 mm 2,5 UV-I 294 W/m 7,7 C 12,9 km/h (3 Bft)
11.08.2016 15:42 15,2 C 15,2 C 62 % 1023,9 hPa 0,0 mm 8,0 km/h (2 Bft) NW 309 0 min 0,000 mm 2,3 UV-I 267 W/m 8,0 C 12,9 km/h (3 Bft)
11.08.2016 15:43 15,1 C 15,2 C 64 % 1024,0 hPa 0,0 mm 7,9 km/h (2 Bft) NW 325 0 min 0,000 mm 2,6 UV-I 267 W/m 8,3 C 12,9 km/h (3 Bft)
11.08.2016 15:44 14,9 C 15,1 C 59 % 1024,0 hPa 0,0 mm 10,9 km/h (2 Bft) W-NW 284 0 min 0,000 mm 2,3 UV-I 267 W/m 7,0 C 14,5 km/h (3 Bft)
11.08.2016 15:45 14,8 C 14,9 C 58 % 1024,0 hPa 0,0 mm 7,5 km/h (2 Bft) W-NW 301 0 min 0,000 mm 2,4 UV-I 260 W/m 6,6 C 11,3 km/h (2 Bft)
11.08.2016 15:46 14,7 C 14,8 C 61 % 1023,9 hPa 0,0 mm 4,4 km/h (1 Bft) NW 325 0 min 0,000 mm 2,5 UV-I 378 W/m 7,3 C 6,4 km/h (2 Bft)
11.08.2016 15:47 14,6 C 14,7 C 59 % 1023,9 hPa 0,0 mm 8,2 km/h (2 Bft) W 269 0 min 0,000 mm 2,7 UV-I 290 W/m 6,7 C 12,9 km/h (3 Bft)
11.08.2016 15:48 14,6 C 14,7 C 61 % 1023,9 hPa 0,0 mm 6,2 km/h (2 Bft) NW 309 0 min 0,000 mm 3,0 UV-I 302 W/m 7,2 C 9,7 km/h (2 Bft)
11.08.2016 15:49 14,6 C 14,6 C 61 % 1023,9 hPa 0,0 mm 3,9 km/h (1 Bft) NW 306 0 min 0,000 mm 2,6 UV-I 264 W/m 7,2 C 8,0 km/h (2 Bft)
11.08.2016 15:50 14,6 C 14,6 C 61 % 1023,9 hPa 0,0 mm 4,8 km/h (1 Bft) W-NW 300 0 min 0,000 mm 4,8 UV-I 264 W/m 7,2 C 11,3 km/h (2 Bft)
11.08.2016 15:51 14,7 C 14,7 C 62 % 1023,9 hPa 0,0 mm 8,8 km/h (2 Bft) W 275 0 min 0,000 mm 4,7 UV-I 264 W/m 7,5 C 12,9 km/h (3 Bft)
11.08.2016 15:52 14,8 C 14,8 C 60 % 1023,9 hPa 0,0 mm 6,4 km/h (2 Bft) NW 314 1 min 0,000 mm 4,7 UV-I 802 W/m 7,1 C 11,3 km/h (2 Bft)
11.08.2016 15:53 14,9 C 14,9 C 60 % 1023,9 hPa 0,0 mm 8,9 km/h (2 Bft) W-NW 301 1 min 0,000 mm 4,1 UV-I 791 W/m 7,2 C 14,5 km/h (3 Bft)
11.08.2016 15:54 15,1 C 15,1 C 61 % 1023,9 hPa 0,0 mm 7,1 km/h (2 Bft) N-NW 331 1 min 0,000 mm 3,9 UV-I 782 W/m 7,6 C 14,5 km/h (3 Bft)
11.08.2016 15:55 15,2 C 15,2 C 61 % 1023,8 hPa 0,0 mm 5,6 km/h (1 Bft) W-NW 297 1 min 0,000 mm 4,6 UV-I 773 W/m 7,7 C 12,9 km/h (3 Bft)
11.08.2016 15:56 15,3 C 15,3 C 57 % 1023,9 hPa 0,0 mm 8,1 km/h (2 Bft) W 260 1 min 0,000 mm 3,2 UV-I 782 W/m 6,8 C 12,9 km/h (3 Bft)
11.08.2016 15:57 15,2 C 15,3 C 54 % 1023,9 hPa 0,0 mm 5,9 km/h (2 Bft) W 262 1 min 0,000 mm 3,3 UV-I 782 W/m 6,0 C 11,3 km/h (2 Bft)
11.08.2016 15:58 15,2 C 15,2 C 60 % 1023,8 hPa 0,0 mm 5,4 km/h (1 Bft) W-SW 253 1 min 0,000 mm 4,0 UV-I 780 W/m 7,5 C 8,0 km/h (2 Bft)
11.08.2016 15:59 15,2 C 15,2 C 57 % 1023,8 hPa 0,0 mm 2,8 km/h (1 Bft) NW 308 1 min 0,000 mm 4,3 UV-I 779 W/m 6,7 C 4,8 km/h (1 Bft)
11.08.2016 16:00 15,2 C 15,2 C 57 % 1023,8 hPa 0,0 mm 2,8 km/h (1 Bft) N-NW 336 1 min 0,000 mm 4,3 UV-I 773 W/m 6,7 C 3,2 km/h (1 Bft)
11.08.2016 16:01 15,3 C 15,3 C 61 % 1023,7 hPa 0,0 mm 4,8 km/h (1 Bft) N 355 1 min 0,381 mm 4,1 UV-I 775 W/m 7,8 C 8,0 km/h (2 Bft)
11.08.2016 16:02 15,4 C 15,4 C 59 % 1023,8 hPa 0,0 mm 12,3 km/h (3 Bft) NW 311 1 min 0,000 mm 2,2 UV-I 775 W/m 7,4 C 16,1 km/h (3 Bft)
11.08.2016 16:03 15,5 C 15,5 C 59 % 1023,8 hPa 0,0 mm 8,5 km/h (2 Bft) NW 317 0 min 0,000 mm 2,0 UV-I 137 W/m 7,5 C 14,5 km/h (3 Bft)
11.08.2016 16:04 15,4 C 15,5 C 58 % 1023,8 hPa 0,0 mm 8,6 km/h (2 Bft) NW 306 0 min 0,000 mm 1,9 UV-I 144 W/m 7,2 C 12,9 km/h (3 Bft)
11.08.2016 16:05 15,2 C 15,4 C 62 % 1023,8 hPa 0,0 mm 3,4 km/h (1 Bft) W 277 0 min 0,000 mm 1,8 UV-I 148 W/m 8,0 C 4,8 km/h (1 Bft)
11.08.2016 16:06 15,1 C 15,2 C 58 % 1023,8 hPa 0,0 mm 5,0 km/h (1 Bft) W-NW 292 0 min 0,000 mm 1,7 UV-I 156 W/m 6,9 C 8,0 km/h (2 Bft)
11.08.2016 16:07 14,9 C 15,1 C 59 % 1023,8 hPa 0,0 mm 8,4 km/h (2 Bft) W-SW 252 0 min 0,000 mm 2,0 UV-I 149 W/m 7,0 C 12,9 km/h (3 Bft)
11.08.2016 16:08 14,7 C 14,9 C 59 % 1023,8 hPa 0,0 mm 8,3 km/h (2 Bft) W-SW 249 0 min 0,000 mm 2,0 UV-I 197 W/m 6,8 C 11,3 km/h (2 Bft)
11.08.2016 16:09 14,6 C 14,7 C 57 % 1023,7 hPa 0,0 mm 3,7 km/h (1 Bft) S-SW 212 0 min 0,000 mm 2,0 UV-I 167 W/m 6,2 C 6,4 km/h (2 Bft)
11.08.2016 16:10 14,4 C 14,6 C 56 % 1023,7 hPa 0,0 mm 2,3 km/h (1 Bft) W-NW 296 0 min 0,000 mm 2,0 UV-I 146 W/m 5,7 C 4,8 km/h (1 Bft)
11.08.2016 16:11 14,4 C 14,4 C 60 % 1023,7 hPa 0,0 mm 3,0 km/h (1 Bft) W 269 0 min 0,000 mm 3,4 UV-I 142 W/m 6,7 C 4,8 km/h (1 Bft)
11.08.2016 16:12 14,4 C 14,4 C 60 % 1023,6 hPa 0,0 mm 4,3 km/h (1 Bft) NW 306 0 min 0,000 mm 3,2 UV-I 142 W/m 6,7 C 6,4 km/h (2 Bft)
11.08.2016 16:13 14,4 C 14,4 C 59 % 1023,7 hPa 0,0 mm 6,5 km/h (2 Bft) W 261 0 min 0,000 mm 3,2 UV-I 142 W/m 6,5 C 14,5 km/h (3 Bft)
11.08.2016 16:14 14,4 C 14,4 C 59 % 1023,6 hPa 0,0 mm 7,1 km/h (2 Bft) W-SW 257 0 min 0,000 mm 4,0 UV-I 142 W/m 6,5 C 11,3 km/h (2 Bft)
11.08.2016 16:15 14,6 C 14,6 C 63 % 1023,7 hPa 0,0 mm 6,8 km/h (2 Bft) NW 324 1 min 0,000 mm 4,0 UV-I 538 W/m 7,6 C 11,3 km/h (2 Bft)
11.08.2016 16:16 14,7 C 14,7 C 61 % 1023,6 hPa 0,0 mm 5,6 km/h (1 Bft) W-NW 295 1 min 0,000 mm 4,0 UV-I 610 W/m 7,3 C 8,0 km/h (2 Bft)
11.08.2016 16:17 14,7 C 14,7 C 59 % 1023,6 hPa 0,0 mm 6,0 km/h (2 Bft) W-NW 286 1 min 0,000 mm 2,9 UV-I 610 W/m 6,8 C 9,7 km/h (2 Bft)
11.08.2016 16:18 14,8 C 14,8 C 61 % 1023,6 hPa 0,0 mm 8,5 km/h (2 Bft) W-NW 297 1 min 0,000 mm 2,1 UV-I 610 W/m 7,4 C 12,9 km/h (3 Bft)
11.08.2016 16:19 14,9 C 14,9 C 58 % 1023,6 hPa 0,0 mm 5,3 km/h (1 Bft) N-NW 328 0 min 0,000 mm 2,1 UV-I 97 W/m 6,7 C 8,0 km/h (2 Bft)
11.08.2016 16:20 14,9 C 14,9 C 60 % 1023,6 hPa 0,0 mm 6,8 km/h (2 Bft) W-NW 300 0 min 0,000 mm 2,0 UV-I 77 W/m 7,2 C 12,9 km/h (3 Bft)
11.08.2016 16:21 15,1 C 15,1 C 58 % 1023,6 hPa 0,0 mm 8,6 km/h (2 Bft) W 266 0 min 0,000 mm 1,9 UV-I 74 W/m 6,9 C 12,9 km/h (3 Bft)
11.08.2016 16:22 15,1 C 15,1 C 59 % 1023,6 hPa 0,0 mm 6,4 km/h (2 Bft) W-NW 288 0 min 0,000 mm 2,0 UV-I 72 W/m 7,1 C 11,3 km/h (2 Bft)
11.08.2016 16:23 15,3 C 15,3 C 58 % 1023,6 hPa 0,0 mm 9,6 km/h (2 Bft) W 277 0 min 0,000 mm 2,0 UV-I 74 W/m 7,1 C 12,9 km/h (3 Bft)
11.08.2016 16:24 15,3 C 15,3 C 58 % 1023,6 hPa 0,0 mm 11,8 km/h (2 Bft) W 276 0 min 0,000 mm 2,0 UV-I 77 W/m 7,1 C 16,1 km/h (3 Bft)
11.08.2016 16:25 15,3 C 15,3 C 55 % 1023,7 hPa 0,0 mm 9,6 km/h (2 Bft) W-NW 297 0 min 0,000 mm 2,0 UV-I 86 W/m 6,3 C 17,7 km/h (3 Bft)
11.08.2016 16:26 15,3 C 15,3 C 53 % 1023,6 hPa 0,0 mm 6,6 km/h (2 Bft) W-NW 300 0 min 0,000 mm 2,0 UV-I 86 W/m 5,8 C 11,3 km/h (2 Bft)
11.08.2016 16:27 15,3 C 15,3 C 55 % 1023,6 hPa 0,0 mm 7,0 km/h (2 Bft) W-NW 296 0 min 0,000 mm 1,9 UV-I 74 W/m 6,3 C 11,3 km/h (2 Bft)
11.08.2016 16:28 15,2 C 15,3 C 54 % 1023,6 hPa 0,0 mm 5,0 km/h (1 Bft) NW 308 0 min 0,000 mm 1,9 UV-I 74 W/m 6,0 C 6,4 km/h (2 Bft)
11.08.2016 16:29 15,2 C 15,2 C 55 % 1023,6 hPa 0,0 mm 5,9 km/h (2 Bft) N-NW 331 0 min 0,000 mm 1,9 UV-I 77 W/m 6,2 C 11,3 km/h (2 Bft)
11.08.2016 16:30 15,2 C 15,2 C 57 % 1023,6 hPa 0,0 mm 5,8 km/h (2 Bft) W 260 0 min 0,000 mm 1,9 UV-I 83 W/m 6,7 C 12,9 km/h (3 Bft)
11.08.2016 16:31 15,1 C 15,2 C 57 % 1023,6 hPa 0,0 mm 9,5 km/h (2 Bft) W 275 0 min 0,000 mm 1,9 UV-I 104 W/m 6,6 C 12,9 km/h (3 Bft)
11.08.2016 16:32 15,1 C 15,1 C 53 % 1023,6 hPa 0,0 mm 4,1 km/h (1 Bft) W 281 0 min 0,000 mm 1,9 UV-I 121 W/m 5,6 C 6,4 km/h (2 Bft)
11.08.2016 16:33 15,0 C 15,1 C 55 % 1023,6 hPa 0,0 mm 7,5 km/h (2 Bft) NW 317 0 min 0,000 mm 2,2 UV-I 185 W/m 6,0 C 16,1 km/h (3 Bft)
11.08.2016 16:34 15,0 C 15,0 C 58 % 1023,6 hPa 0,0 mm 11,6 km/h (2 Bft) W-NW 290 0 min 0,000 mm 1,9 UV-I 142 W/m 6,8 C 16,1 km/h (3 Bft)
11.08.2016 16:35 15,1 C 15,1 C 57 % 1023,6 hPa 0,0 mm 10,1 km/h (2 Bft) W-NW 292 0 min 0,000 mm 1,9 UV-I 102 W/m 6,6 C 14,5 km/h (3 Bft)
11.08.2016 16:36 15,3 C 15,3 C 59 % 1023,6 hPa 0,0 mm 9,3 km/h (2 Bft) W-SW 257 0 min 0,000 mm 1,9 UV-I 93 W/m 7,3 C 12,9 km/h (3 Bft)
11.08.2016 16:37 15,4 C 15,4 C 57 % 1023,6 hPa 0,0 mm 8,2 km/h (2 Bft) W 272 0 min 0,000 mm 1,9 UV-I 84 W/m 6,9 C 11,3 km/h (2 Bft)
11.08.2016 16:38 15,4 C 15,4 C 55 % 1023,6 hPa 0,0 mm 10,3 km/h (2 Bft) W-SW 248 0 min 0,000 mm 1,8 UV-I 81 W/m 6,4 C 19,3 km/h (3 Bft)
11.08.2016 16:39 15,4 C 15,4 C 56 % 1023,7 hPa 0,0 mm 7,6 km/h (2 Bft) W-SW 245 0 min 0,000 mm 1,8 UV-I 83 W/m 6,7 C 12,9 km/h (3 Bft)
11.08.2016 16:40 15,4 C 15,4 C 56 % 1023,7 hPa 0,0 mm 7,0 km/h (2 Bft) W 277 0 min 0,000 mm 1,7 UV-I 90 W/m 6,7 C 9,7 km/h (2 Bft)
11.08.2016 16:41 15,3 C 15,4 C 54 % 1023,7 hPa 0,0 mm 5,2 km/h (1 Bft) W 277 0 min 0,000 mm 1,8 UV-I 91 W/m 6,0 C 6,4 km/h (2 Bft)
11.08.2016 16:42 15,4 C 15,4 C 59 % 1023,7 hPa 0,0 mm 6,4 km/h (2 Bft) W-SW 237 0 min 0,000 mm 1,8 UV-I 95 W/m 7,4 C 12,9 km/h (3 Bft)
11.08.2016 16:43 15,4 C 15,4 C 56 % 1023,7 hPa 0,0 mm 7,6 km/h (2 Bft) W-SW 242 0 min 0,000 mm 1,8 UV-I 91 W/m 6,7 C 11,3 km/h (2 Bft)
11.08.2016 16:44 15,5 C 15,5 C 56 % 1023,7 hPa 0,0 mm 4,1 km/h (1 Bft) SW 235 0 min 0,000 mm 1,8 UV-I 84 W/m 6,8 C 9,7 km/h (2 Bft)
11.08.2016 16:45 15,5 C 15,5 C 54 % 1023,7 hPa 0,0 mm 3,0 km/h (1 Bft) S 183 0 min 0,000 mm 1,8 UV-I 84 W/m 6,2 C 4,8 km/h (1 Bft)
11.08.2016 16:46 15,4 C 15,5 C 53 % 1023,7 hPa 0,0 mm 3,7 km/h (1 Bft) NW 311 0 min 0,000 mm 1,8 UV-I 95 W/m 5,9 C 8,0 km/h (2 Bft)
11.08.2016 16:47 15,4 C 15,5 C 56 % 1023,6 hPa 0,0 mm 3,8 km/h (1 Bft) W 271 0 min 0,000 mm 1,7 UV-I 88 W/m 6,7 C 8,0 km/h (2 Bft)
11.08.2016 16:48 15,4 C 15,5 C 56 % 1023,7 hPa 0,0 mm 11,9 km/h (2 Bft) W 272 0 min 0,000 mm 1,7 UV-I 86 W/m 6,7 C 20,9 km/h (4 Bft)
11.08.2016 16:49 15,5 C 15,5 C 59 % 1023,7 hPa 0,0 mm 9,5 km/h (2 Bft) N-NW 338 0 min 0,000 mm 1,7 UV-I 84 W/m 7,5 C 19,3 km/h (3 Bft)
11.08.2016 16:50 15,4 C 15,5 C 59 % 1023,7 hPa 0,0 mm 8,0 km/h (2 Bft) W-NW 292 0 min 0,000 mm 1,7 UV-I 100 W/m 7,4 C 14,5 km/h (3 Bft)
11.08.2016 16:51 15,3 C 15,4 C 56 % 1023,7 hPa 0,0 mm 7,5 km/h (2 Bft) NW 305 0 min 0,000 mm 1,6 UV-I 102 W/m 6,6 C 12,9 km/h (3 Bft)
11.08.2016 16:52 15,1 C 15,3 C 58 % 1023,7 hPa 0,0 mm 5,3 km/h (1 Bft) W 271 0 min 0,000 mm 1,6 UV-I 102 W/m 6,9 C 8,0 km/h (2 Bft)
11.08.2016 16:53 14,9 C 15,1 C 59 % 1023,7 hPa 0,0 mm 6,5 km/h (2 Bft) W-NW 294 0 min 0,000 mm 1,5 UV-I 102 W/m 7,0 C 8,0 km/h (2 Bft)
11.08.2016 16:54 14,8 C 14,9 C 59 % 1023,7 hPa 0,0 mm 5,7 km/h (1 Bft) NW 308 0 min 0,000 mm 1,4 UV-I 95 W/m 6,9 C 9,7 km/h (2 Bft)
11.08.2016 16:55 14,7 C 14,8 C 59 % 1023,7 hPa 0,0 mm 4,3 km/h (1 Bft) W 275 0 min 0,000 mm 1,4 UV-I 90 W/m 6,8 C 6,4 km/h (2 Bft)
11.08.2016 16:56 14,6 C 14,7 C 60 % 1023,7 hPa 0,0 mm 7,7 km/h (2 Bft) N-NW 329 0 min 0,000 mm 1,3 UV-I 97 W/m 6,9 C 12,9 km/h (3 Bft)
11.08.2016 16:57 14,4 C 14,6 C 60 % 1023,7 hPa 0,0 mm 7,2 km/h (2 Bft) W 269 0 min 0,000 mm 1,3 UV-I 114 W/m 6,7 C 11,3 km/h (2 Bft)
11.08.2016 16:58 14,4 C 14,4 C 59 % 1023,7 hPa 0,0 mm 6,8 km/h (2 Bft) W 274 0 min 0,000 mm 1,4 UV-I 125 W/m 6,5 C 9,7 km/h (2 Bft)
11.08.2016 16:59 14,4 C 14,4 C 61 % 1023,7 hPa 0,0 mm 4,1 km/h (1 Bft) W 281 0 min 0,000 mm 1,4 UV-I 141 W/m 7,0 C 9,7 km/h (2 Bft)
11.08.2016 17:00 14,4 C 14,4 C 62 % 1023,7 hPa 0,0 mm 5,8 km/h (2 Bft) W-NW 298 0 min 0,000 mm 1,5 UV-I 162 W/m 7,2 C 11,3 km/h (2 Bft)
11.08.2016 17:01 14,4 C 14,4 C 63 % 1023,8 hPa 0,0 mm 3,4 km/h (1 Bft) NW 312 0 min 0,127 mm 1,5 UV-I 181 W/m 7,4 C 6,4 km/h (2 Bft)
11.08.2016 17:02 14,4 C 14,4 C 62 % 1023,7 hPa 0,0 mm 4,3 km/h (1 Bft) W-NW 296 0 min 0,000 mm 1,6 UV-I 207 W/m 7,2 C 6,4 km/h (2 Bft)
11.08.2016 17:03 14,4 C 14,4 C 62 % 1023,7 hPa 0,0 mm 4,2 km/h (1 Bft) W 281 0 min 0,000 mm 1,7 UV-I 207 W/m 7,2 C 6,4 km/h (2 Bft)
11.08.2016 17:04 14,4 C 14,4 C 64 % 1023,7 hPa 0,0 mm 3,8 km/h (1 Bft) W-NW 288 0 min 0,000 mm 1,8 UV-I 195 W/m 7,7 C 6,4 km/h (2 Bft)
11.08.2016 17:05 14,4 C 14,4 C 63 % 1023,7 hPa 0,0 mm 3,5 km/h (1 Bft) W-NW 283 0 min 0,000 mm 1,7 UV-I 169 W/m 7,4 C 4,8 km/h (1 Bft)
11.08.2016 17:06 14,4 C 14,5 C 63 % 1023,7 hPa 0,0 mm 4,6 km/h (1 Bft) W-NW 290 0 min 0,000 mm 1,6 UV-I 141 W/m 7,4 C 6,4 km/h (2 Bft)
11.08.2016 17:07 14,5 C 14,5 C 62 % 1023,7 hPa 0,0 mm 3,3 km/h (1 Bft) W 268 0 min 0,000 mm 1,6 UV-I 120 W/m 7,3 C 4,8 km/h (1 Bft)
11.08.2016 17:08 14,4 C 14,5 C 62 % 1023,7 hPa 0,0 mm 3,3 km/h (1 Bft) W-NW 296 0 min 0,000 mm 1,5 UV-I 84 W/m 7,2 C 4,8 km/h (1 Bft)
11.08.2016 17:09 14,4 C 14,5 C 62 % 1023,6 hPa 0,0 mm 3,4 km/h (1 Bft) W-NW 286 0 min 0,000 mm 1,3 UV-I 72 W/m 7,2 C 6,4 km/h (2 Bft)
11.08.2016 17:10 14,4 C 14,5 C 61 % 1023,6 hPa 0,0 mm 4,6 km/h (1 Bft) W-NW 296 0 min 0,000 mm 1,3 UV-I 62 W/m 7,0 C 6,4 km/h (2 Bft)
11.08.2016 17:11 14,4 C 14,5 C 63 % 1023,6 hPa 0,0 mm 3,3 km/h (1 Bft) W 281 0 min 0,000 mm 1,3 UV-I 77 W/m 7,4 C 4,8 km/h (1 Bft)
11.08.2016 17:12 14,4 C 14,4 C 64 % 1023,6 hPa 0,0 mm 3,4 km/h (1 Bft) W-NW 286 0 min 0,000 mm 1,3 UV-I 84 W/m 7,7 C 4,8 km/h (1 Bft)
11.08.2016 17:13 14,3 C 14,4 C 62 % 1023,6 hPa 0,0 mm 6,0 km/h (2 Bft) W-NW 290 0 min 0,000 mm 1,3 UV-I 90 W/m 7,1 C 9,7 km/h (2 Bft)
11.08.2016 17:14 14,3 C 14,3 C 60 % 1023,6 hPa 0,0 mm 4,6 km/h (1 Bft) W-NW 300 0 min 0,000 mm 1,3 UV-I 130 W/m 6,6 C 6,4 km/h (2 Bft)
11.08.2016 17:15 14,3 C 14,3 C 60 % 1023,6 hPa 0,0 mm 3,3 km/h (1 Bft) W 265 0 min 0,000 mm 1,5 UV-I 163 W/m 6,6 C 4,8 km/h (1 Bft)
11.08.2016 17:16 14,4 C 14,4 C 60 % 1023,6 hPa 0,0 mm 3,3 km/h (1 Bft) SW 226 0 min 0,000 mm 1,5 UV-I 167 W/m 6,7 C 4,8 km/h (1 Bft)
11.08.2016 17:17 14,4 C 14,4 C 60 % 1023,6 hPa 0,0 mm 4,4 km/h (1 Bft) W-SW 241 0 min 0,000 mm 1,6 UV-I 174 W/m 6,7 C 4,8 km/h (1 Bft)
11.08.2016 17:18 14,6 C 14,6 C 59 % 1023,6 hPa 0,0 mm 4,0 km/h (1 Bft) W-SW 238 0 min 0,000 mm 1,6 UV-I 160 W/m 6,7 C 4,8 km/h (1 Bft)
11.08.2016 17:19 14,6 C 14,6 C 60 % 1023,5 hPa 0,0 mm 2,8 km/h (1 Bft) W-NW 289 0 min 0,000 mm 1,6 UV-I 127 W/m 6,9 C 4,8 km/h (1 Bft)
11.08.2016 17:20 14,7 C 14,7 C 61 % 1023,5 hPa 0,0 mm 1,5 km/h (1 Bft) W-NW 293 0 min 0,000 mm 1,6 UV-I 118 W/m 7,3 C 3,2 km/h (1 Bft)
11.08.2016 17:21 14,8 C 14,8 C 60 % 1023,5 hPa 0,0 mm 1,7 km/h (1 Bft) W-NW 302 0 min 0,000 mm 1,5 UV-I 111 W/m 7,1 C 3,2 km/h (1 Bft)
11.08.2016 17:22 15,0 C 15,0 C 62 % 1023,4 hPa 0,0 mm 1,6 km/h (1 Bft) W-NW 296 0 min 0,000 mm 1,5 UV-I 109 W/m 7,8 C 3,2 km/h (1 Bft)
11.08.2016 17:23 15,1 C 15,1 C 60 % 1023,4 hPa 0,0 mm 3,0 km/h (1 Bft) NW 306 0 min 0,000 mm 1,4 UV-I 109 W/m 7,4 C 6,4 km/h (2 Bft)
11.08.2016 17:24 15,2 C 15,2 C 60 % 1023,4 hPa 0,0 mm 4,5 km/h (1 Bft) W 272 0 min 0,000 mm 1,4 UV-I 111 W/m 7,5 C 6,4 km/h (2 Bft)
11.08.2016 17:25 15,2 C 15,2 C 58 % 1023,5 hPa 0,0 mm 5,6 km/h (1 Bft) W-SW 248 0 min 0,000 mm 1,4 UV-I 111 W/m 7,0 C 9,7 km/h (2 Bft)
11.08.2016 17:26 15,2 C 15,2 C 55 % 1023,4 hPa 0,0 mm 4,4 km/h (1 Bft) W-SW 252 0 min 0,000 mm 1,4 UV-I 97 W/m 6,2 C 8,0 km/h (2 Bft)
11.08.2016 17:27 15,2 C 15,2 C 58 % 1023,4 hPa 0,0 mm 0,7 km/h (0 Bft) W-SW 252 0 min 0,000 mm 1,3 UV-I 86 W/m 7,0 C 1,6 km/h (1 Bft)
11.08.2016 17:28 15,1 C 15,2 C 56 % 1023,4 hPa 0,0 mm 0,4 km/h (0 Bft) W-SW 252 0 min 0,000 mm 1,3 UV-I 81 W/m 6,4 C 1,6 km/h (1 Bft)
11.08.2016 17:29 15,1 C 15,1 C 59 % 1023,4 hPa 0,0 mm 0,6 km/h (0 Bft) W-SW 252 0 min 0,000 mm 1,3 UV-I 90 W/m 7,1 C 1,6 km/h (1 Bft)
11.08.2016 17:30 15,0 C 15,1 C 61 % 1023,3 hPa 0,0 mm 3,6 km/h (1 Bft) NW 313 0 min 0,000 mm 1,3 UV-I 104 W/m 7,5 C 4,8 km/h (1 Bft)
11.08.2016 17:31 15,1 C 15,1 C 62 % 1023,4 hPa 0,0 mm 3,7 km/h (1 Bft) NW 319 0 min 0,000 mm 1,3 UV-I 132 W/m 7,9 C 4,8 km/h (1 Bft)
11.08.2016 17:32 15,1 C 15,1 C 58 % 1023,3 hPa 0,0 mm 3,8 km/h (1 Bft) N-NW 342 0 min 0,000 mm 1,3 UV-I 141 W/m 6,9 C 4,8 km/h (1 Bft)
11.08.2016 17:33 15,2 C 15,2 C 56 % 1023,4 hPa 0,0 mm 2,5 km/h (1 Bft) N 5 0 min 0,000 mm 1,4 UV-I 153 W/m 6,5 C 4,8 km/h (1 Bft)
11.08.2016 17:34 15,2 C 15,2 C 56 % 1023,4 hPa 0,0 mm 3,6 km/h (1 Bft) N-NW 339 0 min 0,000 mm 1,4 UV-I 151 W/m 6,5 C 4,8 km/h (1 Bft)
11.08.2016 17:35 15,3 C 15,3 C 59 % 1023,4 hPa 0,0 mm 3,1 km/h (1 Bft) N-NW 335 0 min 0,000 mm 1,4 UV-I 146 W/m 7,3 C 4,8 km/h (1 Bft)
11.08.2016 17:36 15,4 C 15,4 C 60 % 1023,4 hPa 0,0 mm 4,4 km/h (1 Bft) N-NW 345 0 min 0,000 mm 1,4 UV-I 142 W/m 7,7 C 6,4 km/h (2 Bft)
11.08.2016 17:37 15,4 C 15,4 C 56 % 1023,4 hPa 0,0 mm 4,8 km/h (1 Bft) NW 320 0 min 0,000 mm 1,4 UV-I 125 W/m 6,7 C 6,4 km/h (2 Bft)
11.08.2016 17:38 15,5 C 15,5 C 58 % 1023,4 hPa 0,0 mm 4,3 km/h (1 Bft) W 267 0 min 0,000 mm 1,4 UV-I 125 W/m 7,3 C 9,7 km/h (2 Bft)
11.08.2016 17:39 15,4 C 15,5 C 58 % 1023,4 hPa 0,0 mm 7,6 km/h (2 Bft) W 281 0 min 0,000 mm 1,4 UV-I 128 W/m 7,2 C 9,7 km/h (2 Bft)
11.08.2016 17:40 15,3 C 15,4 C 57 % 1023,4 hPa 0,0 mm 5,8 km/h (2 Bft) W-NW 292 0 min 0,000 mm 1,4 UV-I 130 W/m 6,8 C 11,3 km/h (2 Bft)
11.08.2016 17:41 15,3 C 15,3 C 58 % 1023,4 hPa 0,0 mm 4,0 km/h (1 Bft) W-NW 289 0 min 0,000 mm 1,3 UV-I 130 W/m 7,1 C 6,4 km/h (2 Bft)
11.08.2016 17:42 15,2 C 15,3 C 58 % 1023,4 hPa 0,0 mm 7,3 km/h (2 Bft) W-NW 294 0 min 0,000 mm 1,3 UV-I 128 W/m 7,0 C 11,3 km/h (2 Bft)
11.08.2016 17:43 15,2 C 15,2 C 55 % 1023,4 hPa 0,0 mm 5,0 km/h (1 Bft) NW 304 0 min 0,000 mm 1,3 UV-I 130 W/m 6,2 C 11,3 km/h (2 Bft)
11.08.2016 17:44 15,3 C 15,3 C 55 % 1023,4 hPa 0,0 mm 8,5 km/h (2 Bft) W 274 0 min 0,000 mm 1,3 UV-I 130 W/m 6,3 C 12,9 km/h (3 Bft)
11.08.2016 17:45 15,3 C 15,3 C 54 % 1023,4 hPa 0,0 mm 6,8 km/h (2 Bft) W-NW 282 0 min 0,000 mm 1,3 UV-I 127 W/m 6,0 C 11,3 km/h (2 Bft)
11.08.2016 17:46 15,4 C 15,4 C 52 % 1023,5 hPa 0,0 mm 10,3 km/h (2 Bft) NW 312 0 min 0,000 mm 1,3 UV-I 121 W/m 5,6 C 16,1 km/h (3 Bft)
11.08.2016 17:47 15,4 C 15,4 C 53 % 1023,4 hPa 0,0 mm 11,0 km/h (2 Bft) W-NW 292 0 min 0,000 mm 1,3 UV-I 121 W/m 5,9 C 16,1 km/h (3 Bft)
11.08.2016 17:48 15,5 C 15,5 C 54 % 1023,5 hPa 0,0 mm 11,4 km/h (2 Bft) W 276 0 min 0,000 mm 1,2 UV-I 125 W/m 6,2 C 16,1 km/h (3 Bft)
11.08.2016 17:49 15,5 C 15,5 C 54 % 1023,5 hPa 0,0 mm 6,3 km/h (2 Bft) W-SW 245 0 min 0,000 mm 1,2 UV-I 114 W/m 6,2 C 16,1 km/h (3 Bft)
11.08.2016 17:50 15,5 C 15,5 C 53 % 1023,5 hPa 0,0 mm 8,9 km/h (2 Bft) W-NW 294 0 min 0,000 mm 1,3 UV-I 109 W/m 6,0 C 12,9 km/h (3 Bft)
11.08.2016 17:51 15,5 C 15,5 C 55 % 1023,6 hPa 0,0 mm 9,5 km/h (2 Bft) W 266 0 min 0,000 mm 1,2 UV-I 104 W/m 6,5 C 12,9 km/h (3 Bft)
11.08.2016 17:52 15,5 C 15,6 C 55 % 1023,5 hPa 0,0 mm 6,5 km/h (2 Bft) W 279 0 min 0,000 mm 1,2 UV-I 98 W/m 6,5 C 14,5 km/h (3 Bft)
11.08.2016 17:53 15,4 C 15,5 C 53 % 1023,6 hPa 0,0 mm 4,8 km/h (1 Bft) NW 317 0 min 0,000 mm 1,2 UV-I 88 W/m 5,9 C 6,4 km/h (2 Bft)
11.08.2016 17:54 15,4 C 15,4 C 55 % 1023,5 hPa 0,0 mm 4,9 km/h (1 Bft) W-NW 282 0 min 0,000 mm 1,2 UV-I 83 W/m 6,4 C 9,7 km/h (2 Bft)
11.08.2016 17:55 15,3 C 15,4 C 55 % 1023,6 hPa 0,0 mm 3,4 km/h (1 Bft) W 274 0 min 0,000 mm 1,2 UV-I 69 W/m 6,3 C 9,7 km/h (2 Bft)
11.08.2016 17:56 15,2 C 15,3 C 54 % 1023,6 hPa 0,0 mm 6,6 km/h (2 Bft) W 267 0 min 0,000 mm 1,1 UV-I 70 W/m 6,0 C 11,3 km/h (2 Bft)
11.08.2016 17:57 15,1 C 15,2 C 56 % 1023,6 hPa 0,0 mm 4,9 km/h (1 Bft) NW 310 0 min 0,000 mm 1,1 UV-I 77 W/m 6,4 C 8,0 km/h (2 Bft)
11.08.2016 17:58 14,9 C 15,1 C 57 % 1023,5 hPa 0,0 mm 5,6 km/h (1 Bft) W-SW 258 0 min 0,000 mm 1,1 UV-I 105 W/m 6,5 C 11,3 km/h (2 Bft)
11.08.2016 17:59 14,9 C 14,9 C 57 % 1023,5 hPa 0,0 mm 7,6 km/h (2 Bft) W-SW 243 0 min 0,000 mm 1,1 UV-I 109 W/m 6,5 C 11,3 km/h (2 Bft)
11.08.2016 18:00 14,9 C 14,9 C 58 % 1023,6 hPa 0,0 mm 6,8 km/h (2 Bft) W 274 0 min 0,000 mm 1,1 UV-I 86 W/m 6,7 C 11,3 km/h (2 Bft)
11.08.2016 18:01 14,9 C 14,9 C 57 % 1023,6 hPa 0,0 mm 7,6 km/h (2 Bft) W 269 0 min 0,101 mm 1,1 UV-I 93 W/m 6,5 C 14,5 km/h (3 Bft)
11.08.2016 18:02 14,8 C 14,9 C 57 % 1023,5 hPa 0,0 mm 6,2 km/h (2 Bft) W-SW 250 0 min 0,000 mm 1,0 UV-I 90 W/m 6,4 C 11,3 km/h (2 Bft)
11.08.2016 18:03 14,8 C 14,9 C 59 % 1023,6 hPa 0,0 mm 2,4 km/h (1 Bft) W 265 0 min 0,000 mm 1,0 UV-I 90 W/m 6,9 C 4,8 km/h (1 Bft)
11.08.2016 18:04 14,8 C 14,8 C 60 % 1023,5 hPa 0,0 mm 4,3 km/h (1 Bft) SW 232 0 min 0,000 mm 1,0 UV-I 91 W/m 7,1 C 6,4 km/h (2 Bft)
11.08.2016 18:05 14,8 C 14,8 C 59 % 1023,5 hPa 0,0 mm 4,1 km/h (1 Bft) W-SW 250 0 min 0,000 mm 1,0 UV-I 95 W/m 6,9 C 4,8 km/h (1 Bft)
11.08.2016 18:06 14,7 C 14,8 C 60 % 1023,5 hPa 0,0 mm 2,7 km/h (1 Bft) W-SW 254 0 min 0,000 mm 1,0 UV-I 98 W/m 7,0 C 4,8 km/h (1 Bft)
11.08.2016 18:07 14,7 C 14,7 C 60 % 1023,5 hPa 0,0 mm 0,6 km/h (0 Bft) W-SW 254 0 min 0,000 mm 1,0 UV-I 105 W/m 7,0 C 1,6 km/h (1 Bft)
11.08.2016 18:08 14,7 C 14,7 C 62 % 1023,5 hPa 0,0 mm 3,9 km/h (1 Bft) W-NW 283 0 min 0,000 mm 1,0 UV-I 105 W/m 7,5 C 4,8 km/h (1 Bft)
11.08.2016 18:09 14,7 C 14,7 C 57 % 1023,5 hPa 0,0 mm 4,0 km/h (1 Bft) W-SW 254 0 min 0,000 mm 1,0 UV-I 105 W/m 6,3 C 6,4 km/h (2 Bft)
11.08.2016 18:10 14,7 C 14,7 C 61 % 1023,5 hPa 0,0 mm 6,7 km/h (2 Bft) W 280 0 min 0,000 mm 1,0 UV-I 141 W/m 7,3 C 11,3 km/h (2 Bft)
11.08.2016 18:11 14,7 C 14,7 C 57 % 1023,4 hPa 0,0 mm 5,5 km/h (1 Bft) W-SW 250 0 min 0,000 mm 1,0 UV-I 125 W/m 6,3 C 11,3 km/h (2 Bft)
11.08.2016 18:12 14,8 C 14,8 C 58 % 1023,5 hPa 0,0 mm 5,1 km/h (1 Bft) W 265 0 min 0,000 mm 1,0 UV-I 144 W/m 6,6 C 9,7 km/h (2 Bft)
11.08.2016 18:13 14,9 C 14,9 C 56 % 1023,5 hPa 0,0 mm 7,0 km/h (2 Bft) W-SW 244 0 min 0,000 mm 1,0 UV-I 155 W/m 6,2 C 12,9 km/h (3 Bft)
11.08.2016 18:14 15,1 C 15,1 C 56 % 1023,5 hPa 0,0 mm 4,8 km/h (1 Bft) W-SW 252 0 min 0,000 mm 1,0 UV-I 186 W/m 6,4 C 8,0 km/h (2 Bft)
11.08.2016 18:15 15,2 C 15,2 C 57 % 1023,5 hPa 0,0 mm 7,7 km/h (2 Bft) W-NW 288 0 min 0,000 mm 1,1 UV-I 162 W/m 6,7 C 11,3 km/h (2 Bft)
11.08.2016 18:16 15,3 C 15,3 C 58 % 1023,5 hPa 0,0 mm 3,0 km/h (1 Bft) NW 313 0 min 0,000 mm 1,1 UV-I 137 W/m 7,1 C 9,7 km/h (2 Bft)
11.08.2016 18:17 15,3 C 15,3 C 55 % 1023,4 hPa 0,0 mm 4,3 km/h (1 Bft) W-SW 254 0 min 0,000 mm 1,0 UV-I 134 W/m 6,3 C 6,4 km/h (2 Bft)
11.08.2016 18:18 15,4 C 15,4 C 55 % 1023,4 hPa 0,0 mm 5,5 km/h (1 Bft) W-SW 258 0 min 0,000 mm 1,0 UV-I 107 W/m 6,4 C 8,0 km/h (2 Bft)
11.08.2016 18:19 15,4 C 15,4 C 54 % 1023,4 hPa 0,0 mm 6,5 km/h (2 Bft) W-SW 238 0 min 0,000 mm 1,0 UV-I 102 W/m 6,1 C 9,7 km/h (2 Bft)
11.08.2016 18:20 15,6 C 15,6 C 55 % 1023,4 hPa 0,0 mm 3,3 km/h (1 Bft) SW 223 0 min 0,000 mm 1,0 UV-I 95 W/m 6,6 C 6,4 km/h (2 Bft)
11.08.2016 18:21 15,6 C 15,6 C 55 % 1023,4 hPa 0,0 mm 1,8 km/h (1 Bft) SW 225 0 min 0,000 mm 0,9 UV-I 88 W/m 6,6 C 3,2 km/h (1 Bft)
11.08.2016 18:22 15,4 C 15,6 C 55 % 1023,4 hPa 0,0 mm 4,1 km/h (1 Bft) W-SW 254 0 min 0,000 mm 0,9 UV-I 81 W/m 6,4 C 4,8 km/h (1 Bft)
11.08.2016 18:23 15,4 C 15,5 C 57 % 1023,5 hPa 0,0 mm 4,5 km/h (1 Bft) W-SW 240 0 min 0,000 mm 0,9 UV-I 74 W/m 6,9 C 8,0 km/h (2 Bft)
11.08.2016 18:24 15,4 C 15,4 C 52 % 1023,4 hPa 0,0 mm 6,7 km/h (2 Bft) W 266 0 min 0,000 mm 0,9 UV-I 67 W/m 5,6 C 11,3 km/h (2 Bft)
11.08.2016 18:25 15,4 C 15,4 C 54 % 1023,4 hPa 0,0 mm 7,3 km/h (2 Bft) SO 144 0 min 0,000 mm 0,9 UV-I 69 W/m 6,1 C 11,3 km/h (2 Bft)
11.08.2016 18:26 15,3 C 15,4 C 54 % 1023,4 hPa 0,0 mm 7,2 km/h (2 Bft) SW 236 0 min 0,000 mm 0,9 UV-I 69 W/m 6,0 C 16,1 km/h (3 Bft)
11.08.2016 18:27 15,3 C 15,3 C 53 % 1023,4 hPa 0,0 mm 5,0 km/h (1 Bft) W 260 0 min 0,000 mm 0,9 UV-I 67 W/m 5,8 C 8,0 km/h (2 Bft)
11.08.2016 18:28 15,3 C 15,3 C 52 % 1023,4 hPa 0,0 mm 12,0 km/h (2 Bft) SW 224 0 min 0,000 mm 0,9 UV-I 65 W/m 5,5 C 16,1 km/h (3 Bft)
11.08.2016 18:29 15,3 C 15,3 C 52 % 1023,4 hPa 0,0 mm 9,5 km/h (2 Bft) W-NW 286 0 min 0,000 mm 0,9 UV-I 63 W/m 5,5 C 14,5 km/h (3 Bft)
11.08.2016 18:30 15,3 C 15,3 C 51 % 1023,4 hPa 0,0 mm 8,4 km/h (2 Bft) W-SW 256 0 min 0,000 mm 0,8 UV-I 58 W/m 5,2 C 12,9 km/h (3 Bft)
11.08.2016 18:31 15,3 C 15,3 C 50 % 1023,4 hPa 0,0 mm 6,0 km/h (2 Bft) SW 233 0 min 0,000 mm 0,0 UV-I 54 W/m 4,9 C 8,0 km/h (2 Bft)
11.08.2016 18:32 15,2 C 15,3 C 52 % 1023,4 hPa 0,0 mm 12,7 km/h (3 Bft) W 260 0 min 0,000 mm 0,0 UV-I 54 W/m 5,4 C 17,7 km/h (3 Bft)
11.08.2016 18:33 15,2 C 15,2 C 53 % 1023,4 hPa 0,0 mm 6,0 km/h (2 Bft) SW 225 0 min 0,000 mm 0,0 UV-I 53 W/m 5,7 C 12,9 km/h (3 Bft)
11.08.2016 18:34 15,1 C 15,2 C 52 % 1023,4 hPa 0,0 mm 3,5 km/h (1 Bft) W-SW 247 0 min 0,000 mm 0,0 UV-I 51 W/m 5,3 C 8,0 km/h (2 Bft)
11.08.2016 18:35 15,1 C 15,1 C 53 % 1023,4 hPa 0,0 mm 4,6 km/h (1 Bft) W-SW 248 0 min 0,000 mm 0,0 UV-I 53 W/m 5,6 C 11,3 km/h (2 Bft)
11.08.2016 18:36 15,1 C 15,1 C 55 % 1023,4 hPa 0,0 mm 6,4 km/h (2 Bft) W 279 0 min 0,000 mm 0,0 UV-I 54 W/m 6,1 C 11,3 km/h (2 Bft)
11.08.2016 18:37 15,1 C 15,1 C 55 % 1023,4 hPa 0,0 mm 3,6 km/h (1 Bft) NW 308 0 min 0,000 mm 0,0 UV-I 54 W/m 6,1 C 6,4 km/h (2 Bft)
11.08.2016 18:38 15,1 C 15,1 C 55 % 1023,4 hPa 0,0 mm 5,9 km/h (2 Bft) W-NW 291 0 min 0,000 mm 0,0 UV-I 54 W/m 6,1 C 9,7 km/h (2 Bft)
11.08.2016 18:39 15,2 C 15,2 C 57 % 1023,4 hPa 0,0 mm 4,4 km/h (1 Bft) W-SW 243 0 min 0,000 mm 0,0 UV-I 53 W/m 6,7 C 6,4 km/h (2 Bft)
11.08.2016 18:40 15,1 C 15,2 C 55 % 1023,4 hPa 0,0 mm 6,4 km/h (2 Bft) W-SW 249 0 min 0,000 mm 0,0 UV-I 53 W/m 6,1 C 9,7 km/h (2 Bft)
11.08.2016 18:41 15,1 C 15,2 C 55 % 1023,4 hPa 0,0 mm 3,6 km/h (1 Bft) W-SW 257 0 min 0,000 mm 0,0 UV-I 51 W/m 6,1 C 4,8 km/h (1 Bft)
11.08.2016 18:42 15,2 C 15,2 C 54 % 1023,4 hPa 0,0 mm 5,6 km/h (1 Bft) NW 312 0 min 0,000 mm 0,0 UV-I 51 W/m 6,0 C 9,7 km/h (2 Bft)
11.08.2016 18:43 15,1 C 15,2 C 55 % 1023,4 hPa 0,0 mm 4,2 km/h (1 Bft) W-SW 253 0 min 0,000 mm 0,0 UV-I 49 W/m 6,1 C 6,4 km/h (2 Bft)
11.08.2016 18:44 15,1 C 15,2 C 60 % 1023,4 hPa 0,0 mm 6,8 km/h (2 Bft) W 273 0 min 0,000 mm 0,0 UV-I 49 W/m 7,4 C 11,3 km/h (2 Bft)
11.08.2016 18:45 15,1 C 15,1 C 54 % 1023,4 hPa 0,0 mm 7,5 km/h (2 Bft) W 280 0 min 0,000 mm 0,0 UV-I 47 W/m 5,9 C 12,9 km/h (3 Bft)
11.08.2016 18:46 15,1 C 15,1 C 56 % 1023,4 hPa 0,0 mm 8,7 km/h (2 Bft) W 270 0 min 0,000 mm 0,0 UV-I 46 W/m 6,4 C 11,3 km/h (2 Bft)
11.08.2016 18:47 15,1 C 15,1 C 54 % 1023,4 hPa 0,0 mm 6,0 km/h (2 Bft) W 261 0 min 0,000 mm 0,0 UV-I 46 W/m 5,9 C 11,3 km/h (2 Bft)
11.08.2016 18:48 14,9 C 15,1 C 56 % 1023,4 hPa 0,0 mm 3,9 km/h (1 Bft) W-NW 287 0 min 0,000 mm 0,0 UV-I 47 W/m 6,2 C 6,4 km/h (2 Bft)
11.08.2016 18:49 14,9 C 14,9 C 56 % 1023,4 hPa 0,0 mm 4,4 km/h (1 Bft) SW 222 0 min 0,000 mm 0,0 UV-I 49 W/m 6,2 C 6,4 km/h (2 Bft)
11.08.2016 18:50 14,8 C 14,9 C 56 % 1023,4 hPa 0,0 mm 9,8 km/h (2 Bft) W 275 0 min 0,000 mm 0,0 UV-I 51 W/m 6,1 C 12,9 km/h (3 Bft)
11.08.2016 18:51 14,8 C 14,8 C 54 % 1023,4 hPa 0,0 mm 5,3 km/h (1 Bft) W 271 0 min 0,000 mm 0,7 UV-I 58 W/m 5,6 C 6,4 km/h (2 Bft)
11.08.2016 18:52 14,8 C 14,8 C 54 % 1023,4 hPa 0,0 mm 3,1 km/h (1 Bft) W 270 0 min 0,000 mm 0,7 UV-I 63 W/m 5,6 C 4,8 km/h (1 Bft)
11.08.2016 18:53 14,7 C 14,8 C 55 % 1023,4 hPa 0,0 mm 2,7 km/h (1 Bft) W-SW 255 0 min 0,000 mm 0,7 UV-I 74 W/m 5,8 C 6,4 km/h (2 Bft)
11.08.2016 18:54 14,7 C 14,7 C 55 % 1023,4 hPa 0,0 mm 4,2 km/h (1 Bft) W 274 0 min 0,000 mm 0,7 UV-I 76 W/m 5,8 C 6,4 km/h (2 Bft)
11.08.2016 18:55 14,7 C 14,7 C 59 % 1023,4 hPa 0,0 mm 5,4 km/h (1 Bft) W 266 0 min 0,000 mm 0,6 UV-I 76 W/m 6,8 C 9,7 km/h (2 Bft)
11.08.2016 18:56 14,6 C 14,7 C 57 % 1023,4 hPa 0,0 mm 6,0 km/h (2 Bft) W 275 0 min 0,000 mm 0,6 UV-I 63 W/m 6,2 C 9,7 km/h (2 Bft)
11.08.2016 18:57 14,6 C 14,6 C 57 % 1023,4 hPa 0,0 mm 4,9 km/h (1 Bft) S-SW 211 0 min 0,000 mm 0,6 UV-I 58 W/m 6,2 C 8,0 km/h (2 Bft)
11.08.2016 18:58 14,6 C 14,6 C 53 % 1023,4 hPa 0,0 mm 4,7 km/h (1 Bft) S-SW 196 0 min 0,000 mm 0,6 UV-I 58 W/m 5,1 C 8,0 km/h (2 Bft)
11.08.2016 18:59 14,6 C 14,6 C 54 % 1023,5 hPa 0,0 mm 7,5 km/h (2 Bft) W 259 0 min 0,000 mm 0,6 UV-I 54 W/m 5,4 C 11,3 km/h (2 Bft)
11.08.2016 19:00 14,6 C 14,6 C 53 % 1023,4 hPa 0,0 mm 5,0 km/h (1 Bft) W 260 0 min 0,000 mm 0,0 UV-I 53 W/m 5,1 C 11,3 km/h (2 Bft)
11.08.2016 19:01 14,6 C 14,6 C 55 % 1023,5 hPa 0,0 mm 9,2 km/h (2 Bft) W 277 0 min 0,076 mm 0,6 UV-I 56 W/m 5,7 C 11,3 km/h (2 Bft)
11.08.2016 19:02 14,5 C 14,6 C 55 % 1023,5 hPa 0,0 mm 4,7 km/h (1 Bft) W-NW 298 0 min 0,000 mm 0,6 UV-I 56 W/m 5,6 C 8,0 km/h (2 Bft)
11.08.2016 19:03 14,4 C 14,5 C 55 % 1023,5 hPa 0,0 mm 5,4 km/h (1 Bft) W-SW 240 0 min 0,000 mm 0,6 UV-I 65 W/m 5,5 C 9,7 km/h (2 Bft)
11.08.2016 19:04 14,4 C 14,4 C 56 % 1023,4 hPa 0,0 mm 6,0 km/h (2 Bft) W 259 0 min 0,000 mm 0,6 UV-I 88 W/m 5,7 C 9,7 km/h (2 Bft)
11.08.2016 19:05 14,4 C 14,4 C 54 % 1023,4 hPa 0,0 mm 10,0 km/h (2 Bft) W 278 0 min 0,000 mm 0,6 UV-I 113 W/m 5,2 C 12,9 km/h (3 Bft)
11.08.2016 19:06 14,4 C 14,4 C 54 % 1023,5 hPa 0,0 mm 3,5 km/h (1 Bft) W-NW 284 0 min 0,000 mm 0,6 UV-I 105 W/m 5,2 C 6,4 km/h (2 Bft)
11.08.2016 19:07 14,3 C 14,4 C 54 % 1023,4 hPa 0,0 mm 5,6 km/h (1 Bft) W 269 0 min 0,000 mm 0,6 UV-I 100 W/m 5,1 C 9,7 km/h (2 Bft)
11.08.2016 19:08 14,3 C 14,3 C 56 % 1023,4 hPa 0,0 mm 6,3 km/h (2 Bft) W-SW 249 0 min 0,000 mm 0,6 UV-I 104 W/m 5,6 C 12,9 km/h (3 Bft)
11.08.2016 19:09 14,3 C 14,3 C 55 % 1023,4 hPa 0,0 mm 2,3 km/h (1 Bft) W-SW 248 0 min 0,000 mm 0,5 UV-I 98 W/m 5,4 C 3,2 km/h (1 Bft)
11.08.2016 19:10 14,3 C 14,3 C 58 % 1023,4 hPa 0,0 mm 2,3 km/h (1 Bft) W-SW 248 0 min 0,000 mm 0,5 UV-I 76 W/m 6,2 C 3,2 km/h (1 Bft)
11.08.2016 19:11 14,3 C 14,3 C 56 % 1023,5 hPa 0,0 mm 3,8 km/h (1 Bft) W-SW 250 0 min 0,000 mm 0,5 UV-I 84 W/m 5,6 C 6,4 km/h (2 Bft)
11.08.2016 19:12 14,3 C 14,3 C 57 % 1023,5 hPa 0,0 mm 4,9 km/h (1 Bft) SW 231 0 min 0,000 mm 0,5 UV-I 100 W/m 5,9 C 8,0 km/h (2 Bft)
11.08.2016 19:13 14,2 C 14,3 C 59 % 1023,5 hPa 0,0 mm 3,6 km/h (1 Bft) SW 233 0 min 0,000 mm 0,5 UV-I 83 W/m 6,3 C 6,4 km/h (2 Bft)
11.08.2016 19:14 14,2 C 14,2 C 57 % 1023,4 hPa 0,0 mm 4,8 km/h (1 Bft) W-SW 257 0 min 0,000 mm 0,5 UV-I 81 W/m 5,8 C 6,4 km/h (2 Bft)
11.08.2016 19:15 14,2 C 14,2 C 58 % 1023,5 hPa 0,0 mm 1,3 km/h (1 Bft) W-SW 257 0 min 0,000 mm 0,5 UV-I 90 W/m 6,1 C 3,2 km/h (1 Bft)
11.08.2016 19:16 14,1 C 14,2 C 59 % 1023,4 hPa 0,0 mm 1,3 km/h (1 Bft) W-NW 282 0 min 0,000 mm 0,5 UV-I 83 W/m 6,2 C 3,2 km/h (1 Bft)
11.08.2016 19:17 14,0 C 14,1 C 60 % 1023,5 hPa 0,0 mm 0,6 km/h (0 Bft) W-NW 282 0 min 0,000 mm 0,5 UV-I 76 W/m 6,4 C 1,6 km/h (1 Bft)
11.08.2016 19:18 13,9 C 14,0 C 59 % 1023,5 hPa 0,0 mm 2,4 km/h (1 Bft) W 281 0 min 0,000 mm 0,0 UV-I 60 W/m 6,0 C 3,2 km/h (1 Bft)
11.08.2016 19:19 13,9 C 14,0 C 57 % 1023,5 hPa 0,0 mm 3,1 km/h (1 Bft) W-SW 258 0 min 0,000 mm 0,0 UV-I 54 W/m 5,5 C 3,2 km/h (1 Bft)
11.08.2016 19:20 13,9 C 13,9 C 58 % 1023,5 hPa 0,0 mm 1,4 km/h (1 Bft) W-SW 258 0 min 0,000 mm 0,0 UV-I 47 W/m 5,8 C 3,2 km/h (1 Bft)
11.08.2016 19:21 13,9 C 13,9 C 58 % 1023,5 hPa 0,0 mm 1,1 km/h (1 Bft) W-SW 258 0 min 0,000 mm 0,0 UV-I 49 W/m 5,8 C 3,2 km/h (1 Bft)
11.08.2016 19:22 13,8 C 13,9 C 58 % 1023,4 hPa 0,0 mm 0,0 km/h (0 Bft) W-SW 258 0 min 0,000 mm 0,0 UV-I 47 W/m 5,7 C 0,0 km/h (0 Bft)
11.08.2016 19:23 13,8 C 13,8 C 58 % 1023,4 hPa 0,0 mm 1,3 km/h (1 Bft) W-SW 258 0 min 0,000 mm 0,0 UV-I 47 W/m 5,7 C 3,2 km/h (1 Bft)
11.08.2016 19:24 13,8 C 13,8 C 60 % 1023,4 hPa 0,0 mm 0,1 km/h (0 Bft) W-SW 258 0 min 0,000 mm 0,0 UV-I 51 W/m 6,2 C 1,6 km/h (1 Bft)
11.08.2016 19:25 13,8 C 13,8 C 60 % 1023,5 hPa 0,0 mm 0,1 km/h (0 Bft) W-SW 258 0 min 0,000 mm 0,0 UV-I 53 W/m 6,2 C 1,6 km/h (1 Bft)
11.08.2016 19:26 13,7 C 13,8 C 60 % 1023,5 hPa 0,0 mm 0,5 km/h (0 Bft) W-SW 258 0 min 0,000 mm 0,0 UV-I 53 W/m 6,1 C 1,6 km/h (1 Bft)
11.08.2016 19:27 13,7 C 13,7 C 61 % 1023,4 hPa 0,0 mm 2,0 km/h (1 Bft) W-SW 258 0 min 0,000 mm 0,0 UV-I 58 W/m 6,3 C 3,2 km/h (1 Bft)
11.08.2016 19:28 13,7 C 13,7 C 61 % 1023,4 hPa 0,0 mm 1,4 km/h (1 Bft) W-SW 258 0 min 0,000 mm 0,0 UV-I 56 W/m 6,3 C 3,2 km/h (1 Bft)
11.08.2016 19:29 13,6 C 13,7 C 63 % 1023,4 hPa 0,0 mm 0,4 km/h (0 Bft) W-SW 258 0 min 0,000 mm 0,0 UV-I 49 W/m 6,7 C 1,6 km/h (1 Bft)
11.08.2016 19:30 13,6 C 13,6 C 60 % 1023,5 hPa 0,0 mm 1,0 km/h (0 Bft) S-SW 205 0 min 0,000 mm 0,0 UV-I 49 W/m 6,0 C 3,2 km/h (1 Bft)
11.08.2016 19:31 13,7 C 13,7 C 60 % 1023,4 hPa 0,0 mm 0,4 km/h (0 Bft) S-SW 205 0 min 0,000 mm 0,0 UV-I 46 W/m 6,1 C 1,6 km/h (1 Bft)
11.08.2016 19:32 13,6 C 13,7 C 60 % 1023,5 hPa 0,0 mm 1,9 km/h (1 Bft) S-SW 205 0 min 0,000 mm 0,0 UV-I 42 W/m 6,0 C 3,2 km/h (1 Bft)
11.08.2016 19:33 13,6 C 13,7 C 62 % 1023,4 hPa 0,0 mm 1,1 km/h (1 Bft) S-SW 205 0 min 0,000 mm 0,0 UV-I 37 W/m 6,5 C 3,2 km/h (1 Bft)
11.08.2016 19:34 13,5 C 13,6 C 63 % 1023,4 hPa 0,0 mm 0,9 km/h (0 Bft) S-SW 205 0 min 0,000 mm 0,0 UV-I 33 W/m 6,6 C 1,6 km/h (1 Bft)
11.08.2016 19:35 13,4 C 13,5 C 63 % 1023,5 hPa 0,0 mm 1,0 km/h (0 Bft) S-SW 205 0 min 0,000 mm 0,0 UV-I 33 W/m 6,5 C 1,6 km/h (1 Bft)
11.08.2016 19:36 13,4 C 13,4 C 65 % 1023,5 hPa 0,0 mm 1,4 km/h (1 Bft) S-SW 205 0 min 0,000 mm 0,0 UV-I 32 W/m 7,0 C 1,6 km/h (1 Bft)
11.08.2016 19:37 13,3 C 13,4 C 62 % 1023,5 hPa 0,0 mm 1,1 km/h (1 Bft) S-SW 205 0 min 0,000 mm 0,0 UV-I 30 W/m 6,2 C 3,2 km/h (1 Bft)
11.08.2016 19:38 13,2 C 13,3 C 67 % 1023,5 hPa 0,0 mm 1,2 km/h (1 Bft) S-SW 205 0 min 0,000 mm 0,0 UV-I 32 W/m 7,2 C 1,6 km/h (1 Bft)
11.08.2016 19:39 13,2 C 13,2 C 69 % 1023,5 hPa 0,0 mm 1,4 km/h (1 Bft) S-SW 205 0 min 0,000 mm 0,0 UV-I 30 W/m 7,6 C 3,2 km/h (1 Bft)
11.08.2016 19:40 13,1 C 13,2 C 69 % 1023,5 hPa 0,0 mm 1,3 km/h (1 Bft) S-SW 200 0 min 0,000 mm 0,0 UV-I 26 W/m 7,5 C 1,6 km/h (1 Bft)
11.08.2016 19:41 12,9 C 13,1 C 69 % 1023,5 hPa 0,0 mm 1,0 km/h (0 Bft) S-SW 195 0 min 0,000 mm 0,0 UV-I 32 W/m 7,4 C 3,2 km/h (1 Bft)
11.08.2016 19:42 12,8 C 12,9 C 68 % 1023,5 hPa 0,0 mm 1,5 km/h (1 Bft) S 191 0 min 0,000 mm 0,0 UV-I 30 W/m 7,0 C 3,2 km/h (1 Bft)
11.08.2016 19:43 12,7 C 12,8 C 70 % 1023,5 hPa 0,0 mm 1,9 km/h (1 Bft) S 184 0 min 0,000 mm 0,0 UV-I 28 W/m 7,4 C 3,2 km/h (1 Bft)
11.08.2016 19:44 12,6 C 12,7 C 70 % 1023,5 hPa 0,0 mm 2,3 km/h (1 Bft) S 184 0 min 0,000 mm 0,0 UV-I 26 W/m 7,3 C 4,8 km/h (1 Bft)
11.08.2016 19:45 12,5 C 12,6 C 71 % 1023,5 hPa 0,0 mm 1,7 km/h (1 Bft) S 184 0 min 0,000 mm 0,0 UV-I 26 W/m 7,4 C 3,2 km/h (1 Bft)
11.08.2016 19:46 12,4 C 12,5 C 73 % 1023,4 hPa 0,0 mm 0,6 km/h (0 Bft) S 184 0 min 0,000 mm 0,0 UV-I 25 W/m 7,7 C 1,6 km/h (1 Bft)
11.08.2016 19:47 12,3 C 12,4 C 73 % 1023,4 hPa 0,0 mm 0,3 km/h (0 Bft) S 184 0 min 0,000 mm 0,0 UV-I 23 W/m 7,6 C 1,6 km/h (1 Bft)
11.08.2016 19:48 12,2 C 12,3 C 73 % 1023,5 hPa 0,0 mm 1,7 km/h (1 Bft) S 184 0 min 0,000 mm 0,0 UV-I 23 W/m 7,5 C 3,2 km/h (1 Bft)
11.08.2016 19:49 12,1 C 12,2 C 72 % 1023,4 hPa 0,0 mm 1,5 km/h (1 Bft) S 184 0 min 0,000 mm 0,0 UV-I 21 W/m 7,2 C 3,2 km/h (1 Bft)
11.08.2016 19:50 12,1 C 12,2 C 73 % 1023,5 hPa 0,0 mm 1,3 km/h (1 Bft) S 184 0 min 0,000 mm 0,0 UV-I 21 W/m 7,4 C 3,2 km/h (1 Bft)
11.08.2016 19:51 12,0 C 12,1 C 76 % 1023,5 hPa 0,0 mm 1,9 km/h (1 Bft) S 182 0 min 0,000 mm 0,0 UV-I 21 W/m 7,9 C 3,2 km/h (1 Bft)
11.08.2016 19:52 11,8 C 12,0 C 76 % 1023,5 hPa 0,0 mm 1,7 km/h (1 Bft) S 181 0 min 0,000 mm 0,0 UV-I 21 W/m 7,7 C 3,2 km/h (1 Bft)
11.08.2016 19:53 11,8 C 11,8 C 75 % 1023,5 hPa 0,0 mm 0,7 km/h (0 Bft) S 181 0 min 0,000 mm 0,0 UV-I 21 W/m 7,5 C 3,2 km/h (1 Bft)
11.08.2016 19:54 11,7 C 11,8 C 74 % 1023,5 hPa 0,0 mm 3,4 km/h (1 Bft) S 181 0 min 0,000 mm 0,0 UV-I 21 W/m 7,2 C 4,8 km/h (1 Bft)
11.08.2016 19:55 11,7 C 11,7 C 75 % 1023,5 hPa 0,0 mm 2,3 km/h (1 Bft) S 172 0 min 0,000 mm 0,0 UV-I 21 W/m 7,4 C 4,8 km/h (1 Bft)
11.08.2016 19:56 11,7 C 11,7 C 73 % 1023,5 hPa 0,0 mm 4,0 km/h (1 Bft) S 171 0 min 0,000 mm 0,0 UV-I 21 W/m 7,0 C 8,0 km/h (2 Bft)
11.08.2016 19:57 11,7 C 11,7 C 74 % 1023,5 hPa 0,0 mm 2,5 km/h (1 Bft) S 171 0 min 0,000 mm 0,0 UV-I 21 W/m 7,2 C 3,2 km/h (1 Bft)
11.08.2016 19:58 11,6 C 11,7 C 74 % 1023,5 hPa 0,0 mm 1,7 km/h (1 Bft) S 171 0 min 0,000 mm 0,0 UV-I 21 W/m 7,1 C 3,2 km/h (1 Bft)
11.08.2016 19:59 11,6 C 11,6 C 74 % 1023,4 hPa 0,0 mm 2,5 km/h (1 Bft) S 171 0 min 0,000 mm 0,0 UV-I 21 W/m 7,1 C 6,4 km/h (2 Bft)
11.08.2016 20:00 11,6 C 11,6 C 75 % 1023,5 hPa 0,0 mm 3,2 km/h (1 Bft) S 171 0 min 0,051 mm 0,0 UV-I 21 W/m 7,3 C 6,4 km/h (2 Bft)
11.08.2016 20:01 11,4 C 11,6 C 76 % 1023,5 hPa 0,0 mm 1,9 km/h (1 Bft) S 171 0 min 0,000 mm 0,0 UV-I 21 W/m 7,3 C 3,2 km/h (1 Bft)
11.08.2016 20:02 11,4 C 11,4 C 77 % 1023,5 hPa 0,0 mm 2,7 km/h (1 Bft) S 171 0 min 0,000 mm 0,0 UV-I 21 W/m 7,5 C 3,2 km/h (1 Bft)
11.08.2016 20:03 11,3 C 11,4 C 75 % 1023,5 hPa 0,0 mm 4,8 km/h (1 Bft) S 183 0 min 0,000 mm 0,0 UV-I 21 W/m 7,0 C 8,0 km/h (2 Bft)
11.08.2016 20:04 11,3 C 11,3 C 77 % 1023,5 hPa 0,0 mm 3,6 km/h (1 Bft) S 177 0 min 0,000 mm 0,0 UV-I 21 W/m 7,4 C 6,4 km/h (2 Bft)
11.08.2016 20:05 11,2 C 11,3 C 78 % 1023,5 hPa 0,0 mm 2,3 km/h (1 Bft) S 177 0 min 0,000 mm 0,0 UV-I 19 W/m 7,5 C 4,8 km/h (1 Bft)
11.08.2016 20:06 11,2 C 11,2 C 78 % 1023,5 hPa 0,0 mm 2,3 km/h (1 Bft) S 177 0 min 0,000 mm 0,0 UV-I 19 W/m 7,5 C 3,2 km/h (1 Bft)
11.08.2016 20:07 11,2 C 11,2 C 79 % 1023,5 hPa 0,0 mm 2,5 km/h (1 Bft) S 177 0 min 0,000 mm 0,0 UV-I 19 W/m 7,7 C 3,2 km/h (1 Bft)
11.08.2016 20:08 11,2 C 11,2 C 77 % 1023,5 hPa 0,0 mm 2,0 km/h (1 Bft) S 177 0 min 0,000 mm 0,0 UV-I 18 W/m 7,3 C 3,2 km/h (1 Bft)
11.08.2016 20:09 11,2 C 11,2 C 79 % 1023,5 hPa 0,0 mm 1,5 km/h (1 Bft) S 177 0 min 0,000 mm 0,0 UV-I 16 W/m 7,7 C 3,2 km/h (1 Bft)
11.08.2016 20:10 11,1 C 11,2 C 80 % 1023,5 hPa 0,0 mm 1,9 km/h (1 Bft) S 177 0 min 0,000 mm 0,0 UV-I 16 W/m 7,8 C 3,2 km/h (1 Bft)
11.08.2016 20:11 11,1 C 11,1 C 79 % 1023,6 hPa 0,0 mm 3,0 km/h (1 Bft) S 176 0 min 0,000 mm 0,0 UV-I 14 W/m 7,6 C 4,8 km/h (1 Bft)
11.08.2016 20:12 11,1 C 11,1 C 78 % 1023,6 hPa 0,0 mm 2,8 km/h (1 Bft) S 176 0 min 0,000 mm 0,0 UV-I 14 W/m 7,4 C 3,2 km/h (1 Bft)
11.08.2016 20:13 11,1 C 11,1 C 79 % 1023,6 hPa 0,0 mm 1,5 km/h (1 Bft) S 176 0 min 0,000 mm 0,0 UV-I 12 W/m 7,6 C 3,2 km/h (1 Bft)
11.08.2016 20:14 11,0 C 11,1 C 78 % 1023,6 hPa 0,0 mm 3,2 km/h (1 Bft) S 175 0 min 0,000 mm 0,0 UV-I 11 W/m 7,3 C 4,8 km/h (1 Bft)
11.08.2016 20:15 11,0 C 11,0 C 77 % 1023,6 hPa 0,0 mm 3,2 km/h (1 Bft) S-SW 194 0 min 0,000 mm 0,0 UV-I 11 W/m 7,1 C 4,8 km/h (1 Bft)
11.08.2016 20:16 11,0 C 11,0 C 79 % 1023,6 hPa 0,0 mm 3,6 km/h (1 Bft) S 171 0 min 0,000 mm 0,0 UV-I 9 W/m 7,5 C 6,4 km/h (2 Bft)
11.08.2016 20:17 11,0 C 11,0 C 77 % 1023,6 hPa 0,0 mm 1,9 km/h (1 Bft) S 171 0 min 0,000 mm 0,0 UV-I 9 W/m 7,1 C 3,2 km/h (1 Bft)
11.08.2016 20:18 11,0 C 11,0 C 77 % 1023,6 hPa 0,0 mm 2,4 km/h (1 Bft) S 171 0 min 0,000 mm 0,0 UV-I 9 W/m 7,1 C 3,2 km/h (1 Bft)
11.08.2016 20:19 11,0 C 11,0 C 76 % 1023,6 hPa 0,0 mm 2,1 km/h (1 Bft) S 171 0 min 0,000 mm 0,0 UV-I 7 W/m 6,9 C 3,2 km/h (1 Bft)
11.08.2016 20:20 10,9 C 11,0 C 78 % 1023,6 hPa 0,0 mm 2,0 km/h (1 Bft) S 170 0 min 0,000 mm 0,0 UV-I 7 W/m 7,2 C 3,2 km/h (1 Bft)
11.08.2016 20:21 10,8 C 10,9 C 78 % 1023,6 hPa 0,0 mm 1,3 km/h (1 Bft) S 170 0 min 0,000 mm 0,0 UV-I 7 W/m 7,1 C 3,2 km/h (1 Bft)
11.08.2016 20:22 10,8 C 10,8 C 79 % 1023,6 hPa 0,0 mm 0,7 km/h (0 Bft) S 171 0 min 0,000 mm 0,0 UV-I 7 W/m 7,3 C 1,6 km/h (1 Bft)
11.08.2016 20:23 10,7 C 10,8 C 77 % 1023,6 hPa 0,0 mm 0,1 km/h (0 Bft) S 171 0 min 0,000 mm 0,0 UV-I 7 W/m 6,8 C 1,6 km/h (1 Bft)
11.08.2016 20:24 10,7 C 10,7 C 78 % 1023,6 hPa 0,0 mm 0,0 km/h (0 Bft) S 171 0 min 0,000 mm 0,0 UV-I 5 W/m 7,0 C 0,0 km/h (0 Bft)
11.08.2016 20:25 10,6 C 10,7 C 78 % 1023,6 hPa 0,0 mm 0,2 km/h (0 Bft) S 171 0 min 0,000 mm 0,0 UV-I 5 W/m 6,9 C 1,6 km/h (1 Bft)
11.08.2016 20:26 10,6 C 10,6 C 76 % 1023,6 hPa 0,0 mm 4,4 km/h (1 Bft) S 184 0 min 0,000 mm 0,0 UV-I 5 W/m 6,5 C 6,4 km/h (2 Bft)
11.08.2016 20:27 10,7 C 10,7 C 79 % 1023,7 hPa 0,0 mm 4,8 km/h (1 Bft) S 169 0 min 0,000 mm 0,0 UV-I 5 W/m 7,2 C 6,4 km/h (2 Bft)
11.08.2016 20:28 10,7 C 10,7 C 79 % 1023,7 hPa 0,0 mm 3,7 km/h (1 Bft) SO 141 0 min 0,000 mm 0,0 UV-I 5 W/m 7,2 C 6,4 km/h (2 Bft)
11.08.2016 20:29 10,7 C 10,7 C 79 % 1023,6 hPa 0,0 mm 1,4 km/h (1 Bft) SO 141 0 min 0,000 mm 0,0 UV-I 5 W/m 7,2 C 3,2 km/h (1 Bft)
11.08.2016 20:30 10,7 C 10,7 C 79 % 1023,6 hPa 0,0 mm 0,5 km/h (0 Bft) SO 141 0 min 0,000 mm 0,0 UV-I 0 W/m 7,2 C 1,6 km/h (1 Bft)
11.08.2016 20:31 10,7 C 10,7 C 77 % 1023,7 hPa 0,0 mm 1,9 km/h (1 Bft) SW 220 0 min 0,000 mm 0,0 UV-I 0 W/m 6,8 C 3,2 km/h (1 Bft)
11.08.2016 20:32 10,7 C 10,7 C 75 % 1023,7 hPa 0,0 mm 3,2 km/h (1 Bft) S 183 0 min 0,000 mm 0,0 UV-I 0 W/m 6,5 C 8,0 km/h (2 Bft)
11.08.2016 20:33 10,7 C 10,7 C 77 % 1023,6 hPa 0,0 mm 2,6 km/h (1 Bft) S 176 0 min 0,000 mm 0,0 UV-I 0 W/m 6,8 C 4,8 km/h (1 Bft)
11.08.2016 20:34 10,6 C 10,7 C 79 % 1023,6 hPa 0,0 mm 4,0 km/h (1 Bft) S 188 0 min 0,000 mm 0,0 UV-I 0 W/m 7,1 C 6,4 km/h (2 Bft)
11.08.2016 20:35 10,6 C 10,6 C 76 % 1023,6 hPa 0,0 mm 4,9 km/h (1 Bft) S 183 0 min 0,000 mm 0,0 UV-I 0 W/m 6,5 C 6,4 km/h (2 Bft)
11.08.2016 20:36 10,4 C 10,6 C 77 % 1023,6 hPa 0,0 mm 2,4 km/h (1 Bft) S 183 0 min 0,000 mm 0,0 UV-I 0 W/m 6,5 C 3,2 km/h (1 Bft)
11.08.2016 20:37 10,4 C 10,4 C 76 % 1023,6 hPa 0,0 mm 3,6 km/h (1 Bft) S 180 0 min 0,000 mm 0,0 UV-I 0 W/m 6,4 C 4,8 km/h (1 Bft)
11.08.2016 20:38 10,4 C 10,4 C 77 % 1023,7 hPa 0,0 mm 4,5 km/h (1 Bft) S 171 0 min 0,000 mm 0,0 UV-I 0 W/m 6,5 C 8,0 km/h (2 Bft)
11.08.2016 20:39 10,4 C 10,4 C 78 % 1023,6 hPa 0,0 mm 4,0 km/h (1 Bft) S 171 0 min 0,000 mm 0,0 UV-I 0 W/m 6,7 C 8,0 km/h (2 Bft)
11.08.2016 20:40 10,4 C 10,4 C 77 % 1023,7 hPa 0,0 mm 5,0 km/h (1 Bft) S 178 0 min 0,000 mm 0,0 UV-I 0 W/m 6,5 C 6,4 km/h (2 Bft)
11.08.2016 20:41 10,4 C 10,4 C 77 % 1023,7 hPa 0,0 mm 2,6 km/h (1 Bft) S 171 0 min 0,000 mm 0,0 UV-I 0 W/m 6,5 C 4,8 km/h (1 Bft)
11.08.2016 20:42 10,4 C 10,4 C 77 % 1023,7 hPa 0,0 mm 1,8 km/h (1 Bft) S 171 0 min 0,000 mm 0,0 UV-I 0 W/m 6,5 C 3,2 km/h (1 Bft)
11.08.2016 20:43 10,3 C 10,4 C 79 % 1023,7 hPa 0,0 mm 1,7 km/h (1 Bft) S 170 0 min 0,000 mm 0,0 UV-I 0 W/m 6,8 C 3,2 km/h (1 Bft)
11.08.2016 20:44 10,3 C 10,3 C 79 % 1023,7 hPa 0,0 mm 1,8 km/h (1 Bft) S 170 0 min 0,000 mm 0,0 UV-I 0 W/m 6,8 C 3,2 km/h (1 Bft)
11.08.2016 20:45 10,3 C 10,3 C 76 % 1023,7 hPa 0,0 mm 3,9 km/h (1 Bft) S 180 0 min 0,000 mm 0,0 UV-I 0 W/m 6,3 C 6,4 km/h (2 Bft)
11.08.2016 20:46 10,3 C 10,3 C 75 % 1023,8 hPa 0,0 mm 4,8 km/h (1 Bft) S 177 0 min 0,000 mm 0,0 UV-I 0 W/m 6,1 C 8,0 km/h (2 Bft)
11.08.2016 20:47 10,3 C 10,4 C 76 % 1023,7 hPa 0,0 mm 3,4 km/h (1 Bft) S 186 0 min 0,000 mm 0,0 UV-I 0 W/m 6,3 C 4,8 km/h (1 Bft)
11.08.2016 20:48 10,3 C 10,4 C 77 % 1023,8 hPa 0,0 mm 4,0 km/h (1 Bft) S 172 0 min 0,000 mm 0,0 UV-I 0 W/m 6,4 C 4,8 km/h (1 Bft)
11.08.2016 20:49 10,3 C 10,4 C 77 % 1023,6 hPa 0,0 mm 2,2 km/h (1 Bft) S 172 0 min 0,000 mm 0,0 UV-I 0 W/m 6,4 C 3,2 km/h (1 Bft)
11.08.2016 20:50 10,3 C 10,3 C 76 % 1023,7 hPa 0,0 mm 2,4 km/h (1 Bft) S-SO 167 0 min 0,000 mm 0,0 UV-I 0 W/m 6,3 C 6,4 km/h (2 Bft)
11.08.2016 20:51 10,3 C 10,3 C 77 % 1023,7 hPa 0,0 mm 4,8 km/h (1 Bft) S-SO 167 0 min 0,000 mm 0,0 UV-I 0 W/m 6,4 C 6,4 km/h (2 Bft)
11.08.2016 20:52 10,3 C 10,3 C 78 % 1023,7 hPa 0,0 mm 3,1 km/h (1 Bft) S-SO 167 0 min 0,000 mm 0,0 UV-I 0 W/m 6,6 C 4,8 km/h (1 Bft)
11.08.2016 20:53 10,3 C 10,3 C 77 % 1023,8 hPa 0,0 mm 2,2 km/h (1 Bft) S-SO 167 0 min 0,000 mm 0,0 UV-I 0 W/m 6,4 C 4,8 km/h (1 Bft)
11.08.2016 20:54 10,2 C 10,3 C 77 % 1023,8 hPa 0,0 mm 1,7 km/h (1 Bft) S-SO 167 0 min 0,000 mm 0,0 UV-I 0 W/m 6,4 C 4,8 km/h (1 Bft)
11.08.2016 20:55 10,2 C 10,2 C 76 % 1023,8 hPa 0,0 mm 4,5 km/h (1 Bft) S 191 0 min 0,000 mm 0,0 UV-I 0 W/m 6,2 C 6,4 km/h (2 Bft)
11.08.2016 20:56 10,1 C 10,2 C 77 % 1023,7 hPa 0,0 mm 2,5 km/h (1 Bft) S 179 0 min 0,000 mm 0,0 UV-I 0 W/m 6,3 C 4,8 km/h (1 Bft)
11.08.2016 20:57 10,2 C 10,2 C 75 % 1023,9 hPa 0,0 mm 3,9 km/h (1 Bft) S-SW 202 0 min 0,000 mm 0,0 UV-I 0 W/m 6,0 C 6,4 km/h (2 Bft)
11.08.2016 20:58 10,2 C 10,2 C 76 % 1023,8 hPa 0,0 mm 4,3 km/h (1 Bft) S 169 0 min 0,000 mm 0,0 UV-I 0 W/m 6,2 C 6,4 km/h (2 Bft)
11.08.2016 20:59 10,2 C 10,2 C 77 % 1023,9 hPa 0,0 mm 3,0 km/h (1 Bft) S-SW 196 0 min 0,000 mm 0,0 UV-I 0 W/m 6,4 C 6,4 km/h (2 Bft)
11.08.2016 21:00 10,2 C 10,2 C 76 % 1023,9 hPa 0,0 mm 5,0 km/h (1 Bft) S-SW 195 0 min 0,000 mm 0,0 UV-I 0 W/m 6,2 C 6,4 km/h (2 Bft)
11.08.2016 21:01 10,3 C 10,3 C 75 % 1023,9 hPa 0,0 mm 4,4 km/h (1 Bft) S 182 0 min 0,025 mm 0,0 UV-I 0 W/m 6,1 C 8,0 km/h (2 Bft)
11.08.2016 21:02 10,3 C 10,3 C 76 % 1023,9 hPa 0,0 mm 3,1 km/h (1 Bft) S 182 0 min 0,001 mm 0,0 UV-I 0 W/m 6,3 C 4,8 km/h (1 Bft)
11.08.2016 21:03 10,3 C 10,3 C 75 % 1023,9 hPa 0,0 mm 5,0 km/h (1 Bft) S-SO 163 0 min 0,000 mm 0,0 UV-I 0 W/m 6,1 C 9,7 km/h (2 Bft)
11.08.2016 21:04 10,3 C 10,3 C 75 % 1024,0 hPa 0,0 mm 5,3 km/h (1 Bft) S-SW 192 0 min 0,000 mm 0,0 UV-I 0 W/m 6,1 C 6,4 km/h (2 Bft)
11.08.2016 21:05 10,3 C 10,3 C 75 % 1024,0 hPa 0,0 mm 5,4 km/h (1 Bft) S-SW 198 0 min 0,000 mm 0,0 UV-I 0 W/m 6,1 C 8,0 km/h (2 Bft)
11.08.2016 21:06 10,3 C 10,3 C 74 % 1024,1 hPa 0,0 mm 6,3 km/h (2 Bft) S 186 0 min 0,000 mm 0,0 UV-I 0 W/m 5,9 C 8,0 km/h (2 Bft)
11.08.2016 21:07 10,3 C 10,3 C 75 % 1024,1 hPa 0,0 mm 6,4 km/h (2 Bft) S 179 0 min 0,000 mm 0,0 UV-I 0 W/m 6,1 C 8,0 km/h (2 Bft)
11.08.2016 21:08 10,3 C 10,3 C 75 % 1024,1 hPa 0,0 mm 8,2 km/h (2 Bft) S-SW 197 0 min 0,000 mm 0,0 UV-I 0 W/m 6,1 C 14,5 km/h (3 Bft)
11.08.2016 21:09 10,3 C 10,3 C 75 % 1024,1 hPa 0,0 mm 3,8 km/h (1 Bft) S 171 0 min 0,000 mm 0,0 UV-I 0 W/m 6,1 C 8,0 km/h (2 Bft)
11.08.2016 21:10 10,3 C 10,3 C 75 % 1024,1 hPa 0,0 mm 6,6 km/h (2 Bft) S-SO 167 0 min 0,000 mm 0,0 UV-I 0 W/m 6,1 C 8,0 km/h (2 Bft)
11.08.2016 21:11 10,3 C 10,3 C 76 % 1024,1 hPa 0,0 mm 4,8 km/h (1 Bft) S-SW 200 0 min 0,000 mm 0,0 UV-I 0 W/m 6,3 C 8,0 km/h (2 Bft)
11.08.2016 21:12 10,2 C 10,3 C 75 % 1024,1 hPa 0,0 mm 7,2 km/h (2 Bft) S-SW 192 0 min 0,000 mm 0,0 UV-I 0 W/m 6,0 C 11,3 km/h (2 Bft)
11.08.2016 21:13 10,2 C 10,3 C 75 % 1024,1 hPa 0,0 mm 8,0 km/h (2 Bft) S 182 0 min 0,000 mm 0,0 UV-I 0 W/m 6,0 C 9,7 km/h (2 Bft)
11.08.2016 21:14 10,2 C 10,2 C 76 % 1024,1 hPa 0,0 mm 6,2 km/h (2 Bft) S 188 0 min 0,000 mm 0,0 UV-I 0 W/m 6,2 C 9,7 km/h (2 Bft)
11.08.2016 21:15 10,2 C 10,2 C 76 % 1024,1 hPa 0,0 mm 3,8 km/h (1 Bft) S-SW 198 0 min 0,000 mm 0,0 UV-I 0 W/m 6,2 C 4,8 km/h (1 Bft)
11.08.2016 21:16 10,1 C 10,2 C 77 % 1024,1 hPa 0,0 mm 3,0 km/h (1 Bft) S-SW 192 0 min 0,000 mm 0,0 UV-I 0 W/m 6,3 C 4,8 km/h (1 Bft)
11.08.2016 21:17 9,9 C 10,1 C 77 % 1024,1 hPa 0,0 mm 3,9 km/h (1 Bft) S 186 0 min 0,000 mm 0,0 UV-I 0 W/m 6,1 C 6,4 km/h (2 Bft)
11.08.2016 21:18 9,9 C 10,0 C 77 % 1024,1 hPa 0,0 mm 5,6 km/h (1 Bft) S-SW 197 0 min 0,000 mm 0,0 UV-I 0 W/m 6,1 C 8,0 km/h (2 Bft)
11.08.2016 21:19 9,9 C 9,9 C 77 % 1024,1 hPa 0,0 mm 7,8 km/h (2 Bft) S 184 0 min 0,000 mm 0,0 UV-I 0 W/m 6,1 C 11,3 km/h (2 Bft)
11.08.2016 21:20 9,9 C 9,9 C 77 % 1024,1 hPa 0,0 mm 6,0 km/h (2 Bft) S-SO 153 0 min 0,000 mm 0,0 UV-I 0 W/m 6,1 C 8,0 km/h (2 Bft)
11.08.2016 21:21 9,9 C 10,0 C 79 % 1024,1 hPa 0,0 mm 2,5 km/h (1 Bft) S-SW 201 0 min 0,000 mm 0,0 UV-I 0 W/m 6,4 C 3,2 km/h (1 Bft)
11.08.2016 21:22 9,9 C 9,9 C 77 % 1024,1 hPa 0,0 mm 2,1 km/h (1 Bft) SO 135 0 min 0,000 mm 0,0 UV-I 0 W/m 6,1 C 3,2 km/h (1 Bft)
11.08.2016 21:23 9,9 C 9,9 C 78 % 1024,1 hPa 0,0 mm 2,1 km/h (1 Bft) SO 138 0 min 0,000 mm 0,0 UV-I 0 W/m 6,2 C 3,2 km/h (1 Bft)
11.08.2016 21:24 9,8 C 9,9 C 77 % 1024,1 hPa 0,0 mm 2,6 km/h (1 Bft) S 180 0 min 0,000 mm 0,0 UV-I 0 W/m 6,0 C 4,8 km/h (1 Bft)
11.08.2016 21:25 9,8 C 9,9 C 78 % 1024,1 hPa 0,0 mm 2,7 km/h (1 Bft) S 179 0 min 0,000 mm 0,0 UV-I 0 W/m 6,1 C 4,8 km/h (1 Bft)
11.08.2016 21:26 9,8 C 9,8 C 79 % 1024,1 hPa 0,0 mm 2,7 km/h (1 Bft) S 169 0 min 0,000 mm 0,0 UV-I 0 W/m 6,3 C 6,4 km/h (2 Bft)
11.08.2016 21:27 9,8 C 9,8 C 80 % 1024,1 hPa 0,0 mm 2,0 km/h (1 Bft) S 169 0 min 0,000 mm 0,0 UV-I 0 W/m 6,5 C 3,2 km/h (1 Bft)
11.08.2016 21:28 9,8 C 9,8 C 79 % 1024,1 hPa 0,0 mm 3,8 km/h (1 Bft) SW 214 0 min 0,000 mm 0,0 UV-I 0 W/m 6,3 C 6,4 km/h (2 Bft)
11.08.2016 21:29 9,8 C 9,8 C 81 % 1024,1 hPa 0,0 mm 3,2 km/h (1 Bft) S-SW 199 0 min 0,000 mm 0,0 UV-I 0 W/m 6,7 C 4,8 km/h (1 Bft)
11.08.2016 21:30 9,7 C 9,8 C 79 % 1024,1 hPa 0,0 mm 3,5 km/h (1 Bft) S 171 0 min 0,000 mm 0,0 UV-I 0 W/m 6,2 C 6,4 km/h (2 Bft)
11.08.2016 21:31 9,7 C 9,7 C 79 % 1024,2 hPa 0,0 mm 2,1 km/h (1 Bft) S 171 0 min 0,000 mm 0,0 UV-I 0 W/m 6,2 C 3,2 km/h (1 Bft)
11.08.2016 21:32 9,7 C 9,7 C 80 % 1024,2 hPa 0,0 mm 2,4 km/h (1 Bft) S 171 0 min 0,000 mm 0,0 UV-I 0 W/m 6,4 C 3,2 km/h (1 Bft)
11.08.2016 21:33 9,6 C 9,7 C 80 % 1024,2 hPa 0,0 mm 2,7 km/h (1 Bft) S 171 0 min 0,000 mm 0,0 UV-I 0 W/m 6,3 C 3,2 km/h (1 Bft)
11.08.2016 21:34 9,6 C 9,6 C 79 % 1024,2 hPa 0,0 mm 1,9 km/h (1 Bft) S 171 0 min 0,000 mm 0,0 UV-I 0 W/m 6,1 C 3,2 km/h (1 Bft)
11.08.2016 21:35 9,6 C 9,6 C 80 % 1024,2 hPa 0,0 mm 1,7 km/h (1 Bft) S 171 0 min 0,000 mm 0,0 UV-I 0 W/m 6,3 C 3,2 km/h (1 Bft)
11.08.2016 21:36 9,5 C 9,6 C 80 % 1024,2 hPa 0,0 mm 1,0 km/h (0 Bft) S 171 0 min 0,000 mm 0,0 UV-I 0 W/m 6,2 C 1,6 km/h (1 Bft)
11.08.2016 21:37 9,4 C 9,5 C 81 % 1024,2 hPa 0,0 mm 0,1 km/h (0 Bft) S 171 0 min 0,000 mm 0,0 UV-I 0 W/m 6,3 C 1,6 km/h (1 Bft)
11.08.2016 21:38 9,4 C 9,4 C 80 % 1024,2 hPa 0,0 mm 0,0 km/h (0 Bft) S 171 0 min 0,000 mm 0,0 UV-I 0 W/m 6,1 C 0,0 km/h (0 Bft)
11.08.2016 21:39 9,3 C 9,4 C 81 % 1024,2 hPa 0,0 mm 1,8 km/h (1 Bft) S 171 0 min 0,000 mm 0,0 UV-I 0 W/m 6,2 C 3,2 km/h (1 Bft)
11.08.2016 21:40 9,3 C 9,4 C 81 % 1024,2 hPa 0,0 mm 0,8 km/h (0 Bft) S 171 0 min 0,000 mm 0,0 UV-I 0 W/m 6,2 C 1,6 km/h (1 Bft)
11.08.2016 21:41 9,3 C 9,3 C 81 % 1024,2 hPa 0,0 mm 0,6 km/h (0 Bft) S 171 0 min 0,000 mm 0,0 UV-I 0 W/m 6,2 C 1,6 km/h (1 Bft)
11.08.2016 21:42 9,2 C 9,3 C 81 % 1024,3 hPa 0,0 mm 1,1 km/h (1 Bft) S 171 0 min 0,000 mm 0,0 UV-I 0 W/m 6,1 C 3,2 km/h (1 Bft)
11.08.2016 21:43 9,2 C 9,3 C 82 % 1024,3 hPa 0,0 mm 0,3 km/h (0 Bft) S 171 0 min 0,000 mm 0,0 UV-I 0 W/m 6,3 C 1,6 km/h (1 Bft)
11.08.2016 21:44 9,2 C 9,2 C 81 % 1024,3 hPa 0,0 mm 1,0 km/h (0 Bft) S 171 0 min 0,000 mm 0,0 UV-I 0 W/m 6,1 C 1,6 km/h (1 Bft)
11.08.2016 21:45 9,2 C 9,2 C 82 % 1024,3 hPa 0,0 mm 0,8 km/h (0 Bft) S 171 0 min 0,000 mm 0,0 UV-I 0 W/m 6,3 C 3,2 km/h (1 Bft)
11.08.2016 21:46 9,1 C 9,2 C 82 % 1024,3 hPa 0,0 mm 1,0 km/h (0 Bft) S 171 0 min 0,000 mm 0,0 UV-I 0 W/m 6,2 C 1,6 km/h (1 Bft)
11.08.2016 21:47 9,1 C 9,1 C 82 % 1024,3 hPa 0,0 mm 1,0 km/h (0 Bft) S 171 0 min 0,000 mm 0,0 UV-I 0 W/m 6,2 C 3,2 km/h (1 Bft)
11.08.2016 21:48 9,1 C 9,1 C 82 % 1024,3 hPa 0,0 mm 1,9 km/h (1 Bft) S 173 0 min 0,000 mm 0,0 UV-I 0 W/m 6,2 C 4,8 km/h (1 Bft)
11.08.2016 21:49 9,1 C 9,2 C 83 % 1024,3 hPa 0,0 mm 1,6 km/h (1 Bft) S 173 0 min 0,000 mm 0,0 UV-I 0 W/m 6,4 C 3,2 km/h (1 Bft)
11.08.2016 21:50 9,1 C 9,1 C 82 % 1024,4 hPa 0,0 mm 2,3 km/h (1 Bft) S 170 0 min 0,000 mm 0,0 UV-I 0 W/m 6,2 C 4,8 km/h (1 Bft)
11.08.2016 21:51 9,2 C 9,2 C 82 % 1024,4 hPa 0,0 mm 3,1 km/h (1 Bft) S-SO 165 0 min 0,000 mm 0,0 UV-I 0 W/m 6,3 C 4,8 km/h (1 Bft)
11.08.2016 21:52 9,2 C 9,2 C 83 % 1024,4 hPa 0,0 mm 2,3 km/h (1 Bft) S-SO 161 0 min 0,000 mm 0,0 UV-I 0 W/m 6,5 C 3,2 km/h (1 Bft)
11.08.2016 21:53 9,2 C 9,2 C 83 % 1024,4 hPa 0,0 mm 0,2 km/h (0 Bft) S-SO 161 0 min 0,000 mm 0,0 UV-I 0 W/m 6,5 C 1,6 km/h (1 Bft)
11.08.2016 21:54 9,2 C 9,2 C 82 % 1024,5 hPa 0,0 mm 1,1 km/h (1 Bft) S-SO 161 0 min 0,000 mm 0,0 UV-I 0 W/m 6,3 C 1,6 km/h (1 Bft)
11.08.2016 21:55 9,1 C 9,2 C 82 % 1024,5 hPa 0,0 mm 1,9 km/h (1 Bft) S-SO 161 0 min 0,000 mm 0,0 UV-I 0 W/m 6,2 C 3,2 km/h (1 Bft)
11.08.2016 21:56 9,1 C 9,1 C 82 % 1024,4 hPa 0,0 mm 1,5 km/h (1 Bft) S-SO 161 0 min 0,000 mm 0,0 UV-I 0 W/m 6,2 C 3,2 km/h (1 Bft)
11.08.2016 21:57 9,0 C 9,1 C 82 % 1024,5 hPa 0,0 mm 1,8 km/h (1 Bft) S-SO 161 0 min 0,000 mm 0,0 UV-I 0 W/m 6,1 C 3,2 km/h (1 Bft)
11.08.2016 21:58 9,0 C 9,1 C 82 % 1024,4 hPa 0,0 mm 3,1 km/h (1 Bft) S 184 0 min 0,000 mm 0,0 UV-I 0 W/m 6,1 C 8,0 km/h (2 Bft)
11.08.2016 21:59 9,1 C 9,1 C 82 % 1024,5 hPa 0,0 mm 3,6 km/h (1 Bft) S 184 0 min 0,000 mm 0,0 UV-I 0 W/m 6,2 C 4,8 km/h (1 Bft)
11.08.2016 22:00 9,2 C 9,2 C 83 % 1024,5 hPa 0,0 mm 3,2 km/h (1 Bft) S-SO 161 0 min 0,000 mm 0,0 UV-I 0 W/m 6,5 C 6,4 km/h (2 Bft)
11.08.2016 22:01 9,2 C 9,2 C 83 % 1024,5 hPa 0,0 mm 1,9 km/h (1 Bft) S 184 0 min 0,025 mm 0,0 UV-I 0 W/m 6,5 C 3,2 km/h (1 Bft)
11.08.2016 22:02 9,3 C 9,3 C 82 % 1024,5 hPa 0,0 mm 3,0 km/h (1 Bft) S 184 0 min 0,000 mm 0,0 UV-I 0 W/m 6,4 C 4,8 km/h (1 Bft)
11.08.2016 22:03 9,3 C 9,3 C 82 % 1024,6 hPa 0,0 mm 1,9 km/h (1 Bft) S 184 0 min 0,000 mm 0,0 UV-I 0 W/m 6,4 C 3,2 km/h (1 Bft)
11.08.2016 22:04 9,3 C 9,3 C 82 % 1024,6 hPa 0,0 mm 1,3 km/h (1 Bft) S 184 0 min 0,000 mm 0,0 UV-I 0 W/m 6,4 C 3,2 km/h (1 Bft)
11.08.2016 22:05 9,2 C 9,3 C 82 % 1024,6 hPa 0,0 mm 1,7 km/h (1 Bft) S 183 0 min 0,000 mm 0,0 UV-I 0 W/m 6,3 C 3,2 km/h (1 Bft)
11.08.2016 22:06 9,2 C 9,2 C 82 % 1024,6 hPa 0,0 mm 2,2 km/h (1 Bft) S 184 0 min 0,000 mm 0,0 UV-I 0 W/m 6,3 C 3,2 km/h (1 Bft)
11.08.2016 22:07 9,2 C 9,2 C 82 % 1024,5 hPa 0,0 mm 1,6 km/h (1 Bft) S 184 0 min 0,000 mm 0,0 UV-I 0 W/m 6,3 C 3,2 km/h (1 Bft)
11.08.2016 22:08 9,2 C 9,2 C 82 % 1024,6 hPa 0,0 mm 1,6 km/h (1 Bft) S 184 0 min 0,000 mm 0,0 UV-I 0 W/m 6,3 C 3,2 km/h (1 Bft)
11.08.2016 22:09 9,1 C 9,2 C 82 % 1024,5 hPa 0,0 mm 1,1 km/h (1 Bft) S 184 0 min 0,000 mm 0,0 UV-I 0 W/m 6,2 C 1,6 km/h (1 Bft)
11.08.2016 22:10 9,1 C 9,1 C 82 % 1024,5 hPa 0,0 mm 0,5 km/h (0 Bft) S 184 0 min 0,000 mm 0,0 UV-I 0 W/m 6,2 C 3,2 km/h (1 Bft)
11.08.2016 22:11 9,1 C 9,1 C 83 % 1024,5 hPa 0,0 mm 1,9 km/h (1 Bft) S 184 0 min 0,000 mm 0,0 UV-I 0 W/m 6,4 C 3,2 km/h (1 Bft)
11.08.2016 22:12 9,0 C 9,1 C 82 % 1024,5 hPa 0,0 mm 1,9 km/h (1 Bft) S 190 0 min 0,000 mm 0,0 UV-I 0 W/m 6,1 C 3,2 km/h (1 Bft)
11.08.2016 22:13 9,0 C 9,0 C 83 % 1024,4 hPa 0,0 mm 2,2 km/h (1 Bft) S 172 0 min 0,000 mm 0,0 UV-I 0 W/m 6,3 C 3,2 km/h (1 Bft)
11.08.2016 22:14 8,9 C 9,0 C 83 % 1024,5 hPa 0,0 mm 1,7 km/h (1 Bft) S 172 0 min 0,000 mm 0,0 UV-I 0 W/m 6,2 C 3,2 km/h (1 Bft)
11.08.2016 22:15 8,9 C 9,0 C 84 % 1024,5 hPa 0,0 mm 1,7 km/h (1 Bft) S 172 0 min 0,000 mm 0,0 UV-I 0 W/m 6,3 C 3,2 km/h (1 Bft)
11.08.2016 22:16 8,9 C 8,9 C 84 % 1024,5 hPa 0,0 mm 0,8 km/h (0 Bft) S 182 0 min 0,000 mm 0,0 UV-I 0 W/m 6,3 C 1,6 km/h (1 Bft)
11.08.2016 22:17 8,9 C 8,9 C 84 % 1024,5 hPa 0,0 mm 1,8 km/h (1 Bft) S-SW 194 0 min 0,000 mm 0,0 UV-I 0 W/m 6,3 C 3,2 km/h (1 Bft)
11.08.2016 22:18 8,9 C 8,9 C 84 % 1024,5 hPa 0,0 mm 1,9 km/h (1 Bft) S-SW 194 0 min 0,000 mm 0,0 UV-I 0 W/m 6,3 C 3,2 km/h (1 Bft)
11.08.2016 22:19 8,9 C 8,9 C 83 % 1024,4 hPa 0,0 mm 0,8 km/h (0 Bft) S-SW 194 0 min 0,000 mm 0,0 UV-I 0 W/m 6,2 C 1,6 km/h (1 Bft)
11.08.2016 22:20 8,8 C 8,9 C 83 % 1024,5 hPa 0,0 mm 1,4 km/h (1 Bft) S-SW 194 0 min 0,000 mm 0,0 UV-I 0 W/m 6,1 C 3,2 km/h (1 Bft)
11.08.2016 22:21 8,8 C 8,8 C 83 % 1024,5 hPa 0,0 mm 1,1 km/h (1 Bft) S-SW 194 0 min 0,000 mm 0,0 UV-I 0 W/m 6,1 C 1,6 km/h (1 Bft)
11.08.2016 22:22 8,8 C 8,8 C 83 % 1024,4 hPa 0,0 mm 1,4 km/h (1 Bft) S-SW 194 0 min 0,000 mm 0,0 UV-I 0 W/m 6,1 C 1,6 km/h (1 Bft)
11.08.2016 22:23 8,7 C 8,8 C 83 % 1024,4 hPa 0,0 mm 0,6 km/h (0 Bft) S-SW 194 0 min 0,000 mm 0,0 UV-I 0 W/m 6,0 C 1,6 km/h (1 Bft)
11.08.2016 22:24 8,7 C 8,8 C 84 % 1024,4 hPa 0,0 mm 0,8 km/h (0 Bft) S-SW 194 0 min 0,000 mm 0,0 UV-I 0 W/m 6,2 C 3,2 km/h (1 Bft)
11.08.2016 22:25 8,7 C 8,7 C 84 % 1024,5 hPa 0,0 mm 1,7 km/h (1 Bft) S-SW 194 0 min 0,000 mm 0,0 UV-I 0 W/m 6,2 C 3,2 km/h (1 Bft)
11.08.2016 22:26 8,7 C 8,7 C 84 % 1024,5 hPa 0,0 mm 1,7 km/h (1 Bft) S-SW 194 0 min 0,000 mm 0,0 UV-I 0 W/m 6,2 C 3,2 km/h (1 Bft)
11.08.2016 22:27 8,7 C 8,7 C 84 % 1024,5 hPa 0,0 mm 1,4 km/h (1 Bft) S-SW 194 0 min 0,000 mm 0,0 UV-I 0 W/m 6,2 C 3,2 km/h (1 Bft)
11.08.2016 22:28 8,7 C 8,7 C 83 % 1024,6 hPa 0,0 mm 1,1 km/h (1 Bft) S-SW 194 0 min 0,000 mm 0,0 UV-I 0 W/m 6,0 C 1,6 km/h (1 Bft)
11.08.2016 22:29 8,6 C 8,7 C 83 % 1024,6 hPa 0,0 mm 1,6 km/h (1 Bft) S 183 0 min 0,000 mm 0,0 UV-I 0 W/m 5,9 C 4,8 km/h (1 Bft)
11.08.2016 22:30 8,6 C 8,7 C 84 % 1024,5 hPa 0,0 mm 2,3 km/h (1 Bft) S 182 0 min 0,000 mm 0,0 UV-I 0 W/m 6,1 C 3,2 km/h (1 Bft)
11.08.2016 22:31 8,6 C 8,6 C 85 % 1024,5 hPa 0,0 mm 1,5 km/h (1 Bft) S 182 0 min 0,000 mm 0,0 UV-I 0 W/m 6,2 C 3,2 km/h (1 Bft)
11.08.2016 22:32 8,6 C 8,6 C 84 % 1024,5 hPa 0,0 mm 0,8 km/h (0 Bft) S 182 0 min 0,000 mm 0,0 UV-I 0 W/m 6,1 C 1,6 km/h (1 Bft)
11.08.2016 22:33 8,7 C 8,7 C 83 % 1024,6 hPa 0,0 mm 1,3 km/h (1 Bft) S 182 0 min 0,000 mm 0,0 UV-I 0 W/m 6,0 C 1,6 km/h (1 Bft)
11.08.2016 22:34 8,7 C 8,7 C 85 % 1024,5 hPa 0,0 mm 2,1 km/h (1 Bft) S 182 0 min 0,000 mm 0,0 UV-I 0 W/m 6,3 C 3,2 km/h (1 Bft)
11.08.2016 22:35 8,6 C 8,7 C 84 % 1024,5 hPa 0,0 mm 1,8 km/h (1 Bft) S 182 0 min 0,000 mm 0,0 UV-I 0 W/m 6,1 C 3,2 km/h (1 Bft)
11.08.2016 22:36 8,6 C 8,7 C 83 % 1024,5 hPa 0,0 mm 1,7 km/h (1 Bft) S 182 0 min 0,000 mm 0,0 UV-I 0 W/m 5,9 C 3,2 km/h (1 Bft)
11.08.2016 22:37 8,6 C 8,6 C 85 % 1024,5 hPa 0,0 mm 1,3 km/h (1 Bft) S 182 0 min 0,000 mm 0,0 UV-I 0 W/m 6,2 C 3,2 km/h (1 Bft)
11.08.2016 22:38 8,6 C 8,6 C 85 % 1024,6 hPa 0,0 mm 1,7 km/h (1 Bft) S 182 0 min 0,000 mm 0,0 UV-I 0 W/m 6,2 C 3,2 km/h (1 Bft)
11.08.2016 22:39 8,5 C 8,6 C 85 % 1024,6 hPa 0,0 mm 2,4 km/h (1 Bft) S 182 0 min 0,000 mm 0,0 UV-I 0 W/m 6,1 C 3,2 km/h (1 Bft)
11.08.2016 22:40 8,5 C 8,5 C 85 % 1024,6 hPa 0,0 mm 2,7 km/h (1 Bft) S 182 0 min 0,000 mm 0,0 UV-I 0 W/m 6,1 C 3,2 km/h (1 Bft)
11.08.2016 22:41 8,4 C 8,5 C 85 % 1024,6 hPa 0,0 mm 2,1 km/h (1 Bft) S 182 0 min 0,000 mm 0,0 UV-I 0 W/m 6,0 C 3,2 km/h (1 Bft)
11.08.2016 22:42 8,4 C 8,4 C 86 % 1024,5 hPa 0,0 mm 3,1 km/h (1 Bft) S 169 0 min 0,000 mm 0,0 UV-I 0 W/m 6,2 C 4,8 km/h (1 Bft)
11.08.2016 22:43 8,4 C 8,4 C 86 % 1024,5 hPa 0,0 mm 2,8 km/h (1 Bft) S 169 0 min 0,000 mm 0,0 UV-I 0 W/m 6,2 C 6,4 km/h (2 Bft)
11.08.2016 22:44 8,4 C 8,4 C 86 % 1024,6 hPa 0,0 mm 2,4 km/h (1 Bft) S 169 0 min 0,000 mm 0,0 UV-I 0 W/m 6,2 C 3,2 km/h (1 Bft)
11.08.2016 22:45 8,3 C 8,4 C 85 % 1024,6 hPa 0,0 mm 2,3 km/h (1 Bft) S 169 0 min 0,000 mm 0,0 UV-I 0 W/m 5,9 C 3,2 km/h (1 Bft)
11.08.2016 22:46 8,3 C 8,3 C 84 % 1024,6 hPa 0,0 mm 0,8 km/h (0 Bft) S 169 0 min 0,000 mm 0,0 UV-I 0 W/m 5,8 C 1,6 km/h (1 Bft)
11.08.2016 22:47 8,2 C 8,3 C 86 % 1024,6 hPa 0,0 mm 1,3 km/h (1 Bft) S 169 0 min 0,000 mm 0,0 UV-I 0 W/m 6,0 C 3,2 km/h (1 Bft)
11.08.2016 22:48 8,2 C 8,2 C 86 % 1024,6 hPa 0,0 mm 2,0 km/h (1 Bft) S-SO 165 0 min 0,000 mm 0,0 UV-I 0 W/m 6,0 C 3,2 km/h (1 Bft)
11.08.2016 22:49 8,2 C 8,2 C 86 % 1024,6 hPa 0,0 mm 3,0 km/h (1 Bft) SO 136 0 min 0,000 mm 0,0 UV-I 0 W/m 6,0 C 4,8 km/h (1 Bft)
11.08.2016 22:50 8,2 C 8,2 C 86 % 1024,6 hPa 0,0 mm 2,5 km/h (1 Bft) SO 136 0 min 0,000 mm 0,0 UV-I 0 W/m 6,0 C 3,2 km/h (1 Bft)
11.08.2016 22:51 8,2 C 8,2 C 86 % 1024,6 hPa 0,0 mm 1,5 km/h (1 Bft) SO 136 0 min 0,000 mm 0,0 UV-I 0 W/m 6,0 C 3,2 km/h (1 Bft)
11.08.2016 22:52 8,2 C 8,2 C 85 % 1024,6 hPa 0,0 mm 0,7 km/h (0 Bft) SO 136 0 min 0,000 mm 0,0 UV-I 0 W/m 5,8 C 1,6 km/h (1 Bft)
11.08.2016 22:53 8,2 C 8,2 C 86 % 1024,6 hPa 0,0 mm 0,8 km/h (0 Bft) SO 136 0 min 0,000 mm 0,0 UV-I 0 W/m 6,0 C 1,6 km/h (1 Bft)
11.08.2016 22:54 8,2 C 8,2 C 86 % 1024,6 hPa 0,0 mm 1,6 km/h (1 Bft) SO 136 0 min 0,000 mm 0,0 UV-I 0 W/m 6,0 C 3,2 km/h (1 Bft)
11.08.2016 22:55 8,2 C 8,2 C 86 % 1024,6 hPa 0,0 mm 2,3 km/h (1 Bft) SO 136 0 min 0,000 mm 0,0 UV-I 0 W/m 6,0 C 3,2 km/h (1 Bft)
11.08.2016 22:56 8,1 C 8,2 C 87 % 1024,6 hPa 0,0 mm 1,7 km/h (1 Bft) SO 136 0 min 0,000 mm 0,0 UV-I 0 W/m 6,1 C 3,2 km/h (1 Bft)
11.08.2016 22:57 8,1 C 8,2 C 85 % 1024,6 hPa 0,0 mm 1,3 km/h (1 Bft) SO 136 0 min 0,000 mm 0,0 UV-I 0 W/m 5,7 C 1,6 km/h (1 Bft)
11.08.2016 22:58 8,1 C 8,1 C 86 % 1024,7 hPa 0,0 mm 0,6 km/h (0 Bft) SO 136 0 min 0,000 mm 0,0 UV-I 0 W/m 5,9 C 1,6 km/h (1 Bft)
11.08.2016 22:59 8,1 C 8,1 C 86 % 1024,7 hPa 0,0 mm 1,5 km/h (1 Bft) SO 136 0 min 0,000 mm 0,0 UV-I 0 W/m 5,9 C 1,6 km/h (1 Bft)
11.08.2016 23:00 8,1 C 8,1 C 87 % 1024,7 hPa 0,0 mm 1,8 km/h (1 Bft) SO 136 0 min 0,000 mm 0,0 UV-I 0 W/m 6,1 C 3,2 km/h (1 Bft)
11.08.2016 23:01 8,2 C 8,2 C 87 % 1024,7 hPa 0,0 mm 2,2 km/h (1 Bft) SO 136 0 min 0,000 mm 0,0 UV-I 0 W/m 6,2 C 3,2 km/h (1 Bft)
11.08.2016 23:02 8,3 C 8,3 C 87 % 1024,7 hPa 0,0 mm 2,0 km/h (1 Bft) SO 136 0 min 0,000 mm 0,0 UV-I 0 W/m 6,3 C 3,2 km/h (1 Bft)
11.08.2016 23:03 8,3 C 8,3 C 86 % 1024,7 hPa 0,0 mm 2,5 km/h (1 Bft) SO 136 0 min 0,000 mm 0,0 UV-I 0 W/m 6,1 C 3,2 km/h (1 Bft)
11.08.2016 23:04 8,2 C 8,3 C 86 % 1024,6 hPa 0,0 mm 1,3 km/h (1 Bft) SO 136 0 min 0,000 mm 0,0 UV-I 0 W/m 6,0 C 3,2 km/h (1 Bft)
11.08.2016 23:05 8,2 C 8,2 C 85 % 1024,6 hPa 0,0 mm 0,0 km/h (0 Bft) SO 136 0 min 0,000 mm 0,0 UV-I 0 W/m 5,8 C 0,0 km/h (0 Bft)
11.08.2016 23:06 8,2 C 8,2 C 85 % 1024,6 hPa 0,0 mm 0,0 km/h (0 Bft) SO 136 0 min 0,000 mm 0,0 UV-I 0 W/m 5,8 C 0,0 km/h (0 Bft)
11.08.2016 23:07 8,2 C 8,2 C 86 % 1024,7 hPa 0,0 mm 0,0 km/h (0 Bft) SO 136 0 min 0,000 mm 0,0 UV-I 0 W/m 6,0 C 0,0 km/h (0 Bft)
11.08.2016 23:08 8,2 C 8,2 C 86 % 1024,6 hPa 0,0 mm 0,0 km/h (0 Bft) SO 136 0 min 0,000 mm 0,0 UV-I 0 W/m 6,0 C 0,0 km/h (0 Bft)
11.08.2016 23:09 8,2 C 8,2 C 86 % 1024,6 hPa 0,0 mm 0,0 km/h (0 Bft) SO 136 0 min 0,000 mm 0,0 UV-I 0 W/m 6,0 C 0,0 km/h (0 Bft)
11.08.2016 23:10 8,1 C 8,2 C 85 % 1024,6 hPa 0,0 mm 0,0 km/h (0 Bft) SO 136 0 min 0,000 mm 0,0 UV-I 0 W/m 5,7 C 0,0 km/h (0 Bft)
11.08.2016 23:11 8,1 C 8,2 C 85 % 1024,6 hPa 0,0 mm 0,0 km/h (0 Bft) SO 136 0 min 0,000 mm 0,0 UV-I 0 W/m 5,7 C 0,0 km/h (0 Bft)
11.08.2016 23:12 8,1 C 8,1 C 86 % 1024,6 hPa 0,0 mm 0,0 km/h (0 Bft) SO 136 0 min 0,000 mm 0,0 UV-I 0 W/m 5,9 C 0,0 km/h (0 Bft)
11.08.2016 23:13 8,1 C 8,1 C 86 % 1024,6 hPa 0,0 mm 0,0 km/h (0 Bft) SO 136 0 min 0,000 mm 0,0 UV-I 0 W/m 5,9 C 0,0 km/h (0 Bft)
11.08.2016 23:14 8,0 C 8,1 C 86 % 1024,6 hPa 0,0 mm 0,0 km/h (0 Bft) SO 136 0 min 0,000 mm 0,0 UV-I 0 W/m 5,8 C 0,0 km/h (0 Bft)
11.08.2016 23:15 8,1 C 8,1 C 87 % 1024,6 hPa 0,0 mm 0,0 km/h (0 Bft) SO 136 0 min 0,000 mm 0,0 UV-I 0 W/m 6,1 C 0,0 km/h (0 Bft)
11.08.2016 23:16 8,0 C 8,1 C 86 % 1024,6 hPa 0,0 mm 0,0 km/h (0 Bft) SO 136 0 min 0,000 mm 0,0 UV-I 0 W/m 5,8 C 0,0 km/h (0 Bft)
11.08.2016 23:17 8,0 C 8,1 C 87 % 1024,6 hPa 0,0 mm 0,0 km/h (0 Bft) SO 136 0 min 0,000 mm 0,0 UV-I 0 W/m 6,0 C 0,0 km/h (0 Bft)
11.08.2016 23:18 8,1 C 8,1 C 87 % 1024,6 hPa 0,0 mm 0,0 km/h (0 Bft) SO 136 0 min 0,000 mm 0,0 UV-I 0 W/m 6,1 C 0,0 km/h (0 Bft)
11.08.2016 23:19 8,1 C 8,1 C 86 % 1024,6 hPa 0,0 mm 1,1 km/h (1 Bft) SO 136 0 min 0,000 mm 0,0 UV-I 0 W/m 5,9 C 3,2 km/h (1 Bft)
11.08.2016 23:20 8,1 C 8,1 C 87 % 1024,6 hPa 0,0 mm 1,6 km/h (1 Bft) SO 136 0 min 0,000 mm 0,0 UV-I 0 W/m 6,1 C 3,2 km/h (1 Bft)
11.08.2016 23:21 8,1 C 8,1 C 87 % 1024,6 hPa 0,0 mm 1,7 km/h (1 Bft) SO 136 0 min 0,000 mm 0,0 UV-I 0 W/m 6,1 C 3,2 km/h (1 Bft)
11.08.2016 23:22 8,1 C 8,2 C 86 % 1024,6 hPa 0,0 mm 1,1 km/h (1 Bft) SO 136 0 min 0,000 mm 0,0 UV-I 0 W/m 5,9 C 3,2 km/h (1 Bft)
11.08.2016 23:23 8,1 C 8,2 C 86 % 1024,6 hPa 0,0 mm 0,4 km/h (0 Bft) SO 136 0 min 0,000 mm 0,0 UV-I 0 W/m 5,9 C 1,6 km/h (1 Bft)
11.08.2016 23:24 8,1 C 8,1 C 86 % 1024,6 hPa 0,0 mm 0,7 km/h (0 Bft) SO 136 0 min 0,000 mm 0,0 UV-I 0 W/m 5,9 C 3,2 km/h (1 Bft)
11.08.2016 23:25 8,1 C 8,1 C 86 % 1024,6 hPa 0,0 mm 1,0 km/h (0 Bft) SO 136 0 min 0,000 mm 0,0 UV-I 0 W/m 5,9 C 3,2 km/h (1 Bft)
11.08.2016 23:26 8,1 C 8,1 C 87 % 1024,6 hPa 0,0 mm 0,7 km/h (0 Bft) SO 136 0 min 0,000 mm 0,0 UV-I 0 W/m 6,1 C 1,6 km/h (1 Bft)
11.08.2016 23:27 7,9 C 8,1 C 87 % 1024,6 hPa 0,0 mm 1,3 km/h (1 Bft) SO 136 0 min 0,000 mm 0,0 UV-I 0 W/m 5,9 C 1,6 km/h (1 Bft)
11.08.2016 23:28 8,0 C 8,0 C 87 % 1024,6 hPa 0,0 mm 0,4 km/h (0 Bft) SO 136 0 min 0,000 mm 0,0 UV-I 0 W/m 6,0 C 1,6 km/h (1 Bft)
11.08.2016 23:29 8,0 C 8,0 C 87 % 1024,6 hPa 0,0 mm 0,7 km/h (0 Bft) SO 136 0 min 0,000 mm 0,0 UV-I 0 W/m 6,0 C 1,6 km/h (1 Bft)
11.08.2016 23:30 8,0 C 8,0 C 86 % 1024,6 hPa 0,0 mm 1,1 km/h (1 Bft) SO 136 0 min 0,000 mm 0,0 UV-I 0 W/m 5,8 C 1,6 km/h (1 Bft)
11.08.2016 23:31 8,1 C 8,1 C 87 % 1024,6 hPa 0,0 mm 1,7 km/h (1 Bft) SO 136 0 min 0,000 mm 0,0 UV-I 0 W/m 6,1 C 3,2 km/h (1 Bft)
11.08.2016 23:32 8,2 C 8,2 C 88 % 1024,6 hPa 0,0 mm 2,1 km/h (1 Bft) SO 136 0 min 0,000 mm 0,0 UV-I 0 W/m 6,3 C 3,2 km/h (1 Bft)
11.08.2016 23:33 8,1 C 8,2 C 87 % 1024,6 hPa 0,0 mm 1,9 km/h (1 Bft) SO 136 0 min 0,000 mm 0,0 UV-I 0 W/m 6,1 C 3,2 km/h (1 Bft)
11.08.2016 23:34 8,1 C 8,2 C 86 % 1024,6 hPa 0,0 mm 1,3 km/h (1 Bft) SO 136 0 min 0,000 mm 0,0 UV-I 0 W/m 5,9 C 3,2 km/h (1 Bft)
11.08.2016 23:35 8,1 C 8,1 C 87 % 1024,6 hPa 0,0 mm 1,8 km/h (1 Bft) SO 136 0 min 0,000 mm 0,0 UV-I 0 W/m 6,1 C 3,2 km/h (1 Bft)
11.08.2016 23:36 8,1 C 8,2 C 87 % 1024,6 hPa 0,0 mm 2,4 km/h (1 Bft) SO 136 0 min 0,000 mm 0,0 UV-I 0 W/m 6,1 C 4,8 km/h (1 Bft)
11.08.2016 23:37 8,2 C 8,2 C 88 % 1024,6 hPa 0,0 mm 1,8 km/h (1 Bft) SO 136 0 min 0,000 mm 0,0 UV-I 0 W/m 6,3 C 3,2 km/h (1 Bft)
11.08.2016 23:38 8,1 C 8,2 C 86 % 1024,6 hPa 0,0 mm 1,8 km/h (1 Bft) SO 136 0 min 0,000 mm 0,0 UV-I 0 W/m 5,9 C 3,2 km/h (1 Bft)
11.08.2016 23:39 8,1 C 8,1 C 86 % 1024,6 hPa 0,0 mm 2,1 km/h (1 Bft) SO 136 0 min 0,000 mm 0,0 UV-I 0 W/m 5,9 C 3,2 km/h (1 Bft)
11.08.2016 23:40 8,1 C 8,1 C 87 % 1024,6 hPa 0,0 mm 2,0 km/h (1 Bft) SO 136 0 min 0,000 mm 0,0 UV-I 0 W/m 6,1 C 3,2 km/h (1 Bft)
11.08.2016 23:41 8,1 C 8,1 C 87 % 1024,6 hPa 0,0 mm 2,5 km/h (1 Bft) SO 136 0 min 0,000 mm 0,0 UV-I 0 W/m 6,1 C 4,8 km/h (1 Bft)
11.08.2016 23:42 8,1 C 8,1 C 87 % 1024,6 hPa 0,0 mm 2,5 km/h (1 Bft) SO 136 0 min 0,000 mm 0,0 UV-I 0 W/m 6,1 C 3,2 km/h (1 Bft)
11.08.2016 23:43 8,0 C 8,1 C 87 % 1024,6 hPa 0,0 mm 2,7 km/h (1 Bft) SO 136 0 min 0,000 mm 0,0 UV-I 0 W/m 6,0 C 3,2 km/h (1 Bft)
11.08.2016 23:44 8,1 C 8,1 C 87 % 1024,6 hPa 0,0 mm 2,5 km/h (1 Bft) SO 136 0 min 0,000 mm 0,0 UV-I 0 W/m 6,1 C 4,8 km/h (1 Bft)
11.08.2016 23:45 8,0 C 8,1 C 87 % 1024,6 hPa 0,0 mm 2,5 km/h (1 Bft) SO 136 0 min 0,000 mm 0,0 UV-I 0 W/m 6,0 C 3,2 km/h (1 Bft)
11.08.2016 23:46 8,0 C 8,0 C 87 % 1024,6 hPa 0,0 mm 2,3 km/h (1 Bft) SO 136 0 min 0,000 mm 0,0 UV-I 0 W/m 6,0 C 3,2 km/h (1 Bft)
11.08.2016 23:47 8,0 C 8,0 C 88 % 1024,6 hPa 0,0 mm 2,0 km/h (1 Bft) SO 136 0 min 0,000 mm 0,0 UV-I 0 W/m 6,1 C 3,2 km/h (1 Bft)
11.08.2016 23:48 8,0 C 8,0 C 87 % 1024,6 hPa 0,0 mm 2,2 km/h (1 Bft) SO 136 0 min 0,000 mm 0,0 UV-I 0 W/m 6,0 C 3,2 km/h (1 Bft)
11.08.2016 23:49 8,0 C 8,0 C 87 % 1024,6 hPa 0,0 mm 1,8 km/h (1 Bft) SO 136 0 min 0,000 mm 0,0 UV-I 0 W/m 6,0 C 3,2 km/h (1 Bft)
11.08.2016 23:50 8,0 C 8,1 C 87 % 1024,6 hPa 0,0 mm 2,1 km/h (1 Bft) SO 134 0 min 0,000 mm 0,0 UV-I 0 W/m 6,0 C 4,8 km/h (1 Bft)
11.08.2016 23:51 8,0 C 8,1 C 87 % 1024,6 hPa 0,0 mm 2,0 km/h (1 Bft) SO 134 0 min 0,000 mm 0,0 UV-I 0 W/m 6,0 C 3,2 km/h (1 Bft)
11.08.2016 23:52 8,1 C 8,1 C 87 % 1024,6 hPa 0,0 mm 2,4 km/h (1 Bft) SO 134 0 min 0,000 mm 0,0 UV-I 0 W/m 6,1 C 3,2 km/h (1 Bft)
11.08.2016 23:53 8,1 C 8,1 C 87 % 1024,6 hPa 0,0 mm 2,3 km/h (1 Bft) SO 134 0 min 0,000 mm 0,0 UV-I 0 W/m 6,1 C 3,2 km/h (1 Bft)
11.08.2016 23:54 8,1 C 8,1 C 88 % 1024,6 hPa 0,0 mm 2,9 km/h (1 Bft) SO 134 0 min 0,000 mm 0,0 UV-I 0 W/m 6,2 C 3,2 km/h (1 Bft)
11.08.2016 23:55 8,0 C 8,1 C 87 % 1024,6 hPa 0,0 mm 2,1 km/h (1 Bft) SO 134 0 min 0,000 mm 0,0 UV-I 0 W/m 6,0 C 4,8 km/h (1 Bft)
11.08.2016 23:56 8,0 C 8,0 C 86 % 1024,6 hPa 0,0 mm 2,3 km/h (1 Bft) SO 134 0 min 0,000 mm 0,0 UV-I 0 W/m 5,8 C 3,2 km/h (1 Bft)
11.08.2016 23:57 8,0 C 8,0 C 87 % 1024,6 hPa 0,0 mm 3,6 km/h (1 Bft) SO 134 0 min 0,000 mm 0,0 UV-I 0 W/m 6,0 C 4,8 km/h (1 Bft)
11.08.2016 23:58 8,1 C 8,1 C 87 % 1024,5 hPa 0,0 mm 3,9 km/h (1 Bft) O-SO 123 0 min 0,000 mm 0,0 UV-I 0 W/m 6,1 C 6,4 km/h (2 Bft)
11.08.2016 23:59 8,1 C 8,1 C 87 % 1024,5 hPa 0,0 mm 1,9 km/h (1 Bft) O-SO 123 0 min 0,000 mm 0,0 UV-I 0 W/m 6,1 C 3,2 km/h (1 Bft)
_ Min-Zeit 04:59 03:44 18:31 00:04 - 23:18 - - - - - - 18:31 23:18
Minimum _ 6,6 C 6,6 C 50 % 1021,9 hPa - 0,0 km/h (0 Bft) - - - - - - 4,9 C 0,0 km/h (0 Bft)
_ Max-Zeit 15:26 15:27 08:06 10:52 02:12 13:07 - - 13:14 14:01 13:42 13:54 12:47 16:48
Maximum _ 15,9 C 15,9 C 96 % 1025,1 hPa 0,4 mm 13,1 km/h
SW (3 Bft)
- - 2 min 0,457 mm 6,9 UV-I 1081 W/m 10,0 C 20,9 km/h
W (4 Bft)
Durchschnitt _ 10,5 C 10,5 C 80 % 1023,8 hPa #9,0 mm 3,6 km/h (1 Bft) W - #4:25 h #2,667 mm 3,1 UV-I 197 W/m 6,9 C 6,0 km/h (2 Bft)